<?xml version="1.0" encoding="UTF-8" standalone="no" ?>
<gpx xmlns="http://www.topografix.com/GPX/1/1" xmlns:xsi="http://www.w3.org/2001/XMLSchema-instance" xsi:schemaLocation="http://www.topografix.com/GPX/1/1 http://www.topografix.com/GPX/1/1/gpx.xsd" version="1.1" creator="VisuGPX - https://www.visugpx.com">
  <metadata>
    <name>Boucle autour de Juziers (78)</name>
    <desc><![CDATA[Randonnée en boucle de 20 km à partir de la gare de Juziers]]></desc>
  </metadata>
  <wpt lat="49.01934" lon="1.82261">
    <ele>143.8984375</ele>
    <name><![CDATA[Fontaine Saint-Gaucher]]></name>
    <type><![CDATA[user]]></type>
  </wpt>
  <wpt lat="48.99237" lon="1.84576">
    <ele>49.2265625</ele>
    <name><![CDATA[Gare de Juziers]]></name>
    <desc><![CDATA[Gare
Juziers, Île-de-France, France]]></desc>
    <cmt><![CDATA[Gare
Juziers, Île-de-France, France]]></cmt>
    <type><![CDATA[user]]></type>
  </wpt>
  <wpt lat="49.03583" lon="1.81446">
    <ele>112.2734375</ele>
    <name><![CDATA[La Cave Aux Fées (Allée Sépulcrale)]]></name>
    <type><![CDATA[user]]></type>
  </wpt>
  <wpt lat="49.01221" lon="1.81605">
    <ele>185.6640625</ele>
    <name><![CDATA[Le Gros Chêne]]></name>
    <type><![CDATA[user]]></type>
  </wpt>
  <trk>
    <name><![CDATA[Boucle autour de Juziers_R]]></name>
    <trkseg>
      <trkpt lat="48.9923" lon="1.8459">
        <ele>46.18</ele>
        <time>2018-07-08T07:15:46Z</time>
      </trkpt>
      <trkpt lat="48.99231" lon="1.84594">
        <ele>45.51</ele>
        <time>2018-07-08T07:16:15Z</time>
      </trkpt>
      <trkpt lat="48.99232" lon="1.84594">
        <ele>45.22</ele>
        <time>2018-07-08T07:16:37Z</time>
      </trkpt>
      <trkpt lat="48.99233" lon="1.84594">
        <ele>45.57</ele>
        <time>2018-07-08T07:16:56Z</time>
      </trkpt>
      <trkpt lat="48.99234" lon="1.84595">
        <ele>45.62</ele>
        <time>2018-07-08T07:17:30Z</time>
      </trkpt>
      <trkpt lat="48.99234" lon="1.84595">
        <ele>45.84</ele>
        <time>2018-07-08T07:17:57Z</time>
      </trkpt>
      <trkpt lat="48.99232" lon="1.84596">
        <ele>45.87</ele>
        <time>2018-07-08T07:18:19Z</time>
      </trkpt>
      <trkpt lat="48.99231" lon="1.84594">
        <ele>46.07</ele>
        <time>2018-07-08T07:18:46Z</time>
      </trkpt>
      <trkpt lat="48.99231" lon="1.84595">
        <ele>45.99</ele>
        <time>2018-07-08T07:19:09Z</time>
      </trkpt>
      <trkpt lat="48.99232" lon="1.84593">
        <ele>45.93</ele>
        <time>2018-07-08T07:19:34Z</time>
      </trkpt>
      <trkpt lat="48.99232" lon="1.84591">
        <ele>45.76</ele>
        <time>2018-07-08T07:20:02Z</time>
      </trkpt>
      <trkpt lat="48.99232" lon="1.8459">
        <ele>45.75</ele>
        <time>2018-07-08T07:20:29Z</time>
      </trkpt>
      <trkpt lat="48.99233" lon="1.84591">
        <ele>46.42</ele>
        <time>2018-07-08T07:20:59Z</time>
      </trkpt>
      <trkpt lat="48.9923" lon="1.84593">
        <ele>46.42</ele>
        <time>2018-07-08T07:21:29Z</time>
      </trkpt>
      <trkpt lat="48.9924" lon="1.84594">
        <ele>45.33</ele>
        <time>2018-07-08T07:21:56Z</time>
      </trkpt>
      <trkpt lat="48.99244" lon="1.84593">
        <ele>45.47</ele>
        <time>2018-07-08T07:22:00Z</time>
      </trkpt>
      <trkpt lat="48.99257" lon="1.84581">
        <ele>45.66</ele>
        <time>2018-07-08T07:22:16Z</time>
      </trkpt>
      <trkpt lat="48.99271" lon="1.84564">
        <ele>47.64</ele>
        <time>2018-07-08T07:22:33Z</time>
      </trkpt>
      <trkpt lat="48.9928" lon="1.84547">
        <ele>49.5</ele>
        <time>2018-07-08T07:22:49Z</time>
      </trkpt>
      <trkpt lat="48.99288" lon="1.84559">
        <ele>50.01</ele>
        <time>2018-07-08T07:23:03Z</time>
      </trkpt>
      <trkpt lat="48.99289" lon="1.84563">
        <ele>49.87</ele>
        <time>2018-07-08T07:23:06Z</time>
      </trkpt>
      <trkpt lat="48.99295" lon="1.84574">
        <ele>49.78</ele>
        <time>2018-07-08T07:23:23Z</time>
      </trkpt>
      <trkpt lat="48.99303" lon="1.84587">
        <ele>49.54</ele>
        <time>2018-07-08T07:23:42Z</time>
      </trkpt>
      <trkpt lat="48.99312" lon="1.84594">
        <ele>49.78</ele>
        <time>2018-07-08T07:23:56Z</time>
      </trkpt>
      <trkpt lat="48.99322" lon="1.84584">
        <ele>51.13</ele>
        <time>2018-07-08T07:24:09Z</time>
      </trkpt>
      <trkpt lat="48.99334" lon="1.84573">
        <ele>52.57</ele>
        <time>2018-07-08T07:24:26Z</time>
      </trkpt>
      <trkpt lat="48.99349" lon="1.84563">
        <ele>54.67</ele>
        <time>2018-07-08T07:24:43Z</time>
      </trkpt>
      <trkpt lat="48.99365" lon="1.84557">
        <ele>56.41</ele>
        <time>2018-07-08T07:25:02Z</time>
      </trkpt>
      <trkpt lat="48.99374" lon="1.84553">
        <ele>57.63</ele>
        <time>2018-07-08T07:25:12Z</time>
      </trkpt>
      <trkpt lat="48.99389" lon="1.84545">
        <ele>59.31</ele>
        <time>2018-07-08T07:25:28Z</time>
      </trkpt>
      <trkpt lat="48.99404" lon="1.84543">
        <ele>62.01</ele>
        <time>2018-07-08T07:25:44Z</time>
      </trkpt>
      <trkpt lat="48.9942" lon="1.84549">
        <ele>63.24</ele>
        <time>2018-07-08T07:26:02Z</time>
      </trkpt>
      <trkpt lat="48.99429" lon="1.84549">
        <ele>63.9</ele>
        <time>2018-07-08T07:26:11Z</time>
      </trkpt>
      <trkpt lat="48.99445" lon="1.84557">
        <ele>64.68</ele>
        <time>2018-07-08T07:26:26Z</time>
      </trkpt>
      <trkpt lat="48.9945" lon="1.84558">
        <ele>64.64</ele>
        <time>2018-07-08T07:26:32Z</time>
      </trkpt>
      <trkpt lat="48.99454" lon="1.84561">
        <ele>64.33</ele>
        <time>2018-07-08T07:26:36Z</time>
      </trkpt>
      <trkpt lat="48.99457" lon="1.84562">
        <ele>64.92</ele>
        <time>2018-07-08T07:26:39Z</time>
      </trkpt>
      <trkpt lat="48.99471" lon="1.84568">
        <ele>64.91</ele>
        <time>2018-07-08T07:26:54Z</time>
      </trkpt>
      <trkpt lat="48.99486" lon="1.84579">
        <ele>65.4</ele>
        <time>2018-07-08T07:27:12Z</time>
      </trkpt>
      <trkpt lat="48.99487" lon="1.8458">
        <ele>66.07</ele>
        <time>2018-07-08T07:27:13Z</time>
      </trkpt>
      <trkpt lat="48.99504" lon="1.84591">
        <ele>65.7</ele>
        <time>2018-07-08T07:27:30Z</time>
      </trkpt>
      <trkpt lat="48.99514" lon="1.846">
        <ele>66.27</ele>
        <time>2018-07-08T07:27:41Z</time>
      </trkpt>
      <trkpt lat="48.99517" lon="1.84603">
        <ele>66.2</ele>
        <time>2018-07-08T07:27:44Z</time>
      </trkpt>
      <trkpt lat="48.9953" lon="1.8462">
        <ele>66.27</ele>
        <time>2018-07-08T07:27:59Z</time>
      </trkpt>
      <trkpt lat="48.9954" lon="1.84632">
        <ele>67.03</ele>
        <time>2018-07-08T07:28:09Z</time>
      </trkpt>
      <trkpt lat="48.99543" lon="1.84635">
        <ele>66.37</ele>
        <time>2018-07-08T07:28:12Z</time>
      </trkpt>
      <trkpt lat="48.99547" lon="1.84642">
        <ele>67.11</ele>
        <time>2018-07-08T07:28:20Z</time>
      </trkpt>
      <trkpt lat="48.99551" lon="1.84647">
        <ele>67.11</ele>
        <time>2018-07-08T07:28:24Z</time>
      </trkpt>
      <trkpt lat="48.99566" lon="1.84667">
        <ele>67.64</ele>
        <time>2018-07-08T07:28:42Z</time>
      </trkpt>
      <trkpt lat="48.99568" lon="1.84669">
        <ele>67.65</ele>
        <time>2018-07-08T07:28:45Z</time>
      </trkpt>
      <trkpt lat="48.99581" lon="1.84684">
        <ele>68.86</ele>
        <time>2018-07-08T07:29:01Z</time>
      </trkpt>
      <trkpt lat="48.99594" lon="1.84701">
        <ele>69.79</ele>
        <time>2018-07-08T07:29:18Z</time>
      </trkpt>
      <trkpt lat="48.99604" lon="1.8471">
        <ele>71.41</ele>
        <time>2018-07-08T07:29:31Z</time>
      </trkpt>
      <trkpt lat="48.99615" lon="1.8472">
        <ele>72.83</ele>
        <time>2018-07-08T07:29:48Z</time>
      </trkpt>
      <trkpt lat="48.99632" lon="1.84726">
        <ele>73.99</ele>
        <time>2018-07-08T07:30:06Z</time>
      </trkpt>
      <trkpt lat="48.99634" lon="1.84719">
        <ele>74.02</ele>
        <time>2018-07-08T07:30:13Z</time>
      </trkpt>
      <trkpt lat="48.99641" lon="1.847">
        <ele>73.88</ele>
        <time>2018-07-08T07:30:25Z</time>
      </trkpt>
      <trkpt lat="48.99644" lon="1.84687">
        <ele>73.54</ele>
        <time>2018-07-08T07:30:33Z</time>
      </trkpt>
      <trkpt lat="48.99641" lon="1.84673">
        <ele>73.07</ele>
        <time>2018-07-08T07:30:42Z</time>
      </trkpt>
      <trkpt lat="48.9964" lon="1.84662">
        <ele>73.09</ele>
        <time>2018-07-08T07:30:59Z</time>
      </trkpt>
      <trkpt lat="48.99641" lon="1.84665">
        <ele>73.33</ele>
        <time>2018-07-08T07:31:16Z</time>
      </trkpt>
      <trkpt lat="48.99641" lon="1.84665">
        <ele>72.73</ele>
        <time>2018-07-08T07:31:37Z</time>
      </trkpt>
      <trkpt lat="48.99643" lon="1.84665">
        <ele>73.12</ele>
        <time>2018-07-08T07:31:54Z</time>
      </trkpt>
      <trkpt lat="48.99642" lon="1.84676">
        <ele>73.01</ele>
        <time>2018-07-08T07:32:10Z</time>
      </trkpt>
      <trkpt lat="48.99641" lon="1.84699">
        <ele>73.45</ele>
        <time>2018-07-08T07:32:26Z</time>
      </trkpt>
      <trkpt lat="48.99639" lon="1.84706">
        <ele>74.18</ele>
        <time>2018-07-08T07:32:30Z</time>
      </trkpt>
      <trkpt lat="48.99635" lon="1.84729">
        <ele>74.18</ele>
        <time>2018-07-08T07:32:45Z</time>
      </trkpt>
      <trkpt lat="48.99637" lon="1.84736">
        <ele>74.66</ele>
        <time>2018-07-08T07:32:50Z</time>
      </trkpt>
      <trkpt lat="48.99651" lon="1.84745">
        <ele>75.88</ele>
        <time>2018-07-08T07:33:06Z</time>
      </trkpt>
      <trkpt lat="48.99654" lon="1.84748">
        <ele>76.39</ele>
        <time>2018-07-08T07:33:10Z</time>
      </trkpt>
      <trkpt lat="48.99662" lon="1.84753">
        <ele>77.36</ele>
        <time>2018-07-08T07:33:19Z</time>
      </trkpt>
      <trkpt lat="48.99676" lon="1.84759">
        <ele>78.36</ele>
        <time>2018-07-08T07:33:35Z</time>
      </trkpt>
      <trkpt lat="48.9968" lon="1.8476">
        <ele>78.83</ele>
        <time>2018-07-08T07:33:40Z</time>
      </trkpt>
      <trkpt lat="48.99691" lon="1.84764">
        <ele>79.77</ele>
        <time>2018-07-08T07:33:53Z</time>
      </trkpt>
      <trkpt lat="48.99705" lon="1.84779">
        <ele>80.89</ele>
        <time>2018-07-08T07:34:14Z</time>
      </trkpt>
      <trkpt lat="48.99715" lon="1.84788">
        <ele>81.46</ele>
        <time>2018-07-08T07:34:26Z</time>
      </trkpt>
      <trkpt lat="48.99731" lon="1.84802">
        <ele>82.4</ele>
        <time>2018-07-08T07:34:44Z</time>
      </trkpt>
      <trkpt lat="48.9974" lon="1.84804">
        <ele>82.96</ele>
        <time>2018-07-08T07:34:52Z</time>
      </trkpt>
      <trkpt lat="48.99755" lon="1.84814">
        <ele>83.43</ele>
        <time>2018-07-08T07:35:09Z</time>
      </trkpt>
      <trkpt lat="48.99759" lon="1.84819">
        <ele>84.01</ele>
        <time>2018-07-08T07:35:16Z</time>
      </trkpt>
      <trkpt lat="48.99765" lon="1.8482">
        <ele>84.66</ele>
        <time>2018-07-08T07:35:28Z</time>
      </trkpt>
      <trkpt lat="48.99771" lon="1.84823">
        <ele>85.38</ele>
        <time>2018-07-08T07:35:37Z</time>
      </trkpt>
      <trkpt lat="48.99785" lon="1.84834">
        <ele>86.52</ele>
        <time>2018-07-08T07:35:49Z</time>
      </trkpt>
      <trkpt lat="48.99801" lon="1.84843">
        <ele>87.12</ele>
        <time>2018-07-08T07:36:03Z</time>
      </trkpt>
      <trkpt lat="48.99812" lon="1.84851">
        <ele>87.94</ele>
        <time>2018-07-08T07:36:15Z</time>
      </trkpt>
      <trkpt lat="48.99814" lon="1.84853">
        <ele>87.98</ele>
        <time>2018-07-08T07:36:18Z</time>
      </trkpt>
      <trkpt lat="48.99817" lon="1.84855">
        <ele>87.98</ele>
        <time>2018-07-08T07:36:21Z</time>
      </trkpt>
      <trkpt lat="48.99824" lon="1.84863">
        <ele>88.85</ele>
        <time>2018-07-08T07:36:29Z</time>
      </trkpt>
      <trkpt lat="48.99827" lon="1.84868">
        <ele>89.64</ele>
        <time>2018-07-08T07:36:34Z</time>
      </trkpt>
      <trkpt lat="48.99837" lon="1.84878">
        <ele>90.21</ele>
        <time>2018-07-08T07:36:48Z</time>
      </trkpt>
      <trkpt lat="48.9984" lon="1.84881">
        <ele>90.47</ele>
        <time>2018-07-08T07:36:53Z</time>
      </trkpt>
      <trkpt lat="48.99849" lon="1.8489">
        <ele>91.82</ele>
        <time>2018-07-08T07:37:04Z</time>
      </trkpt>
      <trkpt lat="48.99857" lon="1.84901">
        <ele>92.07</ele>
        <time>2018-07-08T07:37:14Z</time>
      </trkpt>
      <trkpt lat="48.9987" lon="1.84916">
        <ele>93.23</ele>
        <time>2018-07-08T07:37:30Z</time>
      </trkpt>
      <trkpt lat="48.99874" lon="1.84921">
        <ele>93.52</ele>
        <time>2018-07-08T07:37:37Z</time>
      </trkpt>
      <trkpt lat="48.99883" lon="1.84936">
        <ele>94.5</ele>
        <time>2018-07-08T07:37:52Z</time>
      </trkpt>
      <trkpt lat="48.99892" lon="1.84953">
        <ele>95.73</ele>
        <time>2018-07-08T07:38:08Z</time>
      </trkpt>
      <trkpt lat="48.99899" lon="1.84963">
        <ele>96.46</ele>
        <time>2018-07-08T07:38:21Z</time>
      </trkpt>
      <trkpt lat="48.99906" lon="1.84966">
        <ele>96.55</ele>
        <time>2018-07-08T07:38:38Z</time>
      </trkpt>
      <trkpt lat="48.99908" lon="1.84966">
        <ele>96.8</ele>
        <time>2018-07-08T07:38:59Z</time>
      </trkpt>
      <trkpt lat="48.99916" lon="1.84963">
        <ele>97.1</ele>
        <time>2018-07-08T07:39:16Z</time>
      </trkpt>
      <trkpt lat="48.99928" lon="1.84951">
        <ele>97.06</ele>
        <time>2018-07-08T07:39:32Z</time>
      </trkpt>
      <trkpt lat="48.99935" lon="1.84943">
        <ele>97.63</ele>
        <time>2018-07-08T07:39:50Z</time>
      </trkpt>
      <trkpt lat="48.99937" lon="1.84937">
        <ele>98.26</ele>
        <time>2018-07-08T07:40:11Z</time>
      </trkpt>
      <trkpt lat="48.99939" lon="1.84931">
        <ele>98.32</ele>
        <time>2018-07-08T07:40:18Z</time>
      </trkpt>
      <trkpt lat="48.99941" lon="1.8492">
        <ele>99.08</ele>
        <time>2018-07-08T07:40:35Z</time>
      </trkpt>
      <trkpt lat="48.99947" lon="1.8491">
        <ele>99.62</ele>
        <time>2018-07-08T07:40:58Z</time>
      </trkpt>
      <trkpt lat="48.99952" lon="1.84898">
        <ele>100.68</ele>
        <time>2018-07-08T07:41:15Z</time>
      </trkpt>
      <trkpt lat="48.99954" lon="1.84891">
        <ele>101.92</ele>
        <time>2018-07-08T07:41:20Z</time>
      </trkpt>
      <trkpt lat="48.99956" lon="1.84888">
        <ele>101.85</ele>
        <time>2018-07-08T07:41:23Z</time>
      </trkpt>
      <trkpt lat="48.99959" lon="1.84877">
        <ele>103.23</ele>
        <time>2018-07-08T07:41:31Z</time>
      </trkpt>
      <trkpt lat="48.99966" lon="1.8486">
        <ele>105.42</ele>
        <time>2018-07-08T07:41:46Z</time>
      </trkpt>
      <trkpt lat="48.99972" lon="1.84846">
        <ele>106.09</ele>
        <time>2018-07-08T07:42:00Z</time>
      </trkpt>
      <trkpt lat="48.99978" lon="1.84831">
        <ele>107.78</ele>
        <time>2018-07-08T07:42:17Z</time>
      </trkpt>
      <trkpt lat="48.99995" lon="1.84821">
        <ele>110.09</ele>
        <time>2018-07-08T07:42:38Z</time>
      </trkpt>
      <trkpt lat="48.99994" lon="1.84808">
        <ele>109.97</ele>
        <time>2018-07-08T07:42:46Z</time>
      </trkpt>
      <trkpt lat="49" lon="1.84792">
        <ele>111.17</ele>
        <time>2018-07-08T07:43:01Z</time>
      </trkpt>
      <trkpt lat="49.00007" lon="1.84779">
        <ele>112.25</ele>
        <time>2018-07-08T07:43:18Z</time>
      </trkpt>
      <trkpt lat="49.00011" lon="1.8477">
        <ele>112.59</ele>
        <time>2018-07-08T07:43:37Z</time>
      </trkpt>
      <trkpt lat="49.00019" lon="1.84759">
        <ele>113.58</ele>
        <time>2018-07-08T07:43:49Z</time>
      </trkpt>
      <trkpt lat="49.00036" lon="1.84743">
        <ele>114.72</ele>
        <time>2018-07-08T07:44:09Z</time>
      </trkpt>
      <trkpt lat="49.0004" lon="1.84741">
        <ele>114.4</ele>
        <time>2018-07-08T07:44:14Z</time>
      </trkpt>
      <trkpt lat="49.00042" lon="1.8474">
        <ele>114.99</ele>
        <time>2018-07-08T07:44:16Z</time>
      </trkpt>
      <trkpt lat="49.00044" lon="1.8474">
        <ele>114.87</ele>
        <time>2018-07-08T07:44:21Z</time>
      </trkpt>
      <trkpt lat="49.00042" lon="1.8474">
        <ele>114.63</ele>
        <time>2018-07-08T07:44:23Z</time>
      </trkpt>
      <trkpt lat="49.00045" lon="1.84744">
        <ele>114.84</ele>
        <time>2018-07-08T07:44:57Z</time>
      </trkpt>
      <trkpt lat="49.00039" lon="1.84747">
        <ele>114.1</ele>
        <time>2018-07-08T07:45:22Z</time>
      </trkpt>
      <trkpt lat="49.00036" lon="1.84755">
        <ele>113.78</ele>
        <time>2018-07-08T07:45:43Z</time>
      </trkpt>
      <trkpt lat="49.00041" lon="1.84749">
        <ele>114.65</ele>
        <time>2018-07-08T07:46:00Z</time>
      </trkpt>
      <trkpt lat="49.00042" lon="1.84749">
        <ele>114.62</ele>
        <time>2018-07-08T07:46:03Z</time>
      </trkpt>
      <trkpt lat="49.00043" lon="1.84745">
        <ele>114.68</ele>
        <time>2018-07-08T07:46:06Z</time>
      </trkpt>
      <trkpt lat="49.00051" lon="1.84731">
        <ele>116.5</ele>
        <time>2018-07-08T07:46:34Z</time>
      </trkpt>
      <trkpt lat="49.00064" lon="1.84709">
        <ele>117.73</ele>
        <time>2018-07-08T07:46:56Z</time>
      </trkpt>
      <trkpt lat="49.00075" lon="1.84693">
        <ele>118.98</ele>
        <time>2018-07-08T07:47:14Z</time>
      </trkpt>
      <trkpt lat="49.00087" lon="1.84677">
        <ele>120.18</ele>
        <time>2018-07-08T07:47:34Z</time>
      </trkpt>
      <trkpt lat="49.00102" lon="1.84659">
        <ele>121.67</ele>
        <time>2018-07-08T07:47:54Z</time>
      </trkpt>
      <trkpt lat="49.00116" lon="1.84636">
        <ele>124.42</ele>
        <time>2018-07-08T07:48:17Z</time>
      </trkpt>
      <trkpt lat="49.00126" lon="1.84624">
        <ele>125.6</ele>
        <time>2018-07-08T07:48:37Z</time>
      </trkpt>
      <trkpt lat="49.00132" lon="1.84622">
        <ele>125.58</ele>
        <time>2018-07-08T07:49:01Z</time>
      </trkpt>
      <trkpt lat="49.00148" lon="1.84606">
        <ele>127.44</ele>
        <time>2018-07-08T07:49:25Z</time>
      </trkpt>
      <trkpt lat="49.00149" lon="1.84605">
        <ele>127.81</ele>
        <time>2018-07-08T07:49:26Z</time>
      </trkpt>
      <trkpt lat="49.00156" lon="1.84593">
        <ele>128.33</ele>
        <time>2018-07-08T07:49:39Z</time>
      </trkpt>
      <trkpt lat="49.00158" lon="1.84586">
        <ele>129.44</ele>
        <time>2018-07-08T07:49:45Z</time>
      </trkpt>
      <trkpt lat="49.00164" lon="1.84574">
        <ele>130.64</ele>
        <time>2018-07-08T07:49:57Z</time>
      </trkpt>
      <trkpt lat="49.00166" lon="1.84572">
        <ele>130.2</ele>
        <time>2018-07-08T07:49:59Z</time>
      </trkpt>
      <trkpt lat="49.00167" lon="1.84568">
        <ele>130.77</ele>
        <time>2018-07-08T07:50:04Z</time>
      </trkpt>
      <trkpt lat="49.00183" lon="1.84547">
        <ele>131.96</ele>
        <time>2018-07-08T07:50:28Z</time>
      </trkpt>
      <trkpt lat="49.00202" lon="1.84524">
        <ele>134.26</ele>
        <time>2018-07-08T07:50:54Z</time>
      </trkpt>
      <trkpt lat="49.00219" lon="1.84498">
        <ele>135.71</ele>
        <time>2018-07-08T07:51:15Z</time>
      </trkpt>
      <trkpt lat="49.00232" lon="1.8447">
        <ele>136.97</ele>
        <time>2018-07-08T07:51:39Z</time>
      </trkpt>
      <trkpt lat="49.00235" lon="1.84461">
        <ele>137.65</ele>
        <time>2018-07-08T07:51:48Z</time>
      </trkpt>
      <trkpt lat="49.00249" lon="1.84453">
        <ele>137.99</ele>
        <time>2018-07-08T07:52:05Z</time>
      </trkpt>
      <trkpt lat="49.00257" lon="1.84436">
        <ele>139</ele>
        <time>2018-07-08T07:52:24Z</time>
      </trkpt>
      <trkpt lat="49.00271" lon="1.84411">
        <ele>140.29</ele>
        <time>2018-07-08T07:52:43Z</time>
      </trkpt>
      <trkpt lat="49.00284" lon="1.84385">
        <ele>141.59</ele>
        <time>2018-07-08T07:53:03Z</time>
      </trkpt>
      <trkpt lat="49.00289" lon="1.84365">
        <ele>142.53</ele>
        <time>2018-07-08T07:53:19Z</time>
      </trkpt>
      <trkpt lat="49.00289" lon="1.84364">
        <ele>143.24</ele>
        <time>2018-07-08T07:53:21Z</time>
      </trkpt>
      <trkpt lat="49.00288" lon="1.84362">
        <ele>143.08</ele>
        <time>2018-07-08T07:53:23Z</time>
      </trkpt>
      <trkpt lat="49.00293" lon="1.84352">
        <ele>143.69</ele>
        <time>2018-07-08T07:53:41Z</time>
      </trkpt>
      <trkpt lat="49.00307" lon="1.84338">
        <ele>143.69</ele>
        <time>2018-07-08T07:53:52Z</time>
      </trkpt>
      <trkpt lat="49.00312" lon="1.84317">
        <ele>144.63</ele>
        <time>2018-07-08T07:54:10Z</time>
      </trkpt>
      <trkpt lat="49.00316" lon="1.84306">
        <ele>145.01</ele>
        <time>2018-07-08T07:54:18Z</time>
      </trkpt>
      <trkpt lat="49.00317" lon="1.84297">
        <ele>145.06</ele>
        <time>2018-07-08T07:54:22Z</time>
      </trkpt>
      <trkpt lat="49.00318" lon="1.8429">
        <ele>145.12</ele>
        <time>2018-07-08T07:54:25Z</time>
      </trkpt>
      <trkpt lat="49.00314" lon="1.84259">
        <ele>144.34</ele>
        <time>2018-07-08T07:54:41Z</time>
      </trkpt>
      <trkpt lat="49.00315" lon="1.84243">
        <ele>143.91</ele>
        <time>2018-07-08T07:54:53Z</time>
      </trkpt>
      <trkpt lat="49.00321" lon="1.84225">
        <ele>144.15</ele>
        <time>2018-07-08T07:55:12Z</time>
      </trkpt>
      <trkpt lat="49.00334" lon="1.84225">
        <ele>143.57</ele>
        <time>2018-07-08T07:55:30Z</time>
      </trkpt>
      <trkpt lat="49.00334" lon="1.84226">
        <ele>144.95</ele>
        <time>2018-07-08T07:55:32Z</time>
      </trkpt>
      <trkpt lat="49.00338" lon="1.84225">
        <ele>145.03</ele>
        <time>2018-07-08T07:55:58Z</time>
      </trkpt>
      <trkpt lat="49.00349" lon="1.84223">
        <ele>146.32</ele>
        <time>2018-07-08T07:56:17Z</time>
      </trkpt>
      <trkpt lat="49.00364" lon="1.84219">
        <ele>147.17</ele>
        <time>2018-07-08T07:56:41Z</time>
      </trkpt>
      <trkpt lat="49.00381" lon="1.84215">
        <ele>148.78</ele>
        <time>2018-07-08T07:57:03Z</time>
      </trkpt>
      <trkpt lat="49.00386" lon="1.84214">
        <ele>149.23</ele>
        <time>2018-07-08T07:57:10Z</time>
      </trkpt>
      <trkpt lat="49.00396" lon="1.84211">
        <ele>150.45</ele>
        <time>2018-07-08T07:57:26Z</time>
      </trkpt>
      <trkpt lat="49.00411" lon="1.84202">
        <ele>151.49</ele>
        <time>2018-07-08T07:57:47Z</time>
      </trkpt>
      <trkpt lat="49.0042" lon="1.84199">
        <ele>151.56</ele>
        <time>2018-07-08T07:57:57Z</time>
      </trkpt>
      <trkpt lat="49.00432" lon="1.84186">
        <ele>152.32</ele>
        <time>2018-07-08T07:58:15Z</time>
      </trkpt>
      <trkpt lat="49.00446" lon="1.8418">
        <ele>153.11</ele>
        <time>2018-07-08T07:58:27Z</time>
      </trkpt>
      <trkpt lat="49.00468" lon="1.84169">
        <ele>154.65</ele>
        <time>2018-07-08T07:58:48Z</time>
      </trkpt>
      <trkpt lat="49.00489" lon="1.84164">
        <ele>154.95</ele>
        <time>2018-07-08T07:59:07Z</time>
      </trkpt>
      <trkpt lat="49.00512" lon="1.84152">
        <ele>154.95</ele>
        <time>2018-07-08T07:59:28Z</time>
      </trkpt>
      <trkpt lat="49.00536" lon="1.84144">
        <ele>155.41</ele>
        <time>2018-07-08T07:59:52Z</time>
      </trkpt>
      <trkpt lat="49.00557" lon="1.84131">
        <ele>156.58</ele>
        <time>2018-07-08T08:00:12Z</time>
      </trkpt>
      <trkpt lat="49.00567" lon="1.84127">
        <ele>156.2</ele>
        <time>2018-07-08T08:00:20Z</time>
      </trkpt>
      <trkpt lat="49.00576" lon="1.84121">
        <ele>156.49</ele>
        <time>2018-07-08T08:00:32Z</time>
      </trkpt>
      <trkpt lat="49.00596" lon="1.84109">
        <ele>156.51</ele>
        <time>2018-07-08T08:00:54Z</time>
      </trkpt>
      <trkpt lat="49.00619" lon="1.84098">
        <ele>156.46</ele>
        <time>2018-07-08T08:01:16Z</time>
      </trkpt>
      <trkpt lat="49.00636" lon="1.84088">
        <ele>157.6</ele>
        <time>2018-07-08T08:01:40Z</time>
      </trkpt>
      <trkpt lat="49.00645" lon="1.84083">
        <ele>158.03</ele>
        <time>2018-07-08T08:01:49Z</time>
      </trkpt>
      <trkpt lat="49.00647" lon="1.84081">
        <ele>157.54</ele>
        <time>2018-07-08T08:01:51Z</time>
      </trkpt>
      <trkpt lat="49.00661" lon="1.84071">
        <ele>157.9</ele>
        <time>2018-07-08T08:02:05Z</time>
      </trkpt>
      <trkpt lat="49.00673" lon="1.84067">
        <ele>157.64</ele>
        <time>2018-07-08T08:02:15Z</time>
      </trkpt>
      <trkpt lat="49.00678" lon="1.84065">
        <ele>157.58</ele>
        <time>2018-07-08T08:02:20Z</time>
      </trkpt>
      <trkpt lat="49.00682" lon="1.84065">
        <ele>157.67</ele>
        <time>2018-07-08T08:02:24Z</time>
      </trkpt>
      <trkpt lat="49.00704" lon="1.84055">
        <ele>158.08</ele>
        <time>2018-07-08T08:02:47Z</time>
      </trkpt>
      <trkpt lat="49.00719" lon="1.84047">
        <ele>158.5</ele>
        <time>2018-07-08T08:03:07Z</time>
      </trkpt>
      <trkpt lat="49.00733" lon="1.8404">
        <ele>158.13</ele>
        <time>2018-07-08T08:03:29Z</time>
      </trkpt>
      <trkpt lat="49.0075" lon="1.84029">
        <ele>158.75</ele>
        <time>2018-07-08T08:03:52Z</time>
      </trkpt>
      <trkpt lat="49.00772" lon="1.84017">
        <ele>159.35</ele>
        <time>2018-07-08T08:04:15Z</time>
      </trkpt>
      <trkpt lat="49.00792" lon="1.84006">
        <ele>159.36</ele>
        <time>2018-07-08T08:04:35Z</time>
      </trkpt>
      <trkpt lat="49.00809" lon="1.83997">
        <ele>160.14</ele>
        <time>2018-07-08T08:04:54Z</time>
      </trkpt>
      <trkpt lat="49.00823" lon="1.83982">
        <ele>160.53</ele>
        <time>2018-07-08T08:05:14Z</time>
      </trkpt>
      <trkpt lat="49.00825" lon="1.83982">
        <ele>160.3</ele>
        <time>2018-07-08T08:05:15Z</time>
      </trkpt>
      <trkpt lat="49.0085" lon="1.83971">
        <ele>160.7</ele>
        <time>2018-07-08T08:05:38Z</time>
      </trkpt>
      <trkpt lat="49.00868" lon="1.83956">
        <ele>159.85</ele>
        <time>2018-07-08T08:06:01Z</time>
      </trkpt>
      <trkpt lat="49.00888" lon="1.83945">
        <ele>160.15</ele>
        <time>2018-07-08T08:06:21Z</time>
      </trkpt>
      <trkpt lat="49.0091" lon="1.8393">
        <ele>159.64</ele>
        <time>2018-07-08T08:06:41Z</time>
      </trkpt>
      <trkpt lat="49.00929" lon="1.83914">
        <ele>160.51</ele>
        <time>2018-07-08T08:07:03Z</time>
      </trkpt>
      <trkpt lat="49.00961" lon="1.83894">
        <ele>159.34</ele>
        <time>2018-07-08T08:07:29Z</time>
      </trkpt>
      <trkpt lat="49.00979" lon="1.83878">
        <ele>159.5</ele>
        <time>2018-07-08T08:07:49Z</time>
      </trkpt>
      <trkpt lat="49.00987" lon="1.83865">
        <ele>158.99</ele>
        <time>2018-07-08T08:08:01Z</time>
      </trkpt>
      <trkpt lat="49.01003" lon="1.8384">
        <ele>158.35</ele>
        <time>2018-07-08T08:08:21Z</time>
      </trkpt>
      <trkpt lat="49.01014" lon="1.83811">
        <ele>157.44</ele>
        <time>2018-07-08T08:08:43Z</time>
      </trkpt>
      <trkpt lat="49.01023" lon="1.83782">
        <ele>157.04</ele>
        <time>2018-07-08T08:09:04Z</time>
      </trkpt>
      <trkpt lat="49.01031" lon="1.83743">
        <ele>157.08</ele>
        <time>2018-07-08T08:09:29Z</time>
      </trkpt>
      <trkpt lat="49.01038" lon="1.83712">
        <ele>157.26</ele>
        <time>2018-07-08T08:09:49Z</time>
      </trkpt>
      <trkpt lat="49.01045" lon="1.83674">
        <ele>156.64</ele>
        <time>2018-07-08T08:10:11Z</time>
      </trkpt>
      <trkpt lat="49.01055" lon="1.83643">
        <ele>155.74</ele>
        <time>2018-07-08T08:10:30Z</time>
      </trkpt>
      <trkpt lat="49.01063" lon="1.83613">
        <ele>155.65</ele>
        <time>2018-07-08T08:10:50Z</time>
      </trkpt>
      <trkpt lat="49.0107" lon="1.8359">
        <ele>155.38</ele>
        <time>2018-07-08T08:11:07Z</time>
      </trkpt>
      <trkpt lat="49.01078" lon="1.83565">
        <ele>155.57</ele>
        <time>2018-07-08T08:11:28Z</time>
      </trkpt>
      <trkpt lat="49.01086" lon="1.83526">
        <ele>154.66</ele>
        <time>2018-07-08T08:11:51Z</time>
      </trkpt>
      <trkpt lat="49.01092" lon="1.83509">
        <ele>153.89</ele>
        <time>2018-07-08T08:12:04Z</time>
      </trkpt>
      <trkpt lat="49.011" lon="1.83471">
        <ele>153.26</ele>
        <time>2018-07-08T08:12:26Z</time>
      </trkpt>
      <trkpt lat="49.01106" lon="1.83452">
        <ele>153.06</ele>
        <time>2018-07-08T08:12:40Z</time>
      </trkpt>
      <trkpt lat="49.01107" lon="1.83445">
        <ele>152.51</ele>
        <time>2018-07-08T08:12:44Z</time>
      </trkpt>
      <trkpt lat="49.01107" lon="1.83438">
        <ele>152.61</ele>
        <time>2018-07-08T08:12:47Z</time>
      </trkpt>
      <trkpt lat="49.0111" lon="1.83402">
        <ele>151.8</ele>
        <time>2018-07-08T08:13:03Z</time>
      </trkpt>
      <trkpt lat="49.0111" lon="1.83387">
        <ele>152.02</ele>
        <time>2018-07-08T08:13:10Z</time>
      </trkpt>
      <trkpt lat="49.01113" lon="1.83362">
        <ele>151.85</ele>
        <time>2018-07-08T08:13:24Z</time>
      </trkpt>
      <trkpt lat="49.01119" lon="1.83345">
        <ele>151.55</ele>
        <time>2018-07-08T08:13:36Z</time>
      </trkpt>
      <trkpt lat="49.01119" lon="1.83343">
        <ele>151.22</ele>
        <time>2018-07-08T08:13:37Z</time>
      </trkpt>
      <trkpt lat="49.0112" lon="1.83339">
        <ele>151.61</ele>
        <time>2018-07-08T08:13:39Z</time>
      </trkpt>
      <trkpt lat="49.01132" lon="1.8332">
        <ele>151.22</ele>
        <time>2018-07-08T08:13:54Z</time>
      </trkpt>
      <trkpt lat="49.01138" lon="1.83297">
        <ele>151.21</ele>
        <time>2018-07-08T08:14:10Z</time>
      </trkpt>
      <trkpt lat="49.01145" lon="1.83267">
        <ele>150.95</ele>
        <time>2018-07-08T08:14:30Z</time>
      </trkpt>
      <trkpt lat="49.01146" lon="1.83263">
        <ele>150.94</ele>
        <time>2018-07-08T08:14:32Z</time>
      </trkpt>
      <trkpt lat="49.01145" lon="1.83259">
        <ele>151.02</ele>
        <time>2018-07-08T08:14:34Z</time>
      </trkpt>
      <trkpt lat="49.01153" lon="1.83236">
        <ele>150.54</ele>
        <time>2018-07-08T08:14:53Z</time>
      </trkpt>
      <trkpt lat="49.01161" lon="1.83224">
        <ele>150.71</ele>
        <time>2018-07-08T08:15:03Z</time>
      </trkpt>
      <trkpt lat="49.01171" lon="1.83207">
        <ele>150.48</ele>
        <time>2018-07-08T08:15:20Z</time>
      </trkpt>
      <trkpt lat="49.01187" lon="1.83193">
        <ele>150.08</ele>
        <time>2018-07-08T08:15:41Z</time>
      </trkpt>
      <trkpt lat="49.01194" lon="1.83182">
        <ele>150.23</ele>
        <time>2018-07-08T08:15:55Z</time>
      </trkpt>
      <trkpt lat="49.01197" lon="1.83168">
        <ele>148.78</ele>
        <time>2018-07-08T08:16:12Z</time>
      </trkpt>
      <trkpt lat="49.01211" lon="1.83147">
        <ele>148.46</ele>
        <time>2018-07-08T08:16:29Z</time>
      </trkpt>
      <trkpt lat="49.01216" lon="1.83125">
        <ele>148.03</ele>
        <time>2018-07-08T08:16:46Z</time>
      </trkpt>
      <trkpt lat="49.01215" lon="1.83118">
        <ele>148.24</ele>
        <time>2018-07-08T08:17:04Z</time>
      </trkpt>
      <trkpt lat="49.01214" lon="1.83101">
        <ele>148.18</ele>
        <time>2018-07-08T08:17:17Z</time>
      </trkpt>
      <trkpt lat="49.01211" lon="1.83083">
        <ele>148.04</ele>
        <time>2018-07-08T08:17:32Z</time>
      </trkpt>
      <trkpt lat="49.01209" lon="1.83067">
        <ele>148.93</ele>
        <time>2018-07-08T08:17:51Z</time>
      </trkpt>
      <trkpt lat="49.01208" lon="1.8304">
        <ele>149.75</ele>
        <time>2018-07-08T08:18:11Z</time>
      </trkpt>
      <trkpt lat="49.01213" lon="1.83024">
        <ele>149.7</ele>
        <time>2018-07-08T08:18:30Z</time>
      </trkpt>
      <trkpt lat="49.0122" lon="1.83001">
        <ele>150.4</ele>
        <time>2018-07-08T08:18:52Z</time>
      </trkpt>
      <trkpt lat="49.01228" lon="1.82973">
        <ele>150.18</ele>
        <time>2018-07-08T08:19:13Z</time>
      </trkpt>
      <trkpt lat="49.01235" lon="1.82951">
        <ele>150.15</ele>
        <time>2018-07-08T08:19:34Z</time>
      </trkpt>
      <trkpt lat="49.01243" lon="1.82931">
        <ele>150.38</ele>
        <time>2018-07-08T08:19:54Z</time>
      </trkpt>
      <trkpt lat="49.01249" lon="1.82914">
        <ele>149.72</ele>
        <time>2018-07-08T08:20:14Z</time>
      </trkpt>
      <trkpt lat="49.0125" lon="1.82867">
        <ele>150.67</ele>
        <time>2018-07-08T08:20:32Z</time>
      </trkpt>
      <trkpt lat="49.01259" lon="1.82838">
        <ele>150.08</ele>
        <time>2018-07-08T08:20:51Z</time>
      </trkpt>
      <trkpt lat="49.01267" lon="1.82827">
        <ele>150.2</ele>
        <time>2018-07-08T08:21:08Z</time>
      </trkpt>
      <trkpt lat="49.01273" lon="1.82804">
        <ele>150.67</ele>
        <time>2018-07-08T08:21:23Z</time>
      </trkpt>
      <trkpt lat="49.01279" lon="1.82781">
        <ele>150.55</ele>
        <time>2018-07-08T08:21:44Z</time>
      </trkpt>
      <trkpt lat="49.0128" lon="1.82764">
        <ele>149.37</ele>
        <time>2018-07-08T08:22:09Z</time>
      </trkpt>
      <trkpt lat="49.01279" lon="1.82751">
        <ele>149.11</ele>
        <time>2018-07-08T08:22:39Z</time>
      </trkpt>
      <trkpt lat="49.01276" lon="1.82737">
        <ele>148.24</ele>
        <time>2018-07-08T08:23:09Z</time>
      </trkpt>
      <trkpt lat="49.01274" lon="1.82726">
        <ele>148.39</ele>
        <time>2018-07-08T08:23:34Z</time>
      </trkpt>
      <trkpt lat="49.01274" lon="1.82729">
        <ele>147.55</ele>
        <time>2018-07-08T08:24:01Z</time>
      </trkpt>
      <trkpt lat="49.01273" lon="1.82724">
        <ele>148.03</ele>
        <time>2018-07-08T08:24:15Z</time>
      </trkpt>
      <trkpt lat="49.01271" lon="1.8272">
        <ele>147.23</ele>
        <time>2018-07-08T08:24:43Z</time>
      </trkpt>
      <trkpt lat="49.01269" lon="1.82724">
        <ele>147.12</ele>
        <time>2018-07-08T08:25:08Z</time>
      </trkpt>
      <trkpt lat="49.01277" lon="1.82726">
        <ele>147.16</ele>
        <time>2018-07-08T08:25:39Z</time>
      </trkpt>
      <trkpt lat="49.01277" lon="1.82724">
        <ele>147.03</ele>
        <time>2018-07-08T08:26:07Z</time>
      </trkpt>
      <trkpt lat="49.01275" lon="1.82723">
        <ele>147.07</ele>
        <time>2018-07-08T08:26:34Z</time>
      </trkpt>
      <trkpt lat="49.01277" lon="1.82724">
        <ele>147.07</ele>
        <time>2018-07-08T08:27:00Z</time>
      </trkpt>
      <trkpt lat="49.01276" lon="1.82722">
        <ele>147.56</ele>
        <time>2018-07-08T08:27:26Z</time>
      </trkpt>
      <trkpt lat="49.01279" lon="1.82722">
        <ele>147.67</ele>
        <time>2018-07-08T08:27:52Z</time>
      </trkpt>
      <trkpt lat="49.01281" lon="1.8271">
        <ele>148.4</ele>
        <time>2018-07-08T08:28:10Z</time>
      </trkpt>
      <trkpt lat="49.01284" lon="1.82686">
        <ele>148.88</ele>
        <time>2018-07-08T08:28:30Z</time>
      </trkpt>
      <trkpt lat="49.01288" lon="1.82661">
        <ele>148.99</ele>
        <time>2018-07-08T08:28:51Z</time>
      </trkpt>
      <trkpt lat="49.01287" lon="1.82651">
        <ele>149.71</ele>
        <time>2018-07-08T08:28:59Z</time>
      </trkpt>
      <trkpt lat="49.01284" lon="1.82617">
        <ele>150.03</ele>
        <time>2018-07-08T08:29:21Z</time>
      </trkpt>
      <trkpt lat="49.01276" lon="1.82592">
        <ele>150.43</ele>
        <time>2018-07-08T08:29:39Z</time>
      </trkpt>
      <trkpt lat="49.01266" lon="1.82576">
        <ele>150.47</ele>
        <time>2018-07-08T08:29:55Z</time>
      </trkpt>
      <trkpt lat="49.01256" lon="1.8256">
        <ele>151.02</ele>
        <time>2018-07-08T08:30:11Z</time>
      </trkpt>
      <trkpt lat="49.01234" lon="1.82527">
        <ele>150.86</ele>
        <time>2018-07-08T08:30:35Z</time>
      </trkpt>
      <trkpt lat="49.01228" lon="1.82505">
        <ele>150.53</ele>
        <time>2018-07-08T08:30:57Z</time>
      </trkpt>
      <trkpt lat="49.01225" lon="1.82478">
        <ele>149.76</ele>
        <time>2018-07-08T08:31:17Z</time>
      </trkpt>
      <trkpt lat="49.01221" lon="1.82444">
        <ele>150.17</ele>
        <time>2018-07-08T08:31:38Z</time>
      </trkpt>
      <trkpt lat="49.01216" lon="1.82417">
        <ele>149.74</ele>
        <time>2018-07-08T08:32:00Z</time>
      </trkpt>
      <trkpt lat="49.01214" lon="1.82385">
        <ele>149.09</ele>
        <time>2018-07-08T08:32:19Z</time>
      </trkpt>
      <trkpt lat="49.01211" lon="1.82366">
        <ele>148.85</ele>
        <time>2018-07-08T08:32:35Z</time>
      </trkpt>
      <trkpt lat="49.0121" lon="1.82345">
        <ele>148.13</ele>
        <time>2018-07-08T08:32:56Z</time>
      </trkpt>
      <trkpt lat="49.01209" lon="1.82341">
        <ele>148.18</ele>
        <time>2018-07-08T08:33:01Z</time>
      </trkpt>
      <trkpt lat="49.01207" lon="1.82337">
        <ele>148.27</ele>
        <time>2018-07-08T08:33:03Z</time>
      </trkpt>
      <trkpt lat="49.01204" lon="1.82329">
        <ele>147.79</ele>
        <time>2018-07-08T08:33:08Z</time>
      </trkpt>
      <trkpt lat="49.01199" lon="1.823">
        <ele>147.62</ele>
        <time>2018-07-08T08:33:29Z</time>
      </trkpt>
      <trkpt lat="49.01198" lon="1.82282">
        <ele>146.72</ele>
        <time>2018-07-08T08:33:42Z</time>
      </trkpt>
      <trkpt lat="49.01197" lon="1.82272">
        <ele>147.13</ele>
        <time>2018-07-08T08:33:47Z</time>
      </trkpt>
      <trkpt lat="49.01192" lon="1.8224">
        <ele>147.01</ele>
        <time>2018-07-08T08:34:09Z</time>
      </trkpt>
      <trkpt lat="49.0119" lon="1.82215">
        <ele>146.59</ele>
        <time>2018-07-08T08:34:26Z</time>
      </trkpt>
      <trkpt lat="49.01192" lon="1.82208">
        <ele>145.76</ele>
        <time>2018-07-08T08:34:33Z</time>
      </trkpt>
      <trkpt lat="49.0119" lon="1.82193">
        <ele>145.87</ele>
        <time>2018-07-08T08:34:43Z</time>
      </trkpt>
      <trkpt lat="49.01188" lon="1.8219">
        <ele>146.08</ele>
        <time>2018-07-08T08:34:47Z</time>
      </trkpt>
      <trkpt lat="49.01185" lon="1.82161">
        <ele>146.13</ele>
        <time>2018-07-08T08:35:06Z</time>
      </trkpt>
      <trkpt lat="49.01181" lon="1.82113">
        <ele>146.15</ele>
        <time>2018-07-08T08:35:24Z</time>
      </trkpt>
      <trkpt lat="49.01184" lon="1.82093">
        <ele>146.51</ele>
        <time>2018-07-08T08:35:40Z</time>
      </trkpt>
      <trkpt lat="49.01182" lon="1.82065">
        <ele>145.99</ele>
        <time>2018-07-08T08:35:58Z</time>
      </trkpt>
      <trkpt lat="49.01183" lon="1.82056">
        <ele>146</ele>
        <time>2018-07-08T08:36:17Z</time>
      </trkpt>
      <trkpt lat="49.01184" lon="1.82045">
        <ele>146.39</ele>
        <time>2018-07-08T08:36:36Z</time>
      </trkpt>
      <trkpt lat="49.01187" lon="1.82029">
        <ele>146.27</ele>
        <time>2018-07-08T08:36:58Z</time>
      </trkpt>
      <trkpt lat="49.01186" lon="1.82029">
        <ele>146.5</ele>
        <time>2018-07-08T08:37:01Z</time>
      </trkpt>
      <trkpt lat="49.01185" lon="1.82004">
        <ele>146.41</ele>
        <time>2018-07-08T08:37:18Z</time>
      </trkpt>
      <trkpt lat="49.01188" lon="1.8198">
        <ele>146.95</ele>
        <time>2018-07-08T08:37:38Z</time>
      </trkpt>
      <trkpt lat="49.01191" lon="1.81949">
        <ele>147.57</ele>
        <time>2018-07-08T08:37:52Z</time>
      </trkpt>
      <trkpt lat="49.01194" lon="1.81924">
        <ele>147.51</ele>
        <time>2018-07-08T08:38:08Z</time>
      </trkpt>
      <trkpt lat="49.01198" lon="1.81903">
        <ele>147.84</ele>
        <time>2018-07-08T08:38:21Z</time>
      </trkpt>
      <trkpt lat="49.01203" lon="1.81879">
        <ele>147.66</ele>
        <time>2018-07-08T08:38:44Z</time>
      </trkpt>
      <trkpt lat="49.01204" lon="1.81867">
        <ele>147.62</ele>
        <time>2018-07-08T08:38:47Z</time>
      </trkpt>
      <trkpt lat="49.01215" lon="1.81843">
        <ele>147.61</ele>
        <time>2018-07-08T08:39:06Z</time>
      </trkpt>
      <trkpt lat="49.01217" lon="1.8184">
        <ele>146.98</ele>
        <time>2018-07-08T08:39:11Z</time>
      </trkpt>
      <trkpt lat="49.01221" lon="1.81811">
        <ele>147.36</ele>
        <time>2018-07-08T08:39:32Z</time>
      </trkpt>
      <trkpt lat="49.01225" lon="1.81791">
        <ele>147.7</ele>
        <time>2018-07-08T08:39:48Z</time>
      </trkpt>
      <trkpt lat="49.01225" lon="1.81779">
        <ele>147.71</ele>
        <time>2018-07-08T08:40:00Z</time>
      </trkpt>
      <trkpt lat="49.0123" lon="1.81763">
        <ele>147.45</ele>
        <time>2018-07-08T08:40:24Z</time>
      </trkpt>
      <trkpt lat="49.01229" lon="1.81744">
        <ele>147.7</ele>
        <time>2018-07-08T08:40:44Z</time>
      </trkpt>
      <trkpt lat="49.01236" lon="1.81712">
        <ele>147.65</ele>
        <time>2018-07-08T08:41:03Z</time>
      </trkpt>
      <trkpt lat="49.01237" lon="1.81687">
        <ele>147.6</ele>
        <time>2018-07-08T08:41:17Z</time>
      </trkpt>
      <trkpt lat="49.01237" lon="1.81683">
        <ele>147.7</ele>
        <time>2018-07-08T08:41:18Z</time>
      </trkpt>
      <trkpt lat="49.01234" lon="1.81667">
        <ele>146.94</ele>
        <time>2018-07-08T08:41:34Z</time>
      </trkpt>
      <trkpt lat="49.01234" lon="1.81661">
        <ele>146.73</ele>
        <time>2018-07-08T08:41:43Z</time>
      </trkpt>
      <trkpt lat="49.01234" lon="1.81655">
        <ele>146.88</ele>
        <time>2018-07-08T08:41:48Z</time>
      </trkpt>
      <trkpt lat="49.01238" lon="1.81649">
        <ele>147.09</ele>
        <time>2018-07-08T08:42:12Z</time>
      </trkpt>
      <trkpt lat="49.01237" lon="1.81635">
        <ele>146.75</ele>
        <time>2018-07-08T08:42:29Z</time>
      </trkpt>
      <trkpt lat="49.01236" lon="1.81634">
        <ele>147.23</ele>
        <time>2018-07-08T08:42:51Z</time>
      </trkpt>
      <trkpt lat="49.01234" lon="1.8163">
        <ele>146.85</ele>
        <time>2018-07-08T08:43:01Z</time>
      </trkpt>
      <trkpt lat="49.01231" lon="1.81625">
        <ele>147.22</ele>
        <time>2018-07-08T08:43:32Z</time>
      </trkpt>
      <trkpt lat="49.01232" lon="1.81625">
        <ele>147.49</ele>
        <time>2018-07-08T08:43:56Z</time>
      </trkpt>
      <trkpt lat="49.01232" lon="1.81626">
        <ele>147.01</ele>
        <time>2018-07-08T08:43:57Z</time>
      </trkpt>
      <trkpt lat="49.01229" lon="1.81629">
        <ele>147.61</ele>
        <time>2018-07-08T08:44:22Z</time>
      </trkpt>
      <trkpt lat="49.01226" lon="1.81619">
        <ele>148.22</ele>
        <time>2018-07-08T08:44:48Z</time>
      </trkpt>
      <trkpt lat="49.01224" lon="1.81611">
        <ele>148.39</ele>
        <time>2018-07-08T08:45:07Z</time>
      </trkpt>
      <trkpt lat="49.01229" lon="1.81603">
        <ele>148.15</ele>
        <time>2018-07-08T08:45:16Z</time>
      </trkpt>
      <trkpt lat="49.01231" lon="1.816">
        <ele>148.34</ele>
        <time>2018-07-08T08:45:18Z</time>
      </trkpt>
      <trkpt lat="49.01233" lon="1.81593">
        <ele>148.71</ele>
        <time>2018-07-08T08:45:21Z</time>
      </trkpt>
      <trkpt lat="49.01241" lon="1.81571">
        <ele>147.89</ele>
        <time>2018-07-08T08:45:40Z</time>
      </trkpt>
      <trkpt lat="49.01249" lon="1.81529">
        <ele>148.51</ele>
        <time>2018-07-08T08:46:02Z</time>
      </trkpt>
      <trkpt lat="49.01255" lon="1.81512">
        <ele>147.26</ele>
        <time>2018-07-08T08:46:18Z</time>
      </trkpt>
      <trkpt lat="49.01256" lon="1.81485">
        <ele>147.33</ele>
        <time>2018-07-08T08:46:36Z</time>
      </trkpt>
      <trkpt lat="49.01266" lon="1.81452">
        <ele>146.67</ele>
        <time>2018-07-08T08:46:57Z</time>
      </trkpt>
      <trkpt lat="49.01276" lon="1.81415">
        <ele>146.73</ele>
        <time>2018-07-08T08:47:17Z</time>
      </trkpt>
      <trkpt lat="49.01283" lon="1.81375">
        <ele>145.7</ele>
        <time>2018-07-08T08:47:39Z</time>
      </trkpt>
      <trkpt lat="49.01291" lon="1.81339">
        <ele>145.32</ele>
        <time>2018-07-08T08:48:01Z</time>
      </trkpt>
      <trkpt lat="49.01307" lon="1.81305">
        <ele>144</ele>
        <time>2018-07-08T08:48:22Z</time>
      </trkpt>
      <trkpt lat="49.01314" lon="1.81279">
        <ele>144.36</ele>
        <time>2018-07-08T08:48:33Z</time>
      </trkpt>
      <trkpt lat="49.01314" lon="1.81263">
        <ele>144.41</ele>
        <time>2018-07-08T08:48:39Z</time>
      </trkpt>
      <trkpt lat="49.01316" lon="1.81234">
        <ele>143.84</ele>
        <time>2018-07-08T08:48:58Z</time>
      </trkpt>
      <trkpt lat="49.01318" lon="1.81224">
        <ele>143.71</ele>
        <time>2018-07-08T08:49:05Z</time>
      </trkpt>
      <trkpt lat="49.0132" lon="1.81194">
        <ele>143.36</ele>
        <time>2018-07-08T08:49:19Z</time>
      </trkpt>
      <trkpt lat="49.01326" lon="1.81166">
        <ele>142.7</ele>
        <time>2018-07-08T08:49:36Z</time>
      </trkpt>
      <trkpt lat="49.01341" lon="1.81131">
        <ele>142.17</ele>
        <time>2018-07-08T08:50:00Z</time>
      </trkpt>
      <trkpt lat="49.01343" lon="1.81116">
        <ele>142.4</ele>
        <time>2018-07-08T08:50:10Z</time>
      </trkpt>
      <trkpt lat="49.01344" lon="1.81098">
        <ele>141.62</ele>
        <time>2018-07-08T08:50:20Z</time>
      </trkpt>
      <trkpt lat="49.01352" lon="1.81084">
        <ele>141</ele>
        <time>2018-07-08T08:50:35Z</time>
      </trkpt>
      <trkpt lat="49.01354" lon="1.81069">
        <ele>141.52</ele>
        <time>2018-07-08T08:50:42Z</time>
      </trkpt>
      <trkpt lat="49.01361" lon="1.81044">
        <ele>140.84</ele>
        <time>2018-07-08T08:50:58Z</time>
      </trkpt>
      <trkpt lat="49.01361" lon="1.81024">
        <ele>140.37</ele>
        <time>2018-07-08T08:51:07Z</time>
      </trkpt>
      <trkpt lat="49.01362" lon="1.81018">
        <ele>140.64</ele>
        <time>2018-07-08T08:51:11Z</time>
      </trkpt>
      <trkpt lat="49.01361" lon="1.80999">
        <ele>140.12</ele>
        <time>2018-07-08T08:51:16Z</time>
      </trkpt>
      <trkpt lat="49.01363" lon="1.80948">
        <ele>139.58</ele>
        <time>2018-07-08T08:51:31Z</time>
      </trkpt>
      <trkpt lat="49.01368" lon="1.80925">
        <ele>139.23</ele>
        <time>2018-07-08T08:51:43Z</time>
      </trkpt>
      <trkpt lat="49.01374" lon="1.80905">
        <ele>138.86</ele>
        <time>2018-07-08T08:51:58Z</time>
      </trkpt>
      <trkpt lat="49.01388" lon="1.80869">
        <ele>138.77</ele>
        <time>2018-07-08T08:52:21Z</time>
      </trkpt>
      <trkpt lat="49.01411" lon="1.80834">
        <ele>138.71</ele>
        <time>2018-07-08T08:52:41Z</time>
      </trkpt>
      <trkpt lat="49.01418" lon="1.80812">
        <ele>138.75</ele>
        <time>2018-07-08T08:52:53Z</time>
      </trkpt>
      <trkpt lat="49.01423" lon="1.80809">
        <ele>139.39</ele>
        <time>2018-07-08T08:52:56Z</time>
      </trkpt>
      <trkpt lat="49.01419" lon="1.80779">
        <ele>139.12</ele>
        <time>2018-07-08T08:53:06Z</time>
      </trkpt>
      <trkpt lat="49.01414" lon="1.80763">
        <ele>138.66</ele>
        <time>2018-07-08T08:53:33Z</time>
      </trkpt>
      <trkpt lat="49.01412" lon="1.80757">
        <ele>138.8</ele>
        <time>2018-07-08T08:54:04Z</time>
      </trkpt>
      <trkpt lat="49.01411" lon="1.80755">
        <ele>138.66</ele>
        <time>2018-07-08T08:54:28Z</time>
      </trkpt>
      <trkpt lat="49.01408" lon="1.80752">
        <ele>138.77</ele>
        <time>2018-07-08T08:54:55Z</time>
      </trkpt>
      <trkpt lat="49.01408" lon="1.8075">
        <ele>139.24</ele>
        <time>2018-07-08T08:55:26Z</time>
      </trkpt>
      <trkpt lat="49.01413" lon="1.80744">
        <ele>139.93</ele>
        <time>2018-07-08T08:55:54Z</time>
      </trkpt>
      <trkpt lat="49.01414" lon="1.80739">
        <ele>139.87</ele>
        <time>2018-07-08T08:56:02Z</time>
      </trkpt>
      <trkpt lat="49.01419" lon="1.80711">
        <ele>140.31</ele>
        <time>2018-07-08T08:56:23Z</time>
      </trkpt>
      <trkpt lat="49.01434" lon="1.80693">
        <ele>140.67</ele>
        <time>2018-07-08T08:56:44Z</time>
      </trkpt>
      <trkpt lat="49.01443" lon="1.80674">
        <ele>141.07</ele>
        <time>2018-07-08T08:56:56Z</time>
      </trkpt>
      <trkpt lat="49.01452" lon="1.80647">
        <ele>140.94</ele>
        <time>2018-07-08T08:57:10Z</time>
      </trkpt>
      <trkpt lat="49.01458" lon="1.80635">
        <ele>140.94</ele>
        <time>2018-07-08T08:57:20Z</time>
      </trkpt>
      <trkpt lat="49.01459" lon="1.80628">
        <ele>140.7</ele>
        <time>2018-07-08T08:57:32Z</time>
      </trkpt>
      <trkpt lat="49.01466" lon="1.80612">
        <ele>140.66</ele>
        <time>2018-07-08T08:57:50Z</time>
      </trkpt>
      <trkpt lat="49.01477" lon="1.8058">
        <ele>141.08</ele>
        <time>2018-07-08T08:58:11Z</time>
      </trkpt>
      <trkpt lat="49.01496" lon="1.80549">
        <ele>140.86</ele>
        <time>2018-07-08T08:58:34Z</time>
      </trkpt>
      <trkpt lat="49.015" lon="1.80537">
        <ele>141.02</ele>
        <time>2018-07-08T08:58:51Z</time>
      </trkpt>
      <trkpt lat="49.0151" lon="1.80521">
        <ele>141.9</ele>
        <time>2018-07-08T08:59:04Z</time>
      </trkpt>
      <trkpt lat="49.01517" lon="1.80509">
        <ele>141.7</ele>
        <time>2018-07-08T08:59:11Z</time>
      </trkpt>
      <trkpt lat="49.01526" lon="1.80488">
        <ele>141.56</ele>
        <time>2018-07-08T08:59:26Z</time>
      </trkpt>
      <trkpt lat="49.01533" lon="1.80458">
        <ele>141.84</ele>
        <time>2018-07-08T08:59:46Z</time>
      </trkpt>
      <trkpt lat="49.01535" lon="1.80455">
        <ele>141.69</ele>
        <time>2018-07-08T08:59:48Z</time>
      </trkpt>
      <trkpt lat="49.01547" lon="1.80433">
        <ele>141.77</ele>
        <time>2018-07-08T09:00:04Z</time>
      </trkpt>
      <trkpt lat="49.01559" lon="1.80412">
        <ele>141.73</ele>
        <time>2018-07-08T09:00:20Z</time>
      </trkpt>
      <trkpt lat="49.01575" lon="1.80385">
        <ele>141.85</ele>
        <time>2018-07-08T09:00:41Z</time>
      </trkpt>
      <trkpt lat="49.01586" lon="1.8037">
        <ele>142.14</ele>
        <time>2018-07-08T09:00:55Z</time>
      </trkpt>
      <trkpt lat="49.016" lon="1.80354">
        <ele>141.89</ele>
        <time>2018-07-08T09:01:10Z</time>
      </trkpt>
      <trkpt lat="49.01605" lon="1.80339">
        <ele>141.94</ele>
        <time>2018-07-08T09:01:29Z</time>
      </trkpt>
      <trkpt lat="49.01622" lon="1.80319">
        <ele>142.06</ele>
        <time>2018-07-08T09:01:48Z</time>
      </trkpt>
      <trkpt lat="49.01633" lon="1.80306">
        <ele>141.29</ele>
        <time>2018-07-08T09:02:02Z</time>
      </trkpt>
      <trkpt lat="49.01643" lon="1.80283">
        <ele>141.31</ele>
        <time>2018-07-08T09:02:17Z</time>
      </trkpt>
      <trkpt lat="49.01655" lon="1.80259">
        <ele>140.89</ele>
        <time>2018-07-08T09:02:34Z</time>
      </trkpt>
      <trkpt lat="49.01663" lon="1.80246">
        <ele>140.81</ele>
        <time>2018-07-08T09:02:45Z</time>
      </trkpt>
      <trkpt lat="49.01672" lon="1.80231">
        <ele>140.07</ele>
        <time>2018-07-08T09:02:56Z</time>
      </trkpt>
      <trkpt lat="49.01692" lon="1.80209">
        <ele>139.33</ele>
        <time>2018-07-08T09:03:13Z</time>
      </trkpt>
      <trkpt lat="49.01705" lon="1.80197">
        <ele>139.25</ele>
        <time>2018-07-08T09:03:25Z</time>
      </trkpt>
      <trkpt lat="49.01709" lon="1.80193">
        <ele>138.41</ele>
        <time>2018-07-08T09:03:29Z</time>
      </trkpt>
      <trkpt lat="49.01717" lon="1.80174">
        <ele>138.37</ele>
        <time>2018-07-08T09:03:47Z</time>
      </trkpt>
      <trkpt lat="49.01732" lon="1.80149">
        <ele>137.04</ele>
        <time>2018-07-08T09:04:08Z</time>
      </trkpt>
      <trkpt lat="49.01747" lon="1.80136">
        <ele>136.3</ele>
        <time>2018-07-08T09:04:26Z</time>
      </trkpt>
      <trkpt lat="49.01754" lon="1.80135">
        <ele>136.08</ele>
        <time>2018-07-08T09:04:33Z</time>
      </trkpt>
      <trkpt lat="49.01768" lon="1.80124">
        <ele>135.51</ele>
        <time>2018-07-08T09:04:51Z</time>
      </trkpt>
      <trkpt lat="49.0177" lon="1.80122">
        <ele>135.22</ele>
        <time>2018-07-08T09:05:00Z</time>
      </trkpt>
      <trkpt lat="49.01766" lon="1.80114">
        <ele>135.66</ele>
        <time>2018-07-08T09:05:09Z</time>
      </trkpt>
      <trkpt lat="49.0178" lon="1.80111">
        <ele>134.65</ele>
        <time>2018-07-08T09:05:25Z</time>
      </trkpt>
      <trkpt lat="49.01802" lon="1.80093">
        <ele>132.26</ele>
        <time>2018-07-08T09:05:45Z</time>
      </trkpt>
      <trkpt lat="49.01823" lon="1.80072">
        <ele>131.12</ele>
        <time>2018-07-08T09:06:06Z</time>
      </trkpt>
      <trkpt lat="49.01824" lon="1.8007">
        <ele>130.68</ele>
        <time>2018-07-08T09:06:08Z</time>
      </trkpt>
      <trkpt lat="49.01839" lon="1.80055">
        <ele>130.52</ele>
        <time>2018-07-08T09:06:23Z</time>
      </trkpt>
      <trkpt lat="49.01849" lon="1.80046">
        <ele>130.02</ele>
        <time>2018-07-08T09:06:38Z</time>
      </trkpt>
      <trkpt lat="49.01869" lon="1.80028">
        <ele>128.33</ele>
        <time>2018-07-08T09:07:02Z</time>
      </trkpt>
      <trkpt lat="49.0189" lon="1.8001">
        <ele>126.71</ele>
        <time>2018-07-08T09:07:22Z</time>
      </trkpt>
      <trkpt lat="49.01904" lon="1.7999">
        <ele>125.74</ele>
        <time>2018-07-08T09:07:40Z</time>
      </trkpt>
      <trkpt lat="49.01923" lon="1.79968">
        <ele>125.25</ele>
        <time>2018-07-08T09:08:02Z</time>
      </trkpt>
      <trkpt lat="49.01938" lon="1.79962">
        <ele>125.14</ele>
        <time>2018-07-08T09:08:16Z</time>
      </trkpt>
      <trkpt lat="49.01961" lon="1.79933">
        <ele>125.27</ele>
        <time>2018-07-08T09:08:39Z</time>
      </trkpt>
      <trkpt lat="49.01986" lon="1.79904">
        <ele>124.23</ele>
        <time>2018-07-08T09:09:03Z</time>
      </trkpt>
      <trkpt lat="49.02001" lon="1.79887">
        <ele>122.55</ele>
        <time>2018-07-08T09:09:24Z</time>
      </trkpt>
      <trkpt lat="49.02023" lon="1.79868">
        <ele>120.71</ele>
        <time>2018-07-08T09:09:49Z</time>
      </trkpt>
      <trkpt lat="49.02051" lon="1.79856">
        <ele>120.79</ele>
        <time>2018-07-08T09:10:10Z</time>
      </trkpt>
      <trkpt lat="49.02066" lon="1.79846">
        <ele>120.28</ele>
        <time>2018-07-08T09:10:23Z</time>
      </trkpt>
      <trkpt lat="49.02078" lon="1.79838">
        <ele>119.82</ele>
        <time>2018-07-08T09:10:43Z</time>
      </trkpt>
      <trkpt lat="49.02088" lon="1.79841">
        <ele>119</ele>
        <time>2018-07-08T09:10:58Z</time>
      </trkpt>
      <trkpt lat="49.02099" lon="1.7984">
        <ele>119.37</ele>
        <time>2018-07-08T09:11:24Z</time>
      </trkpt>
      <trkpt lat="49.02101" lon="1.79839">
        <ele>119.57</ele>
        <time>2018-07-08T09:11:37Z</time>
      </trkpt>
      <trkpt lat="49.02102" lon="1.79837">
        <ele>120.05</ele>
        <time>2018-07-08T09:12:04Z</time>
      </trkpt>
      <trkpt lat="49.02102" lon="1.79837">
        <ele>120.3</ele>
        <time>2018-07-08T09:12:32Z</time>
      </trkpt>
      <trkpt lat="49.02099" lon="1.79834">
        <ele>120.96</ele>
        <time>2018-07-08T09:12:59Z</time>
      </trkpt>
      <trkpt lat="49.02101" lon="1.79829">
        <ele>121.42</ele>
        <time>2018-07-08T09:13:20Z</time>
      </trkpt>
      <trkpt lat="49.02102" lon="1.79828">
        <ele>121.62</ele>
        <time>2018-07-08T09:13:23Z</time>
      </trkpt>
      <trkpt lat="49.02111" lon="1.79811">
        <ele>122.47</ele>
        <time>2018-07-08T09:13:40Z</time>
      </trkpt>
      <trkpt lat="49.02121" lon="1.79801">
        <ele>122.53</ele>
        <time>2018-07-08T09:13:53Z</time>
      </trkpt>
      <trkpt lat="49.02133" lon="1.79792">
        <ele>122.43</ele>
        <time>2018-07-08T09:14:10Z</time>
      </trkpt>
      <trkpt lat="49.02141" lon="1.79786">
        <ele>122.44</ele>
        <time>2018-07-08T09:14:22Z</time>
      </trkpt>
      <trkpt lat="49.02156" lon="1.79772">
        <ele>122.8</ele>
        <time>2018-07-08T09:14:40Z</time>
      </trkpt>
      <trkpt lat="49.02158" lon="1.79769">
        <ele>122.58</ele>
        <time>2018-07-08T09:14:43Z</time>
      </trkpt>
      <trkpt lat="49.02164" lon="1.79763">
        <ele>122.72</ele>
        <time>2018-07-08T09:14:49Z</time>
      </trkpt>
      <trkpt lat="49.02168" lon="1.79756">
        <ele>123.5</ele>
        <time>2018-07-08T09:14:55Z</time>
      </trkpt>
      <trkpt lat="49.02173" lon="1.7975">
        <ele>123.4</ele>
        <time>2018-07-08T09:15:01Z</time>
      </trkpt>
      <trkpt lat="49.02183" lon="1.79742">
        <ele>123.39</ele>
        <time>2018-07-08T09:15:15Z</time>
      </trkpt>
      <trkpt lat="49.02195" lon="1.79732">
        <ele>123.3</ele>
        <time>2018-07-08T09:15:28Z</time>
      </trkpt>
      <trkpt lat="49.02198" lon="1.79728">
        <ele>124.7</ele>
        <time>2018-07-08T09:15:32Z</time>
      </trkpt>
      <trkpt lat="49.02208" lon="1.79717">
        <ele>124.68</ele>
        <time>2018-07-08T09:15:44Z</time>
      </trkpt>
      <trkpt lat="49.02215" lon="1.79709">
        <ele>125.04</ele>
        <time>2018-07-08T09:15:52Z</time>
      </trkpt>
      <trkpt lat="49.02228" lon="1.79699">
        <ele>125.81</ele>
        <time>2018-07-08T09:16:05Z</time>
      </trkpt>
      <trkpt lat="49.02234" lon="1.79693">
        <ele>126.22</ele>
        <time>2018-07-08T09:16:11Z</time>
      </trkpt>
      <trkpt lat="49.02256" lon="1.79676">
        <ele>128.15</ele>
        <time>2018-07-08T09:16:32Z</time>
      </trkpt>
      <trkpt lat="49.02272" lon="1.79661">
        <ele>130.6</ele>
        <time>2018-07-08T09:16:49Z</time>
      </trkpt>
      <trkpt lat="49.02277" lon="1.79653">
        <ele>130.58</ele>
        <time>2018-07-08T09:17:01Z</time>
      </trkpt>
      <trkpt lat="49.0228" lon="1.79648">
        <ele>131.16</ele>
        <time>2018-07-08T09:17:06Z</time>
      </trkpt>
      <trkpt lat="49.02293" lon="1.79633">
        <ele>132.69</ele>
        <time>2018-07-08T09:17:20Z</time>
      </trkpt>
      <trkpt lat="49.02304" lon="1.79619">
        <ele>133.88</ele>
        <time>2018-07-08T09:17:34Z</time>
      </trkpt>
      <trkpt lat="49.02317" lon="1.7959">
        <ele>135.88</ele>
        <time>2018-07-08T09:17:56Z</time>
      </trkpt>
      <trkpt lat="49.02332" lon="1.79572">
        <ele>136.68</ele>
        <time>2018-07-08T09:18:13Z</time>
      </trkpt>
      <trkpt lat="49.02335" lon="1.79564">
        <ele>139.13</ele>
        <time>2018-07-08T09:18:21Z</time>
      </trkpt>
      <trkpt lat="49.02336" lon="1.79557">
        <ele>139.23</ele>
        <time>2018-07-08T09:18:37Z</time>
      </trkpt>
      <trkpt lat="49.02338" lon="1.79552">
        <ele>138.89</ele>
        <time>2018-07-08T09:18:41Z</time>
      </trkpt>
      <trkpt lat="49.02354" lon="1.79538">
        <ele>141.41</ele>
        <time>2018-07-08T09:18:56Z</time>
      </trkpt>
      <trkpt lat="49.02368" lon="1.7952">
        <ele>140.87</ele>
        <time>2018-07-08T09:19:11Z</time>
      </trkpt>
      <trkpt lat="49.0237" lon="1.79516">
        <ele>140.83</ele>
        <time>2018-07-08T09:19:14Z</time>
      </trkpt>
      <trkpt lat="49.02372" lon="1.79514">
        <ele>140.71</ele>
        <time>2018-07-08T09:19:16Z</time>
      </trkpt>
      <trkpt lat="49.02387" lon="1.795">
        <ele>140.04</ele>
        <time>2018-07-08T09:19:29Z</time>
      </trkpt>
      <trkpt lat="49.02401" lon="1.79492">
        <ele>138.27</ele>
        <time>2018-07-08T09:19:44Z</time>
      </trkpt>
      <trkpt lat="49.02405" lon="1.79491">
        <ele>138.13</ele>
        <time>2018-07-08T09:19:47Z</time>
      </trkpt>
      <trkpt lat="49.02415" lon="1.79487">
        <ele>137.49</ele>
        <time>2018-07-08T09:19:55Z</time>
      </trkpt>
      <trkpt lat="49.02423" lon="1.79486">
        <ele>137.43</ele>
        <time>2018-07-08T09:20:10Z</time>
      </trkpt>
      <trkpt lat="49.02439" lon="1.79495">
        <ele>136.76</ele>
        <time>2018-07-08T09:20:24Z</time>
      </trkpt>
      <trkpt lat="49.02443" lon="1.79504">
        <ele>135.65</ele>
        <time>2018-07-08T09:20:39Z</time>
      </trkpt>
      <trkpt lat="49.02445" lon="1.79504">
        <ele>135.82</ele>
        <time>2018-07-08T09:20:40Z</time>
      </trkpt>
      <trkpt lat="49.02465" lon="1.79506">
        <ele>133.29</ele>
        <time>2018-07-08T09:20:59Z</time>
      </trkpt>
      <trkpt lat="49.0247" lon="1.79507">
        <ele>133.19</ele>
        <time>2018-07-08T09:21:04Z</time>
      </trkpt>
      <trkpt lat="49.02473" lon="1.7951">
        <ele>132.63</ele>
        <time>2018-07-08T09:21:08Z</time>
      </trkpt>
      <trkpt lat="49.02483" lon="1.79519">
        <ele>131.95</ele>
        <time>2018-07-08T09:21:27Z</time>
      </trkpt>
      <trkpt lat="49.02493" lon="1.79527">
        <ele>131.02</ele>
        <time>2018-07-08T09:21:45Z</time>
      </trkpt>
      <trkpt lat="49.02505" lon="1.79543">
        <ele>129.52</ele>
        <time>2018-07-08T09:22:00Z</time>
      </trkpt>
      <trkpt lat="49.02519" lon="1.79554">
        <ele>127.64</ele>
        <time>2018-07-08T09:22:18Z</time>
      </trkpt>
      <trkpt lat="49.02523" lon="1.79554">
        <ele>126.73</ele>
        <time>2018-07-08T09:22:37Z</time>
      </trkpt>
      <trkpt lat="49.02536" lon="1.79563">
        <ele>124.72</ele>
        <time>2018-07-08T09:22:52Z</time>
      </trkpt>
      <trkpt lat="49.02539" lon="1.79566">
        <ele>123.89</ele>
        <time>2018-07-08T09:22:56Z</time>
      </trkpt>
      <trkpt lat="49.02559" lon="1.79574">
        <ele>121.4</ele>
        <time>2018-07-08T09:23:13Z</time>
      </trkpt>
      <trkpt lat="49.02574" lon="1.79578">
        <ele>119.67</ele>
        <time>2018-07-08T09:23:27Z</time>
      </trkpt>
      <trkpt lat="49.02591" lon="1.79586">
        <ele>118.99</ele>
        <time>2018-07-08T09:23:43Z</time>
      </trkpt>
      <trkpt lat="49.026" lon="1.79602">
        <ele>117.99</ele>
        <time>2018-07-08T09:23:58Z</time>
      </trkpt>
      <trkpt lat="49.02602" lon="1.79605">
        <ele>118.27</ele>
        <time>2018-07-08T09:24:01Z</time>
      </trkpt>
      <trkpt lat="49.02603" lon="1.79621">
        <ele>117.76</ele>
        <time>2018-07-08T09:24:15Z</time>
      </trkpt>
      <trkpt lat="49.02608" lon="1.79625">
        <ele>117.72</ele>
        <time>2018-07-08T09:24:32Z</time>
      </trkpt>
      <trkpt lat="49.02607" lon="1.79629">
        <ele>118.07</ele>
        <time>2018-07-08T09:24:36Z</time>
      </trkpt>
      <trkpt lat="49.02608" lon="1.7965">
        <ele>116.79</ele>
        <time>2018-07-08T09:24:54Z</time>
      </trkpt>
      <trkpt lat="49.02611" lon="1.79663">
        <ele>116.59</ele>
        <time>2018-07-08T09:25:04Z</time>
      </trkpt>
      <trkpt lat="49.02616" lon="1.79678">
        <ele>115.43</ele>
        <time>2018-07-08T09:25:18Z</time>
      </trkpt>
      <trkpt lat="49.02617" lon="1.79679">
        <ele>115.02</ele>
        <time>2018-07-08T09:25:34Z</time>
      </trkpt>
      <trkpt lat="49.0262" lon="1.7968">
        <ele>115.2</ele>
        <time>2018-07-08T09:25:37Z</time>
      </trkpt>
      <trkpt lat="49.02622" lon="1.7968">
        <ele>114.23</ele>
        <time>2018-07-08T09:25:39Z</time>
      </trkpt>
      <trkpt lat="49.02638" lon="1.79683">
        <ele>113.65</ele>
        <time>2018-07-08T09:25:53Z</time>
      </trkpt>
      <trkpt lat="49.0264" lon="1.79683">
        <ele>112.38</ele>
        <time>2018-07-08T09:25:55Z</time>
      </trkpt>
      <trkpt lat="49.02642" lon="1.79682">
        <ele>112.5</ele>
        <time>2018-07-08T09:26:08Z</time>
      </trkpt>
      <trkpt lat="49.02645" lon="1.79685">
        <ele>112.17</ele>
        <time>2018-07-08T09:26:21Z</time>
      </trkpt>
      <trkpt lat="49.02659" lon="1.79685">
        <ele>110.52</ele>
        <time>2018-07-08T09:26:33Z</time>
      </trkpt>
      <trkpt lat="49.0267" lon="1.79684">
        <ele>109.67</ele>
        <time>2018-07-08T09:26:49Z</time>
      </trkpt>
      <trkpt lat="49.02668" lon="1.7968">
        <ele>109.76</ele>
        <time>2018-07-08T09:26:52Z</time>
      </trkpt>
      <trkpt lat="49.02667" lon="1.79678">
        <ele>109.86</ele>
        <time>2018-07-08T09:26:54Z</time>
      </trkpt>
      <trkpt lat="49.02659" lon="1.79668">
        <ele>111.59</ele>
        <time>2018-07-08T09:27:07Z</time>
      </trkpt>
      <trkpt lat="49.02656" lon="1.79655">
        <ele>112.47</ele>
        <time>2018-07-08T09:27:21Z</time>
      </trkpt>
      <trkpt lat="49.02658" lon="1.79651">
        <ele>112.36</ele>
        <time>2018-07-08T09:27:37Z</time>
      </trkpt>
      <trkpt lat="49.02658" lon="1.79651">
        <ele>112.63</ele>
        <time>2018-07-08T09:27:40Z</time>
      </trkpt>
      <trkpt lat="49.0266" lon="1.79661">
        <ele>112.85</ele>
        <time>2018-07-08T09:27:57Z</time>
      </trkpt>
      <trkpt lat="49.02664" lon="1.7967">
        <ele>110.99</ele>
        <time>2018-07-08T09:28:11Z</time>
      </trkpt>
      <trkpt lat="49.02668" lon="1.79682">
        <ele>110</ele>
        <time>2018-07-08T09:28:20Z</time>
      </trkpt>
      <trkpt lat="49.02678" lon="1.79684">
        <ele>109.73</ele>
        <time>2018-07-08T09:28:33Z</time>
      </trkpt>
      <trkpt lat="49.02681" lon="1.79687">
        <ele>109.58</ele>
        <time>2018-07-08T09:29:03Z</time>
      </trkpt>
      <trkpt lat="49.02684" lon="1.79688">
        <ele>108.88</ele>
        <time>2018-07-08T09:29:05Z</time>
      </trkpt>
      <trkpt lat="49.02697" lon="1.79688">
        <ele>107.76</ele>
        <time>2018-07-08T09:29:18Z</time>
      </trkpt>
      <trkpt lat="49.02721" lon="1.79695">
        <ele>105.76</ele>
        <time>2018-07-08T09:29:40Z</time>
      </trkpt>
      <trkpt lat="49.02724" lon="1.79697">
        <ele>105.74</ele>
        <time>2018-07-08T09:29:43Z</time>
      </trkpt>
      <trkpt lat="49.02729" lon="1.79699">
        <ele>105.36</ele>
        <time>2018-07-08T09:29:48Z</time>
      </trkpt>
      <trkpt lat="49.02732" lon="1.797">
        <ele>105.28</ele>
        <time>2018-07-08T09:29:56Z</time>
      </trkpt>
      <trkpt lat="49.02745" lon="1.79704">
        <ele>104.66</ele>
        <time>2018-07-08T09:30:09Z</time>
      </trkpt>
      <trkpt lat="49.02757" lon="1.79706">
        <ele>104.55</ele>
        <time>2018-07-08T09:30:22Z</time>
      </trkpt>
      <trkpt lat="49.02772" lon="1.7971">
        <ele>104.55</ele>
        <time>2018-07-08T09:30:36Z</time>
      </trkpt>
      <trkpt lat="49.02789" lon="1.79714">
        <ele>104.56</ele>
        <time>2018-07-08T09:30:51Z</time>
      </trkpt>
      <trkpt lat="49.02804" lon="1.79716">
        <ele>103.84</ele>
        <time>2018-07-08T09:31:07Z</time>
      </trkpt>
      <trkpt lat="49.02818" lon="1.79721">
        <ele>103.39</ele>
        <time>2018-07-08T09:31:22Z</time>
      </trkpt>
      <trkpt lat="49.02824" lon="1.79723">
        <ele>103.66</ele>
        <time>2018-07-08T09:31:29Z</time>
      </trkpt>
      <trkpt lat="49.02843" lon="1.79728">
        <ele>103.58</ele>
        <time>2018-07-08T09:31:46Z</time>
      </trkpt>
      <trkpt lat="49.02854" lon="1.79729">
        <ele>102.22</ele>
        <time>2018-07-08T09:31:55Z</time>
      </trkpt>
      <trkpt lat="49.02871" lon="1.79731">
        <ele>103.66</ele>
        <time>2018-07-08T09:32:15Z</time>
      </trkpt>
      <trkpt lat="49.02885" lon="1.79734">
        <ele>104.31</ele>
        <time>2018-07-08T09:32:33Z</time>
      </trkpt>
      <trkpt lat="49.02903" lon="1.79738">
        <ele>103.78</ele>
        <time>2018-07-08T09:32:48Z</time>
      </trkpt>
      <trkpt lat="49.02928" lon="1.79744">
        <ele>104.04</ele>
        <time>2018-07-08T09:33:10Z</time>
      </trkpt>
      <trkpt lat="49.02953" lon="1.7975">
        <ele>103.28</ele>
        <time>2018-07-08T09:33:32Z</time>
      </trkpt>
      <trkpt lat="49.02973" lon="1.79753">
        <ele>103.66</ele>
        <time>2018-07-08T09:33:51Z</time>
      </trkpt>
      <trkpt lat="49.03003" lon="1.79759">
        <ele>102.45</ele>
        <time>2018-07-08T09:34:17Z</time>
      </trkpt>
      <trkpt lat="49.03018" lon="1.79762">
        <ele>101.02</ele>
        <time>2018-07-08T09:34:34Z</time>
      </trkpt>
      <trkpt lat="49.03028" lon="1.79763">
        <ele>100.67</ele>
        <time>2018-07-08T09:34:43Z</time>
      </trkpt>
      <trkpt lat="49.03039" lon="1.79767">
        <ele>98.47</ele>
        <time>2018-07-08T09:34:52Z</time>
      </trkpt>
      <trkpt lat="49.03056" lon="1.79771">
        <ele>98.97</ele>
        <time>2018-07-08T09:35:07Z</time>
      </trkpt>
      <trkpt lat="49.03059" lon="1.79771">
        <ele>98.47</ele>
        <time>2018-07-08T09:35:11Z</time>
      </trkpt>
      <trkpt lat="49.03065" lon="1.79773">
        <ele>98.15</ele>
        <time>2018-07-08T09:35:16Z</time>
      </trkpt>
      <trkpt lat="49.0308" lon="1.79775">
        <ele>98.32</ele>
        <time>2018-07-08T09:35:29Z</time>
      </trkpt>
      <trkpt lat="49.03108" lon="1.79784">
        <ele>97.44</ele>
        <time>2018-07-08T09:35:53Z</time>
      </trkpt>
      <trkpt lat="49.03137" lon="1.79792">
        <ele>98.23</ele>
        <time>2018-07-08T09:36:18Z</time>
      </trkpt>
      <trkpt lat="49.03146" lon="1.79795">
        <ele>97.99</ele>
        <time>2018-07-08T09:36:31Z</time>
      </trkpt>
      <trkpt lat="49.03161" lon="1.79802">
        <ele>97.75</ele>
        <time>2018-07-08T09:36:45Z</time>
      </trkpt>
      <trkpt lat="49.03176" lon="1.79811">
        <ele>98.77</ele>
        <time>2018-07-08T09:37:00Z</time>
      </trkpt>
      <trkpt lat="49.0319" lon="1.7982">
        <ele>99.42</ele>
        <time>2018-07-08T09:37:14Z</time>
      </trkpt>
      <trkpt lat="49.0321" lon="1.79834">
        <ele>99.82</ele>
        <time>2018-07-08T09:37:33Z</time>
      </trkpt>
      <trkpt lat="49.03218" lon="1.79839">
        <ele>100.18</ele>
        <time>2018-07-08T09:37:49Z</time>
      </trkpt>
      <trkpt lat="49.03223" lon="1.79842">
        <ele>100.66</ele>
        <time>2018-07-08T09:38:07Z</time>
      </trkpt>
      <trkpt lat="49.03224" lon="1.79842">
        <ele>100.42</ele>
        <time>2018-07-08T09:38:10Z</time>
      </trkpt>
      <trkpt lat="49.03227" lon="1.79848">
        <ele>100.58</ele>
        <time>2018-07-08T09:38:23Z</time>
      </trkpt>
      <trkpt lat="49.0323" lon="1.79849">
        <ele>100.26</ele>
        <time>2018-07-08T09:38:32Z</time>
      </trkpt>
      <trkpt lat="49.03233" lon="1.7985">
        <ele>100.36</ele>
        <time>2018-07-08T09:38:35Z</time>
      </trkpt>
      <trkpt lat="49.03246" lon="1.79864">
        <ele>100.58</ele>
        <time>2018-07-08T09:38:54Z</time>
      </trkpt>
      <trkpt lat="49.03246" lon="1.79866">
        <ele>100.38</ele>
        <time>2018-07-08T09:39:13Z</time>
      </trkpt>
      <trkpt lat="49.0325" lon="1.79867">
        <ele>100.59</ele>
        <time>2018-07-08T09:39:24Z</time>
      </trkpt>
      <trkpt lat="49.03253" lon="1.79868">
        <ele>100.58</ele>
        <time>2018-07-08T09:39:27Z</time>
      </trkpt>
      <trkpt lat="49.03264" lon="1.79874">
        <ele>100.85</ele>
        <time>2018-07-08T09:39:43Z</time>
      </trkpt>
      <trkpt lat="49.03278" lon="1.79887">
        <ele>100.51</ele>
        <time>2018-07-08T09:39:57Z</time>
      </trkpt>
      <trkpt lat="49.03297" lon="1.79899">
        <ele>99.32</ele>
        <time>2018-07-08T09:40:14Z</time>
      </trkpt>
      <trkpt lat="49.03303" lon="1.79903">
        <ele>100.22</ele>
        <time>2018-07-08T09:40:29Z</time>
      </trkpt>
      <trkpt lat="49.03306" lon="1.79903">
        <ele>99.69</ele>
        <time>2018-07-08T09:40:46Z</time>
      </trkpt>
      <trkpt lat="49.03323" lon="1.79914">
        <ele>99.47</ele>
        <time>2018-07-08T09:41:00Z</time>
      </trkpt>
      <trkpt lat="49.03342" lon="1.79924">
        <ele>98.84</ele>
        <time>2018-07-08T09:41:17Z</time>
      </trkpt>
      <trkpt lat="49.03347" lon="1.79927">
        <ele>99.51</ele>
        <time>2018-07-08T09:41:32Z</time>
      </trkpt>
      <trkpt lat="49.03348" lon="1.79928">
        <ele>101.21</ele>
        <time>2018-07-08T09:41:56Z</time>
      </trkpt>
      <trkpt lat="49.03348" lon="1.79928">
        <ele>99.89</ele>
        <time>2018-07-08T09:41:58Z</time>
      </trkpt>
      <trkpt lat="49.0335" lon="1.79928">
        <ele>98.45</ele>
        <time>2018-07-08T09:42:17Z</time>
      </trkpt>
      <trkpt lat="49.03352" lon="1.79928">
        <ele>99.54</ele>
        <time>2018-07-08T09:42:22Z</time>
      </trkpt>
      <trkpt lat="49.03354" lon="1.79928">
        <ele>99.74</ele>
        <time>2018-07-08T09:42:40Z</time>
      </trkpt>
      <trkpt lat="49.03356" lon="1.79927">
        <ele>99.03</ele>
        <time>2018-07-08T09:42:48Z</time>
      </trkpt>
      <trkpt lat="49.0336" lon="1.79929">
        <ele>99.45</ele>
        <time>2018-07-08T09:42:52Z</time>
      </trkpt>
      <trkpt lat="49.03377" lon="1.79934">
        <ele>99.49</ele>
        <time>2018-07-08T09:43:07Z</time>
      </trkpt>
      <trkpt lat="49.03379" lon="1.79935">
        <ele>99.4</ele>
        <time>2018-07-08T09:43:15Z</time>
      </trkpt>
      <trkpt lat="49.03388" lon="1.7994">
        <ele>99.5</ele>
        <time>2018-07-08T09:43:23Z</time>
      </trkpt>
      <trkpt lat="49.03405" lon="1.79946">
        <ele>99.72</ele>
        <time>2018-07-08T09:43:37Z</time>
      </trkpt>
      <trkpt lat="49.03414" lon="1.7995">
        <ele>99.89</ele>
        <time>2018-07-08T09:43:44Z</time>
      </trkpt>
      <trkpt lat="49.0343" lon="1.79964">
        <ele>100.31</ele>
        <time>2018-07-08T09:44:00Z</time>
      </trkpt>
      <trkpt lat="49.03452" lon="1.7998">
        <ele>101.31</ele>
        <time>2018-07-08T09:44:21Z</time>
      </trkpt>
      <trkpt lat="49.03471" lon="1.79994">
        <ele>101.49</ele>
        <time>2018-07-08T09:44:39Z</time>
      </trkpt>
      <trkpt lat="49.03475" lon="1.79997">
        <ele>101.61</ele>
        <time>2018-07-08T09:44:44Z</time>
      </trkpt>
      <trkpt lat="49.03476" lon="1.79998">
        <ele>101.03</ele>
        <time>2018-07-08T09:44:46Z</time>
      </trkpt>
      <trkpt lat="49.03492" lon="1.80012">
        <ele>101.49</ele>
        <time>2018-07-08T09:45:02Z</time>
      </trkpt>
      <trkpt lat="49.03515" lon="1.80031">
        <ele>101.77</ele>
        <time>2018-07-08T09:45:24Z</time>
      </trkpt>
      <trkpt lat="49.03533" lon="1.80049">
        <ele>101.66</ele>
        <time>2018-07-08T09:45:44Z</time>
      </trkpt>
      <trkpt lat="49.03551" lon="1.80065">
        <ele>101.63</ele>
        <time>2018-07-08T09:46:02Z</time>
      </trkpt>
      <trkpt lat="49.03573" lon="1.8009">
        <ele>101.65</ele>
        <time>2018-07-08T09:46:24Z</time>
      </trkpt>
      <trkpt lat="49.03594" lon="1.80114">
        <ele>102.31</ele>
        <time>2018-07-08T09:46:46Z</time>
      </trkpt>
      <trkpt lat="49.03604" lon="1.80129">
        <ele>102.37</ele>
        <time>2018-07-08T09:47:03Z</time>
      </trkpt>
      <trkpt lat="49.03607" lon="1.80133">
        <ele>102.29</ele>
        <time>2018-07-08T09:47:27Z</time>
      </trkpt>
      <trkpt lat="49.03607" lon="1.80133">
        <ele>102.48</ele>
        <time>2018-07-08T09:47:33Z</time>
      </trkpt>
      <trkpt lat="49.03609" lon="1.80134">
        <ele>101.92</ele>
        <time>2018-07-08T09:47:35Z</time>
      </trkpt>
      <trkpt lat="49.03612" lon="1.80136">
        <ele>101.9</ele>
        <time>2018-07-08T09:47:38Z</time>
      </trkpt>
      <trkpt lat="49.03629" lon="1.80159">
        <ele>101.48</ele>
        <time>2018-07-08T09:47:58Z</time>
      </trkpt>
      <trkpt lat="49.03633" lon="1.80162">
        <ele>101.54</ele>
        <time>2018-07-08T09:48:05Z</time>
      </trkpt>
      <trkpt lat="49.03635" lon="1.80164">
        <ele>101.75</ele>
        <time>2018-07-08T09:48:08Z</time>
      </trkpt>
      <trkpt lat="49.03652" lon="1.80183">
        <ele>101.76</ele>
        <time>2018-07-08T09:48:27Z</time>
      </trkpt>
      <trkpt lat="49.03669" lon="1.80205">
        <ele>101.34</ele>
        <time>2018-07-08T09:48:46Z</time>
      </trkpt>
      <trkpt lat="49.03675" lon="1.80213">
        <ele>101.32</ele>
        <time>2018-07-08T09:48:53Z</time>
      </trkpt>
      <trkpt lat="49.03683" lon="1.80223">
        <ele>100.67</ele>
        <time>2018-07-08T09:49:03Z</time>
      </trkpt>
      <trkpt lat="49.03696" lon="1.8024">
        <ele>99.99</ele>
        <time>2018-07-08T09:49:18Z</time>
      </trkpt>
      <trkpt lat="49.03706" lon="1.80252">
        <ele>99.78</ele>
        <time>2018-07-08T09:49:28Z</time>
      </trkpt>
      <trkpt lat="49.03726" lon="1.80271">
        <ele>97.53</ele>
        <time>2018-07-08T09:49:48Z</time>
      </trkpt>
      <trkpt lat="49.03747" lon="1.80282">
        <ele>96.21</ele>
        <time>2018-07-08T09:50:08Z</time>
      </trkpt>
      <trkpt lat="49.0375" lon="1.80283">
        <ele>95.75</ele>
        <time>2018-07-08T09:50:11Z</time>
      </trkpt>
      <trkpt lat="49.03752" lon="1.80284">
        <ele>95.46</ele>
        <time>2018-07-08T09:50:13Z</time>
      </trkpt>
      <trkpt lat="49.03766" lon="1.80289">
        <ele>93.54</ele>
        <time>2018-07-08T09:50:27Z</time>
      </trkpt>
      <trkpt lat="49.03789" lon="1.8029">
        <ele>90.64</ele>
        <time>2018-07-08T09:50:49Z</time>
      </trkpt>
      <trkpt lat="49.03808" lon="1.80282">
        <ele>88.46</ele>
        <time>2018-07-08T09:51:08Z</time>
      </trkpt>
      <trkpt lat="49.03815" lon="1.80278">
        <ele>87.13</ele>
        <time>2018-07-08T09:51:19Z</time>
      </trkpt>
      <trkpt lat="49.03817" lon="1.80277">
        <ele>86.84</ele>
        <time>2018-07-08T09:51:21Z</time>
      </trkpt>
      <trkpt lat="49.03827" lon="1.80272">
        <ele>86.35</ele>
        <time>2018-07-08T09:51:39Z</time>
      </trkpt>
      <trkpt lat="49.03828" lon="1.80271">
        <ele>85.69</ele>
        <time>2018-07-08T09:51:40Z</time>
      </trkpt>
      <trkpt lat="49.0384" lon="1.80264">
        <ele>84.14</ele>
        <time>2018-07-08T09:51:54Z</time>
      </trkpt>
      <trkpt lat="49.03846" lon="1.80255">
        <ele>85.35</ele>
        <time>2018-07-08T09:52:04Z</time>
      </trkpt>
      <trkpt lat="49.03857" lon="1.80238">
        <ele>83.72</ele>
        <time>2018-07-08T09:52:22Z</time>
      </trkpt>
      <trkpt lat="49.03859" lon="1.80234">
        <ele>83.97</ele>
        <time>2018-07-08T09:52:46Z</time>
      </trkpt>
      <trkpt lat="49.03859" lon="1.80222">
        <ele>84.01</ele>
        <time>2018-07-08T09:53:04Z</time>
      </trkpt>
      <trkpt lat="49.03859" lon="1.80223">
        <ele>84.25</ele>
        <time>2018-07-08T09:53:19Z</time>
      </trkpt>
      <trkpt lat="49.03861" lon="1.80212">
        <ele>83.8</ele>
        <time>2018-07-08T09:53:40Z</time>
      </trkpt>
      <trkpt lat="49.03866" lon="1.80198">
        <ele>83.53</ele>
        <time>2018-07-08T09:53:57Z</time>
      </trkpt>
      <trkpt lat="49.03868" lon="1.80199">
        <ele>84.06</ele>
        <time>2018-07-08T09:54:09Z</time>
      </trkpt>
      <trkpt lat="49.03879" lon="1.80204">
        <ele>82.9</ele>
        <time>2018-07-08T09:54:24Z</time>
      </trkpt>
      <trkpt lat="49.03882" lon="1.80197">
        <ele>82.93</ele>
        <time>2018-07-08T09:54:30Z</time>
      </trkpt>
      <trkpt lat="49.03898" lon="1.8017">
        <ele>81.83</ele>
        <time>2018-07-08T09:54:50Z</time>
      </trkpt>
      <trkpt lat="49.03907" lon="1.80138">
        <ele>79.89</ele>
        <time>2018-07-08T09:55:10Z</time>
      </trkpt>
      <trkpt lat="49.03909" lon="1.80132">
        <ele>79.65</ele>
        <time>2018-07-08T09:55:18Z</time>
      </trkpt>
      <trkpt lat="49.03911" lon="1.80127">
        <ele>78.87</ele>
        <time>2018-07-08T09:55:22Z</time>
      </trkpt>
      <trkpt lat="49.03914" lon="1.80116">
        <ele>78.75</ele>
        <time>2018-07-08T09:55:35Z</time>
      </trkpt>
      <trkpt lat="49.03916" lon="1.8011">
        <ele>78.39</ele>
        <time>2018-07-08T09:55:47Z</time>
      </trkpt>
      <trkpt lat="49.03924" lon="1.80096">
        <ele>77.55</ele>
        <time>2018-07-08T09:56:00Z</time>
      </trkpt>
      <trkpt lat="49.03925" lon="1.80095">
        <ele>77.05</ele>
        <time>2018-07-08T09:56:01Z</time>
      </trkpt>
      <trkpt lat="49.03932" lon="1.80077">
        <ele>76.37</ele>
        <time>2018-07-08T09:56:15Z</time>
      </trkpt>
      <trkpt lat="49.03935" lon="1.80072">
        <ele>75.84</ele>
        <time>2018-07-08T09:56:18Z</time>
      </trkpt>
      <trkpt lat="49.03951" lon="1.80045">
        <ele>73.57</ele>
        <time>2018-07-08T09:56:41Z</time>
      </trkpt>
      <trkpt lat="49.03961" lon="1.80025">
        <ele>72.76</ele>
        <time>2018-07-08T09:57:00Z</time>
      </trkpt>
      <trkpt lat="49.03976" lon="1.80006">
        <ele>72.63</ele>
        <time>2018-07-08T09:57:19Z</time>
      </trkpt>
      <trkpt lat="49.03976" lon="1.80015">
        <ele>72.71</ele>
        <time>2018-07-08T09:57:37Z</time>
      </trkpt>
      <trkpt lat="49.03982" lon="1.80015">
        <ele>72.72</ele>
        <time>2018-07-08T09:57:52Z</time>
      </trkpt>
      <trkpt lat="49.03989" lon="1.80026">
        <ele>71.77</ele>
        <time>2018-07-08T09:58:09Z</time>
      </trkpt>
      <trkpt lat="49.04" lon="1.80029">
        <ele>71.71</ele>
        <time>2018-07-08T09:58:26Z</time>
      </trkpt>
      <trkpt lat="49.04008" lon="1.80032">
        <ele>71.54</ele>
        <time>2018-07-08T09:58:33Z</time>
      </trkpt>
      <trkpt lat="49.04015" lon="1.80037">
        <ele>71.07</ele>
        <time>2018-07-08T09:58:40Z</time>
      </trkpt>
      <trkpt lat="49.0402" lon="1.8004">
        <ele>71.26</ele>
        <time>2018-07-08T09:58:45Z</time>
      </trkpt>
      <trkpt lat="49.04034" lon="1.80044">
        <ele>71.29</ele>
        <time>2018-07-08T09:58:58Z</time>
      </trkpt>
      <trkpt lat="49.04051" lon="1.80052">
        <ele>69.84</ele>
        <time>2018-07-08T09:59:17Z</time>
      </trkpt>
      <trkpt lat="49.04057" lon="1.80052">
        <ele>71.84</ele>
        <time>2018-07-08T09:59:34Z</time>
      </trkpt>
      <trkpt lat="49.0406" lon="1.80051">
        <ele>72.12</ele>
        <time>2018-07-08T09:59:54Z</time>
      </trkpt>
      <trkpt lat="49.04065" lon="1.80048">
        <ele>70.89</ele>
        <time>2018-07-08T10:00:10Z</time>
      </trkpt>
      <trkpt lat="49.04066" lon="1.8005">
        <ele>72.73</ele>
        <time>2018-07-08T10:00:31Z</time>
      </trkpt>
      <trkpt lat="49.04062" lon="1.80049">
        <ele>72.18</ele>
        <time>2018-07-08T10:00:50Z</time>
      </trkpt>
      <trkpt lat="49.04045" lon="1.80075">
        <ele>71.97</ele>
        <time>2018-07-08T10:03:30Z</time>
      </trkpt>
      <trkpt lat="49.04045" lon="1.80075">
        <ele>81.23</ele>
        <time>2018-07-08T10:34:14Z</time>
      </trkpt>
      <trkpt lat="49.04057" lon="1.8006">
        <ele>82.44</ele>
        <time>2018-07-08T10:37:55Z</time>
      </trkpt>
      <trkpt lat="49.04059" lon="1.80065">
        <ele>82.03</ele>
        <time>2018-07-08T10:38:07Z</time>
      </trkpt>
      <trkpt lat="49.04071" lon="1.80064">
        <ele>82.79</ele>
        <time>2018-07-08T10:38:18Z</time>
      </trkpt>
      <trkpt lat="49.04083" lon="1.80071">
        <ele>83.2</ele>
        <time>2018-07-08T10:38:30Z</time>
      </trkpt>
      <trkpt lat="49.04099" lon="1.80077">
        <ele>84.25</ele>
        <time>2018-07-08T10:38:46Z</time>
      </trkpt>
      <trkpt lat="49.04101" lon="1.80078">
        <ele>83.81</ele>
        <time>2018-07-08T10:38:48Z</time>
      </trkpt>
      <trkpt lat="49.04108" lon="1.80092">
        <ele>85.49</ele>
        <time>2018-07-08T10:39:03Z</time>
      </trkpt>
      <trkpt lat="49.04115" lon="1.80102">
        <ele>85.87</ele>
        <time>2018-07-08T10:39:14Z</time>
      </trkpt>
      <trkpt lat="49.04122" lon="1.80104">
        <ele>86.43</ele>
        <time>2018-07-08T10:39:25Z</time>
      </trkpt>
      <trkpt lat="49.04137" lon="1.80119">
        <ele>87.77</ele>
        <time>2018-07-08T10:39:40Z</time>
      </trkpt>
      <trkpt lat="49.04139" lon="1.80121">
        <ele>87.85</ele>
        <time>2018-07-08T10:39:42Z</time>
      </trkpt>
      <trkpt lat="49.04147" lon="1.80134">
        <ele>89.09</ele>
        <time>2018-07-08T10:39:57Z</time>
      </trkpt>
      <trkpt lat="49.04148" lon="1.80135">
        <ele>89.04</ele>
        <time>2018-07-08T10:39:58Z</time>
      </trkpt>
      <trkpt lat="49.04153" lon="1.80158">
        <ele>89.52</ele>
        <time>2018-07-08T10:40:14Z</time>
      </trkpt>
      <trkpt lat="49.04153" lon="1.80161">
        <ele>91.7</ele>
        <time>2018-07-08T10:40:16Z</time>
      </trkpt>
      <trkpt lat="49.04156" lon="1.80174">
        <ele>92.02</ele>
        <time>2018-07-08T10:40:26Z</time>
      </trkpt>
      <trkpt lat="49.04157" lon="1.8018">
        <ele>93.57</ele>
        <time>2018-07-08T10:40:30Z</time>
      </trkpt>
      <trkpt lat="49.04151" lon="1.80201">
        <ele>95.53</ele>
        <time>2018-07-08T10:40:44Z</time>
      </trkpt>
      <trkpt lat="49.04151" lon="1.80202">
        <ele>95.27</ele>
        <time>2018-07-08T10:40:45Z</time>
      </trkpt>
      <trkpt lat="49.04154" lon="1.80218">
        <ele>96.24</ele>
        <time>2018-07-08T10:40:55Z</time>
      </trkpt>
      <trkpt lat="49.04158" lon="1.8022">
        <ele>96.66</ele>
        <time>2018-07-08T10:40:57Z</time>
      </trkpt>
      <trkpt lat="49.04166" lon="1.80218">
        <ele>97.72</ele>
        <time>2018-07-08T10:41:08Z</time>
      </trkpt>
      <trkpt lat="49.04176" lon="1.80223">
        <ele>99.23</ele>
        <time>2018-07-08T10:41:25Z</time>
      </trkpt>
      <trkpt lat="49.04179" lon="1.80241">
        <ele>102.41</ele>
        <time>2018-07-08T10:41:39Z</time>
      </trkpt>
      <trkpt lat="49.04185" lon="1.80249">
        <ele>102.57</ele>
        <time>2018-07-08T10:41:46Z</time>
      </trkpt>
      <trkpt lat="49.04193" lon="1.80268">
        <ele>104.99</ele>
        <time>2018-07-08T10:42:01Z</time>
      </trkpt>
      <trkpt lat="49.04201" lon="1.80289">
        <ele>106.79</ele>
        <time>2018-07-08T10:42:17Z</time>
      </trkpt>
      <trkpt lat="49.04208" lon="1.80306">
        <ele>108.08</ele>
        <time>2018-07-08T10:42:32Z</time>
      </trkpt>
      <trkpt lat="49.04219" lon="1.80324">
        <ele>109.28</ele>
        <time>2018-07-08T10:42:47Z</time>
      </trkpt>
      <trkpt lat="49.04226" lon="1.80336">
        <ele>109.74</ele>
        <time>2018-07-08T10:43:04Z</time>
      </trkpt>
      <trkpt lat="49.04228" lon="1.80338">
        <ele>109.93</ele>
        <time>2018-07-08T10:43:06Z</time>
      </trkpt>
      <trkpt lat="49.04241" lon="1.80352">
        <ele>111.36</ele>
        <time>2018-07-08T10:43:22Z</time>
      </trkpt>
      <trkpt lat="49.04244" lon="1.80357">
        <ele>112.3</ele>
        <time>2018-07-08T10:43:27Z</time>
      </trkpt>
      <trkpt lat="49.04249" lon="1.80365">
        <ele>112.7</ele>
        <time>2018-07-08T10:43:40Z</time>
      </trkpt>
      <trkpt lat="49.04248" lon="1.80365">
        <ele>112.8</ele>
        <time>2018-07-08T10:44:04Z</time>
      </trkpt>
      <trkpt lat="49.04247" lon="1.80376">
        <ele>112.18</ele>
        <time>2018-07-08T10:44:19Z</time>
      </trkpt>
      <trkpt lat="49.04247" lon="1.80384">
        <ele>112.42</ele>
        <time>2018-07-08T10:44:25Z</time>
      </trkpt>
      <trkpt lat="49.04245" lon="1.80393">
        <ele>112.56</ele>
        <time>2018-07-08T10:44:31Z</time>
      </trkpt>
      <trkpt lat="49.04242" lon="1.80417">
        <ele>112.33</ele>
        <time>2018-07-08T10:44:45Z</time>
      </trkpt>
      <trkpt lat="49.0424" lon="1.8044">
        <ele>112.14</ele>
        <time>2018-07-08T10:45:01Z</time>
      </trkpt>
      <trkpt lat="49.04236" lon="1.80468">
        <ele>111.71</ele>
        <time>2018-07-08T10:45:17Z</time>
      </trkpt>
      <trkpt lat="49.04234" lon="1.80477">
        <ele>112.01</ele>
        <time>2018-07-08T10:45:23Z</time>
      </trkpt>
      <trkpt lat="49.04233" lon="1.80481">
        <ele>111.19</ele>
        <time>2018-07-08T10:45:26Z</time>
      </trkpt>
      <trkpt lat="49.0423" lon="1.805">
        <ele>111.74</ele>
        <time>2018-07-08T10:45:38Z</time>
      </trkpt>
      <trkpt lat="49.04229" lon="1.80501">
        <ele>111.78</ele>
        <time>2018-07-08T10:45:39Z</time>
      </trkpt>
      <trkpt lat="49.04228" lon="1.80505">
        <ele>111.24</ele>
        <time>2018-07-08T10:45:41Z</time>
      </trkpt>
      <trkpt lat="49.04223" lon="1.80529">
        <ele>110.44</ele>
        <time>2018-07-08T10:45:56Z</time>
      </trkpt>
      <trkpt lat="49.0422" lon="1.80551">
        <ele>109.76</ele>
        <time>2018-07-08T10:46:10Z</time>
      </trkpt>
      <trkpt lat="49.04219" lon="1.80568">
        <ele>109.48</ele>
        <time>2018-07-08T10:46:26Z</time>
      </trkpt>
      <trkpt lat="49.0422" lon="1.80576">
        <ele>109.76</ele>
        <time>2018-07-08T10:46:32Z</time>
      </trkpt>
      <trkpt lat="49.04218" lon="1.80618">
        <ele>109.66</ele>
        <time>2018-07-08T10:46:50Z</time>
      </trkpt>
      <trkpt lat="49.04212" lon="1.80652">
        <ele>109.65</ele>
        <time>2018-07-08T10:47:11Z</time>
      </trkpt>
      <trkpt lat="49.04204" lon="1.80676">
        <ele>110.19</ele>
        <time>2018-07-08T10:47:27Z</time>
      </trkpt>
      <trkpt lat="49.042" lon="1.80689">
        <ele>110.52</ele>
        <time>2018-07-08T10:47:40Z</time>
      </trkpt>
      <trkpt lat="49.04198" lon="1.80691">
        <ele>110.69</ele>
        <time>2018-07-08T10:47:43Z</time>
      </trkpt>
      <trkpt lat="49.04195" lon="1.80701">
        <ele>111.11</ele>
        <time>2018-07-08T10:47:57Z</time>
      </trkpt>
      <trkpt lat="49.04194" lon="1.80703">
        <ele>111.03</ele>
        <time>2018-07-08T10:47:59Z</time>
      </trkpt>
      <trkpt lat="49.04187" lon="1.80729">
        <ele>112.51</ele>
        <time>2018-07-08T10:48:16Z</time>
      </trkpt>
      <trkpt lat="49.04181" lon="1.80758">
        <ele>113.83</ele>
        <time>2018-07-08T10:48:33Z</time>
      </trkpt>
      <trkpt lat="49.04178" lon="1.80789">
        <ele>114.51</ele>
        <time>2018-07-08T10:48:51Z</time>
      </trkpt>
      <trkpt lat="49.04177" lon="1.80803">
        <ele>114.66</ele>
        <time>2018-07-08T10:48:59Z</time>
      </trkpt>
      <trkpt lat="49.04177" lon="1.80814">
        <ele>115.34</ele>
        <time>2018-07-08T10:49:05Z</time>
      </trkpt>
      <trkpt lat="49.04173" lon="1.80842">
        <ele>116.35</ele>
        <time>2018-07-08T10:49:22Z</time>
      </trkpt>
      <trkpt lat="49.04171" lon="1.80868">
        <ele>117.23</ele>
        <time>2018-07-08T10:49:37Z</time>
      </trkpt>
      <trkpt lat="49.0417" lon="1.80885">
        <ele>118.47</ele>
        <time>2018-07-08T10:49:47Z</time>
      </trkpt>
      <trkpt lat="49.04167" lon="1.80913">
        <ele>119.57</ele>
        <time>2018-07-08T10:50:04Z</time>
      </trkpt>
      <trkpt lat="49.04162" lon="1.80941">
        <ele>120.46</ele>
        <time>2018-07-08T10:50:21Z</time>
      </trkpt>
      <trkpt lat="49.04156" lon="1.80972">
        <ele>120.7</ele>
        <time>2018-07-08T10:50:40Z</time>
      </trkpt>
      <trkpt lat="49.0415" lon="1.81">
        <ele>121.37</ele>
        <time>2018-07-08T10:50:56Z</time>
      </trkpt>
      <trkpt lat="49.04143" lon="1.81021">
        <ele>121.1</ele>
        <time>2018-07-08T10:51:10Z</time>
      </trkpt>
      <trkpt lat="49.04136" lon="1.81042">
        <ele>121.04</ele>
        <time>2018-07-08T10:51:24Z</time>
      </trkpt>
      <trkpt lat="49.04127" lon="1.81064">
        <ele>121.15</ele>
        <time>2018-07-08T10:51:39Z</time>
      </trkpt>
      <trkpt lat="49.04125" lon="1.81072">
        <ele>121.68</ele>
        <time>2018-07-08T10:51:54Z</time>
      </trkpt>
      <trkpt lat="49.04122" lon="1.81075">
        <ele>121.31</ele>
        <time>2018-07-08T10:52:03Z</time>
      </trkpt>
      <trkpt lat="49.04119" lon="1.81081">
        <ele>121.41</ele>
        <time>2018-07-08T10:52:07Z</time>
      </trkpt>
      <trkpt lat="49.04112" lon="1.81096">
        <ele>121.53</ele>
        <time>2018-07-08T10:52:19Z</time>
      </trkpt>
      <trkpt lat="49.04112" lon="1.81097">
        <ele>121.44</ele>
        <time>2018-07-08T10:52:20Z</time>
      </trkpt>
      <trkpt lat="49.04107" lon="1.81108">
        <ele>121.46</ele>
        <time>2018-07-08T10:52:29Z</time>
      </trkpt>
      <trkpt lat="49.04103" lon="1.81118">
        <ele>121.4</ele>
        <time>2018-07-08T10:52:36Z</time>
      </trkpt>
      <trkpt lat="49.04097" lon="1.81129">
        <ele>121.83</ele>
        <time>2018-07-08T10:52:45Z</time>
      </trkpt>
      <trkpt lat="49.04087" lon="1.8115">
        <ele>122.27</ele>
        <time>2018-07-08T10:53:01Z</time>
      </trkpt>
      <trkpt lat="49.04076" lon="1.81172">
        <ele>122.54</ele>
        <time>2018-07-08T10:53:17Z</time>
      </trkpt>
      <trkpt lat="49.04065" lon="1.81193">
        <ele>123.22</ele>
        <time>2018-07-08T10:53:33Z</time>
      </trkpt>
      <trkpt lat="49.04062" lon="1.81199">
        <ele>123.05</ele>
        <time>2018-07-08T10:53:52Z</time>
      </trkpt>
      <trkpt lat="49.04062" lon="1.81202">
        <ele>123.3</ele>
        <time>2018-07-08T10:54:17Z</time>
      </trkpt>
      <trkpt lat="49.04061" lon="1.81205">
        <ele>123.37</ele>
        <time>2018-07-08T10:54:47Z</time>
      </trkpt>
      <trkpt lat="49.0406" lon="1.81205">
        <ele>122.8</ele>
        <time>2018-07-08T10:54:50Z</time>
      </trkpt>
      <trkpt lat="49.04054" lon="1.81203">
        <ele>122.58</ele>
        <time>2018-07-08T10:54:55Z</time>
      </trkpt>
      <trkpt lat="49.04036" lon="1.81189">
        <ele>122.33</ele>
        <time>2018-07-08T10:55:13Z</time>
      </trkpt>
      <trkpt lat="49.04021" lon="1.81178">
        <ele>122.48</ele>
        <time>2018-07-08T10:55:27Z</time>
      </trkpt>
      <trkpt lat="49.04005" lon="1.81163">
        <ele>121.96</ele>
        <time>2018-07-08T10:55:43Z</time>
      </trkpt>
      <trkpt lat="49.04005" lon="1.81162">
        <ele>122</ele>
        <time>2018-07-08T10:55:44Z</time>
      </trkpt>
      <trkpt lat="49.04001" lon="1.81159">
        <ele>122.64</ele>
        <time>2018-07-08T10:55:48Z</time>
      </trkpt>
      <trkpt lat="49.03979" lon="1.81158">
        <ele>122.22</ele>
        <time>2018-07-08T10:56:07Z</time>
      </trkpt>
      <trkpt lat="49.03967" lon="1.81162">
        <ele>122.01</ele>
        <time>2018-07-08T10:56:18Z</time>
      </trkpt>
      <trkpt lat="49.03951" lon="1.81176">
        <ele>121.81</ele>
        <time>2018-07-08T10:56:34Z</time>
      </trkpt>
      <trkpt lat="49.03937" lon="1.81189">
        <ele>121.15</ele>
        <time>2018-07-08T10:56:49Z</time>
      </trkpt>
      <trkpt lat="49.0392" lon="1.81208">
        <ele>121.23</ele>
        <time>2018-07-08T10:57:07Z</time>
      </trkpt>
      <trkpt lat="49.03907" lon="1.81222">
        <ele>121.15</ele>
        <time>2018-07-08T10:57:21Z</time>
      </trkpt>
      <trkpt lat="49.0389" lon="1.81239">
        <ele>120.77</ele>
        <time>2018-07-08T10:57:38Z</time>
      </trkpt>
      <trkpt lat="49.0388" lon="1.81249">
        <ele>120.98</ele>
        <time>2018-07-08T10:57:49Z</time>
      </trkpt>
      <trkpt lat="49.03859" lon="1.81263">
        <ele>120.56</ele>
        <time>2018-07-08T10:58:08Z</time>
      </trkpt>
      <trkpt lat="49.03842" lon="1.81273">
        <ele>121.18</ele>
        <time>2018-07-08T10:58:24Z</time>
      </trkpt>
      <trkpt lat="49.03823" lon="1.81283">
        <ele>121.16</ele>
        <time>2018-07-08T10:58:41Z</time>
      </trkpt>
      <trkpt lat="49.03799" lon="1.8129">
        <ele>121.02</ele>
        <time>2018-07-08T10:59:01Z</time>
      </trkpt>
      <trkpt lat="49.03777" lon="1.81298">
        <ele>120.83</ele>
        <time>2018-07-08T10:59:21Z</time>
      </trkpt>
      <trkpt lat="49.0376" lon="1.81307">
        <ele>120.93</ele>
        <time>2018-07-08T10:59:37Z</time>
      </trkpt>
      <trkpt lat="49.03758" lon="1.8131">
        <ele>121.12</ele>
        <time>2018-07-08T10:59:53Z</time>
      </trkpt>
      <trkpt lat="49.03757" lon="1.8131">
        <ele>120.65</ele>
        <time>2018-07-08T10:59:57Z</time>
      </trkpt>
      <trkpt lat="49.03755" lon="1.81311">
        <ele>120.31</ele>
        <time>2018-07-08T10:59:59Z</time>
      </trkpt>
      <trkpt lat="49.03753" lon="1.81312">
        <ele>120.81</ele>
        <time>2018-07-08T11:00:01Z</time>
      </trkpt>
      <trkpt lat="49.03748" lon="1.81316">
        <ele>120.43</ele>
        <time>2018-07-08T11:00:06Z</time>
      </trkpt>
      <trkpt lat="49.03727" lon="1.81329">
        <ele>120.34</ele>
        <time>2018-07-08T11:00:25Z</time>
      </trkpt>
      <trkpt lat="49.03707" lon="1.81345">
        <ele>120.49</ele>
        <time>2018-07-08T11:00:43Z</time>
      </trkpt>
      <trkpt lat="49.03684" lon="1.81368">
        <ele>118.85</ele>
        <time>2018-07-08T11:01:06Z</time>
      </trkpt>
      <trkpt lat="49.0367" lon="1.81382">
        <ele>118.08</ele>
        <time>2018-07-08T11:01:21Z</time>
      </trkpt>
      <trkpt lat="49.03652" lon="1.81401">
        <ele>117.85</ele>
        <time>2018-07-08T11:01:39Z</time>
      </trkpt>
      <trkpt lat="49.03647" lon="1.81407">
        <ele>117.35</ele>
        <time>2018-07-08T11:01:45Z</time>
      </trkpt>
      <trkpt lat="49.03645" lon="1.81408">
        <ele>117.26</ele>
        <time>2018-07-08T11:01:47Z</time>
      </trkpt>
      <trkpt lat="49.03636" lon="1.81417">
        <ele>117.11</ele>
        <time>2018-07-08T11:01:57Z</time>
      </trkpt>
      <trkpt lat="49.0362" lon="1.81432">
        <ele>115.93</ele>
        <time>2018-07-08T11:02:14Z</time>
      </trkpt>
      <trkpt lat="49.03606" lon="1.81445">
        <ele>115.61</ele>
        <time>2018-07-08T11:02:30Z</time>
      </trkpt>
      <trkpt lat="49.03601" lon="1.81444">
        <ele>115.47</ele>
        <time>2018-07-08T11:02:45Z</time>
      </trkpt>
      <trkpt lat="49.03593" lon="1.81443">
        <ele>114.65</ele>
        <time>2018-07-08T11:02:57Z</time>
      </trkpt>
      <trkpt lat="49.03587" lon="1.81445">
        <ele>113.73</ele>
        <time>2018-07-08T11:03:02Z</time>
      </trkpt>
      <trkpt lat="49.03589" lon="1.81449">
        <ele>113.05</ele>
        <time>2018-07-08T11:03:18Z</time>
      </trkpt>
      <trkpt lat="49.03596" lon="1.81446">
        <ele>112.68</ele>
        <time>2018-07-08T11:03:35Z</time>
      </trkpt>
      <trkpt lat="49.03583" lon="1.81446">
        <ele>112.85</ele>
        <time>2018-07-08T11:03:57Z</time>
      </trkpt>
      <trkpt lat="49.0359" lon="1.81452">
        <ele>114.87</ele>
        <time>2018-07-08T11:04:12Z</time>
      </trkpt>
      <trkpt lat="49.0359" lon="1.81452">
        <ele>114.52</ele>
        <time>2018-07-08T11:04:38Z</time>
      </trkpt>
      <trkpt lat="49.03589" lon="1.81449">
        <ele>114.24</ele>
        <time>2018-07-08T11:04:55Z</time>
      </trkpt>
      <trkpt lat="49.03584" lon="1.81452">
        <ele>113.79</ele>
        <time>2018-07-08T11:05:16Z</time>
      </trkpt>
      <trkpt lat="49.03588" lon="1.81444">
        <ele>114.23</ele>
        <time>2018-07-08T11:05:31Z</time>
      </trkpt>
      <trkpt lat="49.03597" lon="1.8144">
        <ele>115.57</ele>
        <time>2018-07-08T11:05:48Z</time>
      </trkpt>
      <trkpt lat="49.03598" lon="1.81443">
        <ele>114.83</ele>
        <time>2018-07-08T11:06:11Z</time>
      </trkpt>
      <trkpt lat="49.03594" lon="1.81448">
        <ele>114.56</ele>
        <time>2018-07-08T11:06:29Z</time>
      </trkpt>
      <trkpt lat="49.03597" lon="1.81438">
        <ele>115.02</ele>
        <time>2018-07-08T11:06:47Z</time>
      </trkpt>
      <trkpt lat="49.03594" lon="1.81431">
        <ele>114.02</ele>
        <time>2018-07-08T11:07:06Z</time>
      </trkpt>
      <trkpt lat="49.03593" lon="1.81428">
        <ele>114.1</ele>
        <time>2018-07-08T11:07:36Z</time>
      </trkpt>
      <trkpt lat="49.03597" lon="1.81438">
        <ele>114.67</ele>
        <time>2018-07-08T11:07:59Z</time>
      </trkpt>
      <trkpt lat="49.03598" lon="1.81444">
        <ele>114.76</ele>
        <time>2018-07-08T11:08:28Z</time>
      </trkpt>
      <trkpt lat="49.036" lon="1.81442">
        <ele>114.9</ele>
        <time>2018-07-08T11:09:02Z</time>
      </trkpt>
      <trkpt lat="49.036" lon="1.81443">
        <ele>114.7</ele>
        <time>2018-07-08T11:09:35Z</time>
      </trkpt>
      <trkpt lat="49.03606" lon="1.81446">
        <ele>114.97</ele>
        <time>2018-07-08T11:10:24Z</time>
      </trkpt>
      <trkpt lat="49.036" lon="1.81437">
        <ele>114.99</ele>
        <time>2018-07-08T11:14:05Z</time>
      </trkpt>
      <trkpt lat="49.03601" lon="1.81435">
        <ele>115.27</ele>
        <time>2018-07-08T11:14:58Z</time>
      </trkpt>
      <trkpt lat="49.03605" lon="1.81447">
        <ele>114.95</ele>
        <time>2018-07-08T11:15:18Z</time>
      </trkpt>
      <trkpt lat="49.03602" lon="1.81447">
        <ele>115.08</ele>
        <time>2018-07-08T11:15:37Z</time>
      </trkpt>
      <trkpt lat="49.03592" lon="1.81456">
        <ele>114.42</ele>
        <time>2018-07-08T11:15:52Z</time>
      </trkpt>
      <trkpt lat="49.03587" lon="1.81464">
        <ele>113.6</ele>
        <time>2018-07-08T11:16:10Z</time>
      </trkpt>
      <trkpt lat="49.03585" lon="1.8147">
        <ele>113.67</ele>
        <time>2018-07-08T11:16:27Z</time>
      </trkpt>
      <trkpt lat="49.03581" lon="1.81476">
        <ele>113.25</ele>
        <time>2018-07-08T11:16:34Z</time>
      </trkpt>
      <trkpt lat="49.03579" lon="1.81479">
        <ele>113.15</ele>
        <time>2018-07-08T11:16:37Z</time>
      </trkpt>
      <trkpt lat="49.03568" lon="1.81497">
        <ele>111.56</ele>
        <time>2018-07-08T11:16:54Z</time>
      </trkpt>
      <trkpt lat="49.03565" lon="1.81504">
        <ele>110.61</ele>
        <time>2018-07-08T11:17:00Z</time>
      </trkpt>
      <trkpt lat="49.03563" lon="1.81508">
        <ele>110.61</ele>
        <time>2018-07-08T11:17:04Z</time>
      </trkpt>
      <trkpt lat="49.03559" lon="1.81515">
        <ele>109.79</ele>
        <time>2018-07-08T11:17:09Z</time>
      </trkpt>
      <trkpt lat="49.03557" lon="1.81516">
        <ele>109.45</ele>
        <time>2018-07-08T11:17:11Z</time>
      </trkpt>
      <trkpt lat="49.03548" lon="1.81528">
        <ele>109.22</ele>
        <time>2018-07-08T11:17:25Z</time>
      </trkpt>
      <trkpt lat="49.03538" lon="1.81545">
        <ele>107.89</ele>
        <time>2018-07-08T11:17:39Z</time>
      </trkpt>
      <trkpt lat="49.03529" lon="1.81558">
        <ele>107.73</ele>
        <time>2018-07-08T11:17:53Z</time>
      </trkpt>
      <trkpt lat="49.03519" lon="1.81573">
        <ele>106.44</ele>
        <time>2018-07-08T11:18:07Z</time>
      </trkpt>
      <trkpt lat="49.03516" lon="1.81577">
        <ele>106.04</ele>
        <time>2018-07-08T11:18:11Z</time>
      </trkpt>
      <trkpt lat="49.03512" lon="1.81582">
        <ele>105.6</ele>
        <time>2018-07-08T11:18:17Z</time>
      </trkpt>
      <trkpt lat="49.03498" lon="1.81599">
        <ele>104.19</ele>
        <time>2018-07-08T11:18:32Z</time>
      </trkpt>
      <trkpt lat="49.0348" lon="1.81608">
        <ele>102.3</ele>
        <time>2018-07-08T11:18:48Z</time>
      </trkpt>
      <trkpt lat="49.03467" lon="1.81614">
        <ele>100.6</ele>
        <time>2018-07-08T11:19:04Z</time>
      </trkpt>
      <trkpt lat="49.03448" lon="1.81616">
        <ele>100.07</ele>
        <time>2018-07-08T11:19:21Z</time>
      </trkpt>
      <trkpt lat="49.03423" lon="1.81616">
        <ele>99.3</ele>
        <time>2018-07-08T11:19:43Z</time>
      </trkpt>
      <trkpt lat="49.03401" lon="1.81612">
        <ele>97.59</ele>
        <time>2018-07-08T11:20:03Z</time>
      </trkpt>
      <trkpt lat="49.03387" lon="1.81609">
        <ele>96.16</ele>
        <time>2018-07-08T11:20:18Z</time>
      </trkpt>
      <trkpt lat="49.03378" lon="1.81608">
        <ele>95.73</ele>
        <time>2018-07-08T11:20:28Z</time>
      </trkpt>
      <trkpt lat="49.03356" lon="1.81617">
        <ele>93.26</ele>
        <time>2018-07-08T11:20:49Z</time>
      </trkpt>
      <trkpt lat="49.03339" lon="1.81638">
        <ele>91.92</ele>
        <time>2018-07-08T11:21:07Z</time>
      </trkpt>
      <trkpt lat="49.03324" lon="1.81645">
        <ele>89.74</ele>
        <time>2018-07-08T11:21:23Z</time>
      </trkpt>
      <trkpt lat="49.03309" lon="1.8164">
        <ele>87.66</ele>
        <time>2018-07-08T11:21:39Z</time>
      </trkpt>
      <trkpt lat="49.03296" lon="1.81643">
        <ele>86.27</ele>
        <time>2018-07-08T11:21:55Z</time>
      </trkpt>
      <trkpt lat="49.03293" lon="1.81645">
        <ele>86.18</ele>
        <time>2018-07-08T11:21:58Z</time>
      </trkpt>
      <trkpt lat="49.03285" lon="1.81658">
        <ele>85.94</ele>
        <time>2018-07-08T11:22:12Z</time>
      </trkpt>
      <trkpt lat="49.03277" lon="1.81665">
        <ele>85.33</ele>
        <time>2018-07-08T11:22:29Z</time>
      </trkpt>
      <trkpt lat="49.03269" lon="1.8168">
        <ele>84.46</ele>
        <time>2018-07-08T11:22:45Z</time>
      </trkpt>
      <trkpt lat="49.03265" lon="1.81686">
        <ele>83.79</ele>
        <time>2018-07-08T11:22:55Z</time>
      </trkpt>
      <trkpt lat="49.03263" lon="1.81689">
        <ele>84.2</ele>
        <time>2018-07-08T11:22:57Z</time>
      </trkpt>
      <trkpt lat="49.03261" lon="1.81693">
        <ele>84.28</ele>
        <time>2018-07-08T11:23:00Z</time>
      </trkpt>
      <trkpt lat="49.03254" lon="1.81705">
        <ele>83.75</ele>
        <time>2018-07-08T11:23:09Z</time>
      </trkpt>
      <trkpt lat="49.03244" lon="1.81727">
        <ele>82.57</ele>
        <time>2018-07-08T11:23:24Z</time>
      </trkpt>
      <trkpt lat="49.03241" lon="1.81736">
        <ele>82.22</ele>
        <time>2018-07-08T11:23:30Z</time>
      </trkpt>
      <trkpt lat="49.03227" lon="1.81763">
        <ele>81.77</ele>
        <time>2018-07-08T11:23:48Z</time>
      </trkpt>
      <trkpt lat="49.03226" lon="1.81767">
        <ele>82.01</ele>
        <time>2018-07-08T11:24:08Z</time>
      </trkpt>
      <trkpt lat="49.03223" lon="1.81763">
        <ele>82.06</ele>
        <time>2018-07-08T11:24:32Z</time>
      </trkpt>
      <trkpt lat="49.0322" lon="1.81761">
        <ele>81</ele>
        <time>2018-07-08T11:24:35Z</time>
      </trkpt>
      <trkpt lat="49.03212" lon="1.81757">
        <ele>79.93</ele>
        <time>2018-07-08T11:24:44Z</time>
      </trkpt>
      <trkpt lat="49.03196" lon="1.81739">
        <ele>78.54</ele>
        <time>2018-07-08T11:25:03Z</time>
      </trkpt>
      <trkpt lat="49.03194" lon="1.81737">
        <ele>77.92</ele>
        <time>2018-07-08T11:25:09Z</time>
      </trkpt>
      <trkpt lat="49.03187" lon="1.81732">
        <ele>76.93</ele>
        <time>2018-07-08T11:25:16Z</time>
      </trkpt>
      <trkpt lat="49.03176" lon="1.81725">
        <ele>76.11</ele>
        <time>2018-07-08T11:25:30Z</time>
      </trkpt>
      <trkpt lat="49.03174" lon="1.81715">
        <ele>76.24</ele>
        <time>2018-07-08T11:25:49Z</time>
      </trkpt>
      <trkpt lat="49.03172" lon="1.81713">
        <ele>76.08</ele>
        <time>2018-07-08T11:25:52Z</time>
      </trkpt>
      <trkpt lat="49.03171" lon="1.8171">
        <ele>76.15</ele>
        <time>2018-07-08T11:25:54Z</time>
      </trkpt>
      <trkpt lat="49.03164" lon="1.81701">
        <ele>75.78</ele>
        <time>2018-07-08T11:26:02Z</time>
      </trkpt>
      <trkpt lat="49.03157" lon="1.81693">
        <ele>75.56</ele>
        <time>2018-07-08T11:26:11Z</time>
      </trkpt>
      <trkpt lat="49.03148" lon="1.81695">
        <ele>75.54</ele>
        <time>2018-07-08T11:26:27Z</time>
      </trkpt>
      <trkpt lat="49.03131" lon="1.81683">
        <ele>75.6</ele>
        <time>2018-07-08T11:26:50Z</time>
      </trkpt>
      <trkpt lat="49.03121" lon="1.81675">
        <ele>74.68</ele>
        <time>2018-07-08T11:27:09Z</time>
      </trkpt>
      <trkpt lat="49.03118" lon="1.81677">
        <ele>74.36</ele>
        <time>2018-07-08T11:27:34Z</time>
      </trkpt>
      <trkpt lat="49.03126" lon="1.81677">
        <ele>74.37</ele>
        <time>2018-07-08T11:27:59Z</time>
      </trkpt>
      <trkpt lat="49.03126" lon="1.81676">
        <ele>74.25</ele>
        <time>2018-07-08T11:28:11Z</time>
      </trkpt>
      <trkpt lat="49.03119" lon="1.8168">
        <ele>73.94</ele>
        <time>2018-07-08T11:28:42Z</time>
      </trkpt>
      <trkpt lat="49.03111" lon="1.81661">
        <ele>75.21</ele>
        <time>2018-07-08T11:29:02Z</time>
      </trkpt>
      <trkpt lat="49.03106" lon="1.81655">
        <ele>75.17</ele>
        <time>2018-07-08T11:29:14Z</time>
      </trkpt>
      <trkpt lat="49.03092" lon="1.8164">
        <ele>75.18</ele>
        <time>2018-07-08T11:29:32Z</time>
      </trkpt>
      <trkpt lat="49.03084" lon="1.81631">
        <ele>75.26</ele>
        <time>2018-07-08T11:29:42Z</time>
      </trkpt>
      <trkpt lat="49.0307" lon="1.8162">
        <ele>75.93</ele>
        <time>2018-07-08T11:29:59Z</time>
      </trkpt>
      <trkpt lat="49.03058" lon="1.81606">
        <ele>76.39</ele>
        <time>2018-07-08T11:30:12Z</time>
      </trkpt>
      <trkpt lat="49.03046" lon="1.81595">
        <ele>77.38</ele>
        <time>2018-07-08T11:30:26Z</time>
      </trkpt>
      <trkpt lat="49.03042" lon="1.81583">
        <ele>76.96</ele>
        <time>2018-07-08T11:30:41Z</time>
      </trkpt>
      <trkpt lat="49.03034" lon="1.81586">
        <ele>77.8</ele>
        <time>2018-07-08T11:31:02Z</time>
      </trkpt>
      <trkpt lat="49.03025" lon="1.81588">
        <ele>78.88</ele>
        <time>2018-07-08T11:31:11Z</time>
      </trkpt>
      <trkpt lat="49.03011" lon="1.816">
        <ele>80.24</ele>
        <time>2018-07-08T11:31:26Z</time>
      </trkpt>
      <trkpt lat="49.03008" lon="1.81607">
        <ele>80.37</ele>
        <time>2018-07-08T11:31:33Z</time>
      </trkpt>
      <trkpt lat="49.03009" lon="1.81615">
        <ele>79.59</ele>
        <time>2018-07-08T11:31:48Z</time>
      </trkpt>
      <trkpt lat="49.03004" lon="1.81619">
        <ele>79.33</ele>
        <time>2018-07-08T11:32:03Z</time>
      </trkpt>
      <trkpt lat="49.02995" lon="1.81651">
        <ele>79.05</ele>
        <time>2018-07-08T11:32:26Z</time>
      </trkpt>
      <trkpt lat="49.02992" lon="1.81672">
        <ele>78.96</ele>
        <time>2018-07-08T11:32:49Z</time>
      </trkpt>
      <trkpt lat="49.0298" lon="1.81683">
        <ele>79.3</ele>
        <time>2018-07-08T11:33:08Z</time>
      </trkpt>
      <trkpt lat="49.02976" lon="1.8169">
        <ele>79.5</ele>
        <time>2018-07-08T11:33:29Z</time>
      </trkpt>
      <trkpt lat="49.02979" lon="1.81695">
        <ele>78.86</ele>
        <time>2018-07-08T11:33:49Z</time>
      </trkpt>
      <trkpt lat="49.02982" lon="1.81689">
        <ele>78.14</ele>
        <time>2018-07-08T11:34:02Z</time>
      </trkpt>
      <trkpt lat="49.02977" lon="1.81688">
        <ele>79.31</ele>
        <time>2018-07-08T11:34:17Z</time>
      </trkpt>
      <trkpt lat="49.02976" lon="1.81683">
        <ele>76.32</ele>
        <time>2018-07-08T11:34:39Z</time>
      </trkpt>
      <trkpt lat="49.02976" lon="1.81683">
        <ele>80.92</ele>
        <time>2018-07-08T11:34:40Z</time>
      </trkpt>
      <trkpt lat="49.02979" lon="1.81683">
        <ele>78.82</ele>
        <time>2018-07-08T11:34:59Z</time>
      </trkpt>
      <trkpt lat="49.02981" lon="1.81695">
        <ele>77.75</ele>
        <time>2018-07-08T11:35:19Z</time>
      </trkpt>
      <trkpt lat="49.02975" lon="1.81722">
        <ele>77.14</ele>
        <time>2018-07-08T11:35:38Z</time>
      </trkpt>
      <trkpt lat="49.02978" lon="1.81725">
        <ele>77.36</ele>
        <time>2018-07-08T11:35:51Z</time>
      </trkpt>
      <trkpt lat="49.02975" lon="1.8174">
        <ele>76.21</ele>
        <time>2018-07-08T11:36:13Z</time>
      </trkpt>
      <trkpt lat="49.02971" lon="1.81754">
        <ele>75.98</ele>
        <time>2018-07-08T11:36:30Z</time>
      </trkpt>
      <trkpt lat="49.02971" lon="1.81761">
        <ele>75.22</ele>
        <time>2018-07-08T11:36:35Z</time>
      </trkpt>
      <trkpt lat="49.02967" lon="1.81778">
        <ele>74.78</ele>
        <time>2018-07-08T11:36:42Z</time>
      </trkpt>
      <trkpt lat="49.02966" lon="1.81793">
        <ele>74.12</ele>
        <time>2018-07-08T11:36:50Z</time>
      </trkpt>
      <trkpt lat="49.02966" lon="1.818">
        <ele>74.05</ele>
        <time>2018-07-08T11:36:54Z</time>
      </trkpt>
      <trkpt lat="49.02966" lon="1.81813">
        <ele>73.28</ele>
        <time>2018-07-08T11:37:01Z</time>
      </trkpt>
      <trkpt lat="49.02966" lon="1.81818">
        <ele>72.49</ele>
        <time>2018-07-08T11:37:04Z</time>
      </trkpt>
      <trkpt lat="49.02968" lon="1.81832">
        <ele>71.93</ele>
        <time>2018-07-08T11:37:11Z</time>
      </trkpt>
      <trkpt lat="49.02967" lon="1.8184">
        <ele>71.62</ele>
        <time>2018-07-08T11:37:15Z</time>
      </trkpt>
      <trkpt lat="49.02975" lon="1.81869">
        <ele>69.91</ele>
        <time>2018-07-08T11:37:32Z</time>
      </trkpt>
      <trkpt lat="49.02991" lon="1.81902">
        <ele>69.21</ele>
        <time>2018-07-08T11:37:54Z</time>
      </trkpt>
      <trkpt lat="49.02993" lon="1.81935">
        <ele>68.57</ele>
        <time>2018-07-08T11:38:13Z</time>
      </trkpt>
      <trkpt lat="49.02987" lon="1.8196">
        <ele>68.74</ele>
        <time>2018-07-08T11:38:30Z</time>
      </trkpt>
      <trkpt lat="49.02975" lon="1.81958">
        <ele>68.64</ele>
        <time>2018-07-08T11:38:45Z</time>
      </trkpt>
      <trkpt lat="49.02972" lon="1.81965">
        <ele>68.98</ele>
        <time>2018-07-08T11:39:02Z</time>
      </trkpt>
      <trkpt lat="49.02966" lon="1.81958">
        <ele>69.18</ele>
        <time>2018-07-08T11:39:20Z</time>
      </trkpt>
      <trkpt lat="49.02947" lon="1.81952">
        <ele>70.35</ele>
        <time>2018-07-08T11:39:41Z</time>
      </trkpt>
      <trkpt lat="49.02942" lon="1.8195">
        <ele>70.55</ele>
        <time>2018-07-08T11:39:44Z</time>
      </trkpt>
      <trkpt lat="49.02921" lon="1.8195">
        <ele>71.43</ele>
        <time>2018-07-08T11:40:00Z</time>
      </trkpt>
      <trkpt lat="49.02894" lon="1.81941">
        <ele>73.12</ele>
        <time>2018-07-08T11:40:24Z</time>
      </trkpt>
      <trkpt lat="49.02882" lon="1.8194">
        <ele>73.68</ele>
        <time>2018-07-08T11:40:39Z</time>
      </trkpt>
      <trkpt lat="49.02877" lon="1.81938">
        <ele>73.64</ele>
        <time>2018-07-08T11:41:05Z</time>
      </trkpt>
      <trkpt lat="49.02875" lon="1.81938">
        <ele>73.84</ele>
        <time>2018-07-08T11:41:06Z</time>
      </trkpt>
      <trkpt lat="49.02856" lon="1.81929">
        <ele>73.89</ele>
        <time>2018-07-08T11:41:22Z</time>
      </trkpt>
      <trkpt lat="49.02838" lon="1.81929">
        <ele>73.94</ele>
        <time>2018-07-08T11:41:39Z</time>
      </trkpt>
      <trkpt lat="49.02822" lon="1.81928">
        <ele>73.85</ele>
        <time>2018-07-08T11:41:55Z</time>
      </trkpt>
      <trkpt lat="49.02804" lon="1.81928">
        <ele>73.9</ele>
        <time>2018-07-08T11:42:09Z</time>
      </trkpt>
      <trkpt lat="49.02786" lon="1.81928">
        <ele>74.26</ele>
        <time>2018-07-08T11:42:24Z</time>
      </trkpt>
      <trkpt lat="49.02774" lon="1.81928">
        <ele>73.95</ele>
        <time>2018-07-08T11:42:34Z</time>
      </trkpt>
      <trkpt lat="49.02753" lon="1.81924">
        <ele>73.88</ele>
        <time>2018-07-08T11:42:52Z</time>
      </trkpt>
      <trkpt lat="49.02739" lon="1.8192">
        <ele>74.18</ele>
        <time>2018-07-08T11:43:06Z</time>
      </trkpt>
      <trkpt lat="49.02716" lon="1.81919">
        <ele>74</ele>
        <time>2018-07-08T11:43:26Z</time>
      </trkpt>
      <trkpt lat="49.02712" lon="1.81917">
        <ele>73.75</ele>
        <time>2018-07-08T11:43:29Z</time>
      </trkpt>
      <trkpt lat="49.02697" lon="1.81914">
        <ele>74.38</ele>
        <time>2018-07-08T11:43:43Z</time>
      </trkpt>
      <trkpt lat="49.02693" lon="1.81913">
        <ele>74.21</ele>
        <time>2018-07-08T11:43:58Z</time>
      </trkpt>
      <trkpt lat="49.02695" lon="1.81915">
        <ele>74.52</ele>
        <time>2018-07-08T11:44:19Z</time>
      </trkpt>
      <trkpt lat="49.02695" lon="1.81915">
        <ele>74.25</ele>
        <time>2018-07-08T11:44:20Z</time>
      </trkpt>
      <trkpt lat="49.02692" lon="1.81917">
        <ele>74.28</ele>
        <time>2018-07-08T11:44:24Z</time>
      </trkpt>
      <trkpt lat="49.02668" lon="1.81924">
        <ele>74.3</ele>
        <time>2018-07-08T11:44:44Z</time>
      </trkpt>
      <trkpt lat="49.02659" lon="1.81929">
        <ele>74.79</ele>
        <time>2018-07-08T11:44:56Z</time>
      </trkpt>
      <trkpt lat="49.02656" lon="1.81931">
        <ele>75.04</ele>
        <time>2018-07-08T11:45:17Z</time>
      </trkpt>
      <trkpt lat="49.02654" lon="1.81939">
        <ele>75.12</ele>
        <time>2018-07-08T11:45:29Z</time>
      </trkpt>
      <trkpt lat="49.02647" lon="1.81945">
        <ele>75.08</ele>
        <time>2018-07-08T11:45:39Z</time>
      </trkpt>
      <trkpt lat="49.02641" lon="1.81952">
        <ele>74.68</ele>
        <time>2018-07-08T11:45:45Z</time>
      </trkpt>
      <trkpt lat="49.02629" lon="1.8196">
        <ele>75.35</ele>
        <time>2018-07-08T11:46:02Z</time>
      </trkpt>
      <trkpt lat="49.02623" lon="1.81978">
        <ele>75.97</ele>
        <time>2018-07-08T11:46:24Z</time>
      </trkpt>
      <trkpt lat="49.02621" lon="1.82003">
        <ele>77.3</ele>
        <time>2018-07-08T11:46:39Z</time>
      </trkpt>
      <trkpt lat="49.02621" lon="1.82031">
        <ele>78.45</ele>
        <time>2018-07-08T11:46:55Z</time>
      </trkpt>
      <trkpt lat="49.0262" lon="1.82043">
        <ele>78.87</ele>
        <time>2018-07-08T11:47:19Z</time>
      </trkpt>
      <trkpt lat="49.02624" lon="1.82057">
        <ele>79.97</ele>
        <time>2018-07-08T11:47:33Z</time>
      </trkpt>
      <trkpt lat="49.02625" lon="1.82068">
        <ele>81.42</ele>
        <time>2018-07-08T11:47:42Z</time>
      </trkpt>
      <trkpt lat="49.02628" lon="1.82085">
        <ele>82.76</ele>
        <time>2018-07-08T11:47:57Z</time>
      </trkpt>
      <trkpt lat="49.02633" lon="1.82123">
        <ele>85.12</ele>
        <time>2018-07-08T11:48:20Z</time>
      </trkpt>
      <trkpt lat="49.02636" lon="1.82147">
        <ele>86.85</ele>
        <time>2018-07-08T11:48:35Z</time>
      </trkpt>
      <trkpt lat="49.02639" lon="1.82169">
        <ele>88.02</ele>
        <time>2018-07-08T11:48:49Z</time>
      </trkpt>
      <trkpt lat="49.02639" lon="1.82174">
        <ele>88.27</ele>
        <time>2018-07-08T11:48:52Z</time>
      </trkpt>
      <trkpt lat="49.02642" lon="1.82198">
        <ele>88.84</ele>
        <time>2018-07-08T11:49:06Z</time>
      </trkpt>
      <trkpt lat="49.02642" lon="1.82223">
        <ele>91.16</ele>
        <time>2018-07-08T11:49:23Z</time>
      </trkpt>
      <trkpt lat="49.0264" lon="1.82247">
        <ele>92.67</ele>
        <time>2018-07-08T11:49:37Z</time>
      </trkpt>
      <trkpt lat="49.02639" lon="1.82272">
        <ele>94.57</ele>
        <time>2018-07-08T11:49:55Z</time>
      </trkpt>
      <trkpt lat="49.0264" lon="1.82292">
        <ele>96.46</ele>
        <time>2018-07-08T11:50:10Z</time>
      </trkpt>
      <trkpt lat="49.02639" lon="1.82298">
        <ele>96.74</ele>
        <time>2018-07-08T11:50:13Z</time>
      </trkpt>
      <trkpt lat="49.02634" lon="1.82314">
        <ele>96.91</ele>
        <time>2018-07-08T11:50:22Z</time>
      </trkpt>
      <trkpt lat="49.02625" lon="1.8234">
        <ele>98.8</ele>
        <time>2018-07-08T11:50:39Z</time>
      </trkpt>
      <trkpt lat="49.02619" lon="1.82361">
        <ele>99.99</ele>
        <time>2018-07-08T11:50:53Z</time>
      </trkpt>
      <trkpt lat="49.02612" lon="1.82386">
        <ele>100.73</ele>
        <time>2018-07-08T11:51:10Z</time>
      </trkpt>
      <trkpt lat="49.02605" lon="1.82415">
        <ele>101.69</ele>
        <time>2018-07-08T11:51:26Z</time>
      </trkpt>
      <trkpt lat="49.02602" lon="1.82431">
        <ele>101.81</ele>
        <time>2018-07-08T11:51:35Z</time>
      </trkpt>
      <trkpt lat="49.02601" lon="1.82438">
        <ele>102.08</ele>
        <time>2018-07-08T11:51:39Z</time>
      </trkpt>
      <trkpt lat="49.02599" lon="1.82442">
        <ele>102.3</ele>
        <time>2018-07-08T11:51:42Z</time>
      </trkpt>
      <trkpt lat="49.02593" lon="1.82464">
        <ele>102.57</ele>
        <time>2018-07-08T11:51:57Z</time>
      </trkpt>
      <trkpt lat="49.02593" lon="1.82466">
        <ele>102.95</ele>
        <time>2018-07-08T11:51:58Z</time>
      </trkpt>
      <trkpt lat="49.0259" lon="1.82473">
        <ele>103.36</ele>
        <time>2018-07-08T11:52:03Z</time>
      </trkpt>
      <trkpt lat="49.02581" lon="1.82499">
        <ele>103.23</ele>
        <time>2018-07-08T11:52:19Z</time>
      </trkpt>
      <trkpt lat="49.02571" lon="1.82522">
        <ele>104.23</ele>
        <time>2018-07-08T11:52:35Z</time>
      </trkpt>
      <trkpt lat="49.02562" lon="1.82543">
        <ele>105.12</ele>
        <time>2018-07-08T11:52:50Z</time>
      </trkpt>
      <trkpt lat="49.02558" lon="1.8255">
        <ele>105.12</ele>
        <time>2018-07-08T11:52:55Z</time>
      </trkpt>
      <trkpt lat="49.02548" lon="1.82573">
        <ele>105.46</ele>
        <time>2018-07-08T11:53:11Z</time>
      </trkpt>
      <trkpt lat="49.0254" lon="1.82593">
        <ele>104.82</ele>
        <time>2018-07-08T11:53:25Z</time>
      </trkpt>
      <trkpt lat="49.02531" lon="1.82614">
        <ele>104.98</ele>
        <time>2018-07-08T11:53:39Z</time>
      </trkpt>
      <trkpt lat="49.02527" lon="1.82625">
        <ele>105.45</ele>
        <time>2018-07-08T11:53:46Z</time>
      </trkpt>
      <trkpt lat="49.02524" lon="1.82634">
        <ele>105.2</ele>
        <time>2018-07-08T11:53:52Z</time>
      </trkpt>
      <trkpt lat="49.02517" lon="1.82652">
        <ele>105.47</ele>
        <time>2018-07-08T11:54:05Z</time>
      </trkpt>
      <trkpt lat="49.02509" lon="1.82671">
        <ele>105.55</ele>
        <time>2018-07-08T11:54:19Z</time>
      </trkpt>
      <trkpt lat="49.02499" lon="1.82697">
        <ele>105.79</ele>
        <time>2018-07-08T11:54:37Z</time>
      </trkpt>
      <trkpt lat="49.02489" lon="1.82721">
        <ele>105.89</ele>
        <time>2018-07-08T11:54:53Z</time>
      </trkpt>
      <trkpt lat="49.02478" lon="1.82747">
        <ele>105.56</ele>
        <time>2018-07-08T11:55:10Z</time>
      </trkpt>
      <trkpt lat="49.02471" lon="1.82767">
        <ele>105.12</ele>
        <time>2018-07-08T11:55:23Z</time>
      </trkpt>
      <trkpt lat="49.02464" lon="1.82785">
        <ele>104.57</ele>
        <time>2018-07-08T11:55:35Z</time>
      </trkpt>
      <trkpt lat="49.02453" lon="1.82811">
        <ele>104.53</ele>
        <time>2018-07-08T11:55:52Z</time>
      </trkpt>
      <trkpt lat="49.02443" lon="1.82837">
        <ele>103.64</ele>
        <time>2018-07-08T11:56:07Z</time>
      </trkpt>
      <trkpt lat="49.0244" lon="1.82847">
        <ele>103.92</ele>
        <time>2018-07-08T11:56:14Z</time>
      </trkpt>
      <trkpt lat="49.02439" lon="1.82852">
        <ele>103.54</ele>
        <time>2018-07-08T11:56:17Z</time>
      </trkpt>
      <trkpt lat="49.02438" lon="1.82858">
        <ele>103.61</ele>
        <time>2018-07-08T11:56:21Z</time>
      </trkpt>
      <trkpt lat="49.02433" lon="1.82882">
        <ele>102.95</ele>
        <time>2018-07-08T11:56:37Z</time>
      </trkpt>
      <trkpt lat="49.02425" lon="1.82892">
        <ele>102.75</ele>
        <time>2018-07-08T11:56:56Z</time>
      </trkpt>
      <trkpt lat="49.02425" lon="1.82892">
        <ele>103.1</ele>
        <time>2018-07-08T11:57:25Z</time>
      </trkpt>
      <trkpt lat="49.02424" lon="1.8289">
        <ele>103.33</ele>
        <time>2018-07-08T11:57:44Z</time>
      </trkpt>
      <trkpt lat="49.02423" lon="1.82888">
        <ele>104.29</ele>
        <time>2018-07-08T11:58:08Z</time>
      </trkpt>
      <trkpt lat="49.02423" lon="1.82892">
        <ele>103.61</ele>
        <time>2018-07-08T11:58:30Z</time>
      </trkpt>
      <trkpt lat="49.02431" lon="1.8289">
        <ele>103.43</ele>
        <time>2018-07-08T11:58:46Z</time>
      </trkpt>
      <trkpt lat="49.02433" lon="1.82893">
        <ele>103.85</ele>
        <time>2018-07-08T11:59:18Z</time>
      </trkpt>
      <trkpt lat="49.02422" lon="1.82888">
        <ele>104.52</ele>
        <time>2018-07-08T11:59:41Z</time>
      </trkpt>
      <trkpt lat="49.02409" lon="1.82883">
        <ele>106.29</ele>
        <time>2018-07-08T12:00:04Z</time>
      </trkpt>
      <trkpt lat="49.02385" lon="1.82879">
        <ele>107.55</ele>
        <time>2018-07-08T12:00:29Z</time>
      </trkpt>
      <trkpt lat="49.02371" lon="1.82868">
        <ele>107.97</ele>
        <time>2018-07-08T12:00:43Z</time>
      </trkpt>
      <trkpt lat="49.02359" lon="1.8287">
        <ele>107.97</ele>
        <time>2018-07-08T12:01:01Z</time>
      </trkpt>
      <trkpt lat="49.02347" lon="1.82874">
        <ele>107.84</ele>
        <time>2018-07-08T12:01:18Z</time>
      </trkpt>
      <trkpt lat="49.02338" lon="1.82875">
        <ele>107.26</ele>
        <time>2018-07-08T12:01:38Z</time>
      </trkpt>
      <trkpt lat="49.02335" lon="1.82876">
        <ele>107.9</ele>
        <time>2018-07-08T12:01:41Z</time>
      </trkpt>
      <trkpt lat="49.02324" lon="1.82877">
        <ele>108</ele>
        <time>2018-07-08T12:01:51Z</time>
      </trkpt>
      <trkpt lat="49.02309" lon="1.82883">
        <ele>107.9</ele>
        <time>2018-07-08T12:02:06Z</time>
      </trkpt>
      <trkpt lat="49.023" lon="1.82884">
        <ele>108.18</ele>
        <time>2018-07-08T12:02:15Z</time>
      </trkpt>
      <trkpt lat="49.02284" lon="1.82877">
        <ele>108.61</ele>
        <time>2018-07-08T12:02:30Z</time>
      </trkpt>
      <trkpt lat="49.02267" lon="1.82872">
        <ele>108.48</ele>
        <time>2018-07-08T12:02:46Z</time>
      </trkpt>
      <trkpt lat="49.02243" lon="1.82858">
        <ele>109.32</ele>
        <time>2018-07-08T12:03:05Z</time>
      </trkpt>
      <trkpt lat="49.02232" lon="1.82853">
        <ele>109.75</ele>
        <time>2018-07-08T12:03:21Z</time>
      </trkpt>
      <trkpt lat="49.02212" lon="1.82852">
        <ele>110.04</ele>
        <time>2018-07-08T12:03:37Z</time>
      </trkpt>
      <trkpt lat="49.02184" lon="1.82853">
        <ele>110.58</ele>
        <time>2018-07-08T12:04:01Z</time>
      </trkpt>
      <trkpt lat="49.02161" lon="1.82851">
        <ele>111.16</ele>
        <time>2018-07-08T12:04:22Z</time>
      </trkpt>
      <trkpt lat="49.0214" lon="1.82844">
        <ele>112.33</ele>
        <time>2018-07-08T12:04:43Z</time>
      </trkpt>
      <trkpt lat="49.02116" lon="1.82832">
        <ele>113.43</ele>
        <time>2018-07-08T12:05:07Z</time>
      </trkpt>
      <trkpt lat="49.02097" lon="1.8282">
        <ele>114.18</ele>
        <time>2018-07-08T12:05:26Z</time>
      </trkpt>
      <trkpt lat="49.02076" lon="1.82806">
        <ele>115.62</ele>
        <time>2018-07-08T12:05:48Z</time>
      </trkpt>
      <trkpt lat="49.02057" lon="1.82793">
        <ele>117.35</ele>
        <time>2018-07-08T12:06:08Z</time>
      </trkpt>
      <trkpt lat="49.02043" lon="1.82786">
        <ele>118.16</ele>
        <time>2018-07-08T12:06:24Z</time>
      </trkpt>
      <trkpt lat="49.02024" lon="1.82774">
        <ele>118.46</ele>
        <time>2018-07-08T12:06:44Z</time>
      </trkpt>
      <trkpt lat="49.02" lon="1.82762">
        <ele>119.79</ele>
        <time>2018-07-08T12:07:07Z</time>
      </trkpt>
      <trkpt lat="49.01994" lon="1.8276">
        <ele>120.64</ele>
        <time>2018-07-08T12:07:13Z</time>
      </trkpt>
      <trkpt lat="49.01987" lon="1.82757">
        <ele>120.44</ele>
        <time>2018-07-08T12:07:21Z</time>
      </trkpt>
      <trkpt lat="49.01971" lon="1.82751">
        <ele>121.95</ele>
        <time>2018-07-08T12:07:37Z</time>
      </trkpt>
      <trkpt lat="49.0197" lon="1.82751">
        <ele>122.45</ele>
        <time>2018-07-08T12:07:38Z</time>
      </trkpt>
      <trkpt lat="49.01956" lon="1.82746">
        <ele>122.74</ele>
        <time>2018-07-08T12:07:52Z</time>
      </trkpt>
      <trkpt lat="49.01944" lon="1.82742">
        <ele>123.73</ele>
        <time>2018-07-08T12:08:14Z</time>
      </trkpt>
      <trkpt lat="49.01937" lon="1.8274">
        <ele>124.02</ele>
        <time>2018-07-08T12:08:31Z</time>
      </trkpt>
      <trkpt lat="49.01934" lon="1.82748">
        <ele>123.19</ele>
        <time>2018-07-08T12:08:50Z</time>
      </trkpt>
      <trkpt lat="49.01933" lon="1.82757">
        <ele>122.55</ele>
        <time>2018-07-08T12:09:06Z</time>
      </trkpt>
      <trkpt lat="49.0194" lon="1.82757">
        <ele>122.62</ele>
        <time>2018-07-08T12:09:31Z</time>
      </trkpt>
      <trkpt lat="49.01939" lon="1.82755">
        <ele>122.53</ele>
        <time>2018-07-08T12:09:56Z</time>
      </trkpt>
      <trkpt lat="49.01937" lon="1.82752">
        <ele>122.89</ele>
        <time>2018-07-08T12:10:27Z</time>
      </trkpt>
      <trkpt lat="49.01939" lon="1.8275">
        <ele>123.32</ele>
        <time>2018-07-08T12:10:49Z</time>
      </trkpt>
      <trkpt lat="49.01937" lon="1.82755">
        <ele>123.77</ele>
        <time>2018-07-08T12:11:08Z</time>
      </trkpt>
      <trkpt lat="49.01933" lon="1.82759">
        <ele>123.55</ele>
        <time>2018-07-08T12:11:30Z</time>
      </trkpt>
      <trkpt lat="49.01937" lon="1.82757">
        <ele>122.83</ele>
        <time>2018-07-08T12:11:54Z</time>
      </trkpt>
      <trkpt lat="49.0193" lon="1.82753">
        <ele>123.55</ele>
        <time>2018-07-08T12:12:15Z</time>
      </trkpt>
      <trkpt lat="49.01923" lon="1.82742">
        <ele>124.14</ele>
        <time>2018-07-08T12:12:28Z</time>
      </trkpt>
      <trkpt lat="49.01919" lon="1.82726">
        <ele>125.86</ele>
        <time>2018-07-08T12:12:44Z</time>
      </trkpt>
      <trkpt lat="49.01916" lon="1.82723">
        <ele>125.86</ele>
        <time>2018-07-08T12:12:47Z</time>
      </trkpt>
      <trkpt lat="49.01906" lon="1.82708">
        <ele>126.52</ele>
        <time>2018-07-08T12:13:02Z</time>
      </trkpt>
      <trkpt lat="49.01904" lon="1.82701">
        <ele>126.69</ele>
        <time>2018-07-08T12:13:07Z</time>
      </trkpt>
      <trkpt lat="49.01903" lon="1.82677">
        <ele>127.73</ele>
        <time>2018-07-08T12:13:24Z</time>
      </trkpt>
      <trkpt lat="49.01901" lon="1.82661">
        <ele>128.52</ele>
        <time>2018-07-08T12:13:38Z</time>
      </trkpt>
      <trkpt lat="49.01902" lon="1.82657">
        <ele>128.8</ele>
        <time>2018-07-08T12:13:56Z</time>
      </trkpt>
      <trkpt lat="49.019" lon="1.82651">
        <ele>129.15</ele>
        <time>2018-07-08T12:14:15Z</time>
      </trkpt>
      <trkpt lat="49.019" lon="1.8265">
        <ele>128.88</ele>
        <time>2018-07-08T12:14:38Z</time>
      </trkpt>
      <trkpt lat="49.01902" lon="1.82653">
        <ele>128.47</ele>
        <time>2018-07-08T12:14:54Z</time>
      </trkpt>
      <trkpt lat="49.01905" lon="1.82653">
        <ele>127.76</ele>
        <time>2018-07-08T12:15:16Z</time>
      </trkpt>
      <trkpt lat="49.01901" lon="1.82652">
        <ele>128.47</ele>
        <time>2018-07-08T12:15:32Z</time>
      </trkpt>
      <trkpt lat="49.01901" lon="1.82646">
        <ele>129.18</ele>
        <time>2018-07-08T12:15:46Z</time>
      </trkpt>
      <trkpt lat="49.019" lon="1.82648">
        <ele>128.83</ele>
        <time>2018-07-08T12:16:01Z</time>
      </trkpt>
      <trkpt lat="49.01892" lon="1.8266">
        <ele>128.88</ele>
        <time>2018-07-08T12:16:15Z</time>
      </trkpt>
      <trkpt lat="49.01887" lon="1.82655">
        <ele>129.48</ele>
        <time>2018-07-08T12:16:24Z</time>
      </trkpt>
      <trkpt lat="49.01877" lon="1.82643">
        <ele>130.31</ele>
        <time>2018-07-08T12:16:38Z</time>
      </trkpt>
      <trkpt lat="49.01866" lon="1.82638">
        <ele>131.31</ele>
        <time>2018-07-08T12:16:52Z</time>
      </trkpt>
      <trkpt lat="49.01862" lon="1.82633">
        <ele>131.19</ele>
        <time>2018-07-08T12:17:11Z</time>
      </trkpt>
      <trkpt lat="49.0185" lon="1.82622">
        <ele>134.2</ele>
        <time>2018-07-08T12:17:31Z</time>
      </trkpt>
      <trkpt lat="49.01836" lon="1.82607">
        <ele>136.77</ele>
        <time>2018-07-08T12:17:50Z</time>
      </trkpt>
      <trkpt lat="49.01831" lon="1.82609">
        <ele>137.07</ele>
        <time>2018-07-08T12:17:56Z</time>
      </trkpt>
      <trkpt lat="49.01818" lon="1.82626">
        <ele>136.71</ele>
        <time>2018-07-08T12:18:14Z</time>
      </trkpt>
      <trkpt lat="49.01815" lon="1.82631">
        <ele>136.67</ele>
        <time>2018-07-08T12:18:18Z</time>
      </trkpt>
      <trkpt lat="49.018" lon="1.82654">
        <ele>135.3</ele>
        <time>2018-07-08T12:18:39Z</time>
      </trkpt>
      <trkpt lat="49.01798" lon="1.82654">
        <ele>135.14</ele>
        <time>2018-07-08T12:18:41Z</time>
      </trkpt>
      <trkpt lat="49.01786" lon="1.82666">
        <ele>134.76</ele>
        <time>2018-07-08T12:18:50Z</time>
      </trkpt>
      <trkpt lat="49.01771" lon="1.82681">
        <ele>134.84</ele>
        <time>2018-07-08T12:19:08Z</time>
      </trkpt>
      <trkpt lat="49.01757" lon="1.82687">
        <ele>134.2</ele>
        <time>2018-07-08T12:19:29Z</time>
      </trkpt>
      <trkpt lat="49.01739" lon="1.82695">
        <ele>134.92</ele>
        <time>2018-07-08T12:19:46Z</time>
      </trkpt>
      <trkpt lat="49.01726" lon="1.82699">
        <ele>134.71</ele>
        <time>2018-07-08T12:20:00Z</time>
      </trkpt>
      <trkpt lat="49.01706" lon="1.82707">
        <ele>134.2</ele>
        <time>2018-07-08T12:20:20Z</time>
      </trkpt>
      <trkpt lat="49.01689" lon="1.8271">
        <ele>134.64</ele>
        <time>2018-07-08T12:20:37Z</time>
      </trkpt>
      <trkpt lat="49.01668" lon="1.82727">
        <ele>134.84</ele>
        <time>2018-07-08T12:20:57Z</time>
      </trkpt>
      <trkpt lat="49.01648" lon="1.82753">
        <ele>134.35</ele>
        <time>2018-07-08T12:21:20Z</time>
      </trkpt>
      <trkpt lat="49.01638" lon="1.82779">
        <ele>135.05</ele>
        <time>2018-07-08T12:21:41Z</time>
      </trkpt>
      <trkpt lat="49.01632" lon="1.82806">
        <ele>135.41</ele>
        <time>2018-07-08T12:22:00Z</time>
      </trkpt>
      <trkpt lat="49.01618" lon="1.82831">
        <ele>136.8</ele>
        <time>2018-07-08T12:22:20Z</time>
      </trkpt>
      <trkpt lat="49.01599" lon="1.82848">
        <ele>137.89</ele>
        <time>2018-07-08T12:22:39Z</time>
      </trkpt>
      <trkpt lat="49.01584" lon="1.82868">
        <ele>139.35</ele>
        <time>2018-07-08T12:22:57Z</time>
      </trkpt>
      <trkpt lat="49.01582" lon="1.82871">
        <ele>139.55</ele>
        <time>2018-07-08T12:22:59Z</time>
      </trkpt>
      <trkpt lat="49.01567" lon="1.82884">
        <ele>140.41</ele>
        <time>2018-07-08T12:23:14Z</time>
      </trkpt>
      <trkpt lat="49.01556" lon="1.82892">
        <ele>140.88</ele>
        <time>2018-07-08T12:23:25Z</time>
      </trkpt>
      <trkpt lat="49.01539" lon="1.82915">
        <ele>141.51</ele>
        <time>2018-07-08T12:23:44Z</time>
      </trkpt>
      <trkpt lat="49.01519" lon="1.82926">
        <ele>141.86</ele>
        <time>2018-07-08T12:24:04Z</time>
      </trkpt>
      <trkpt lat="49.01517" lon="1.82928">
        <ele>142.11</ele>
        <time>2018-07-08T12:24:08Z</time>
      </trkpt>
      <trkpt lat="49.01505" lon="1.8294">
        <ele>143.04</ele>
        <time>2018-07-08T12:24:21Z</time>
      </trkpt>
      <trkpt lat="49.01489" lon="1.82953">
        <ele>142.77</ele>
        <time>2018-07-08T12:24:35Z</time>
      </trkpt>
      <trkpt lat="49.01473" lon="1.8297">
        <ele>143.15</ele>
        <time>2018-07-08T12:24:50Z</time>
      </trkpt>
      <trkpt lat="49.01445" lon="1.82986">
        <ele>143.15</ele>
        <time>2018-07-08T12:25:11Z</time>
      </trkpt>
      <trkpt lat="49.01421" lon="1.82999">
        <ele>143.82</ele>
        <time>2018-07-08T12:25:32Z</time>
      </trkpt>
      <trkpt lat="49.01415" lon="1.83002">
        <ele>143.76</ele>
        <time>2018-07-08T12:25:41Z</time>
      </trkpt>
      <trkpt lat="49.01409" lon="1.83008">
        <ele>144.29</ele>
        <time>2018-07-08T12:25:47Z</time>
      </trkpt>
      <trkpt lat="49.01398" lon="1.83016">
        <ele>144.47</ele>
        <time>2018-07-08T12:25:56Z</time>
      </trkpt>
      <trkpt lat="49.01383" lon="1.83027">
        <ele>145.61</ele>
        <time>2018-07-08T12:26:11Z</time>
      </trkpt>
      <trkpt lat="49.01362" lon="1.83041">
        <ele>147.56</ele>
        <time>2018-07-08T12:26:32Z</time>
      </trkpt>
      <trkpt lat="49.01343" lon="1.83056">
        <ele>148.92</ele>
        <time>2018-07-08T12:26:51Z</time>
      </trkpt>
      <trkpt lat="49.01341" lon="1.83058">
        <ele>149.67</ele>
        <time>2018-07-08T12:26:54Z</time>
      </trkpt>
      <trkpt lat="49.0132" lon="1.83072">
        <ele>151.04</ele>
        <time>2018-07-08T12:27:15Z</time>
      </trkpt>
      <trkpt lat="49.01306" lon="1.83081">
        <ele>152.08</ele>
        <time>2018-07-08T12:27:31Z</time>
      </trkpt>
      <trkpt lat="49.01297" lon="1.83084">
        <ele>153.08</ele>
        <time>2018-07-08T12:27:40Z</time>
      </trkpt>
      <trkpt lat="49.01284" lon="1.83089">
        <ele>154.47</ele>
        <time>2018-07-08T12:27:55Z</time>
      </trkpt>
      <trkpt lat="49.01281" lon="1.8309">
        <ele>154.94</ele>
        <time>2018-07-08T12:28:00Z</time>
      </trkpt>
      <trkpt lat="49.01268" lon="1.83095">
        <ele>155.91</ele>
        <time>2018-07-08T12:28:14Z</time>
      </trkpt>
      <trkpt lat="49.01252" lon="1.83106">
        <ele>156.85</ele>
        <time>2018-07-08T12:28:29Z</time>
      </trkpt>
      <trkpt lat="49.01239" lon="1.83117">
        <ele>158.56</ele>
        <time>2018-07-08T12:28:43Z</time>
      </trkpt>
      <trkpt lat="49.01225" lon="1.83127">
        <ele>160.01</ele>
        <time>2018-07-08T12:28:58Z</time>
      </trkpt>
      <trkpt lat="49.01213" lon="1.83144">
        <ele>160.24</ele>
        <time>2018-07-08T12:29:15Z</time>
      </trkpt>
      <trkpt lat="49.01205" lon="1.83149">
        <ele>160.34</ele>
        <time>2018-07-08T12:29:28Z</time>
      </trkpt>
      <trkpt lat="49.01205" lon="1.8315">
        <ele>159.89</ele>
        <time>2018-07-08T12:29:43Z</time>
      </trkpt>
      <trkpt lat="49.01196" lon="1.83167">
        <ele>160.54</ele>
        <time>2018-07-08T12:29:58Z</time>
      </trkpt>
      <trkpt lat="49.01189" lon="1.83188">
        <ele>160.39</ele>
        <time>2018-07-08T12:30:14Z</time>
      </trkpt>
      <trkpt lat="49.01185" lon="1.83198">
        <ele>161.17</ele>
        <time>2018-07-08T12:30:32Z</time>
      </trkpt>
      <trkpt lat="49.0118" lon="1.83216">
        <ele>161.22</ele>
        <time>2018-07-08T12:30:54Z</time>
      </trkpt>
      <trkpt lat="49.01177" lon="1.83224">
        <ele>160.97</ele>
        <time>2018-07-08T12:30:59Z</time>
      </trkpt>
      <trkpt lat="49.01168" lon="1.83251">
        <ele>160.65</ele>
        <time>2018-07-08T12:31:16Z</time>
      </trkpt>
      <trkpt lat="49.01165" lon="1.8326">
        <ele>161.14</ele>
        <time>2018-07-08T12:31:41Z</time>
      </trkpt>
      <trkpt lat="49.01154" lon="1.83282">
        <ele>161.15</ele>
        <time>2018-07-08T12:32:00Z</time>
      </trkpt>
      <trkpt lat="49.01143" lon="1.83309">
        <ele>161.36</ele>
        <time>2018-07-08T12:32:20Z</time>
      </trkpt>
      <trkpt lat="49.01141" lon="1.83314">
        <ele>161.39</ele>
        <time>2018-07-08T12:32:23Z</time>
      </trkpt>
      <trkpt lat="49.01131" lon="1.83341">
        <ele>161.71</ele>
        <time>2018-07-08T12:32:38Z</time>
      </trkpt>
      <trkpt lat="49.01123" lon="1.83365">
        <ele>162.38</ele>
        <time>2018-07-08T12:32:56Z</time>
      </trkpt>
      <trkpt lat="49.01122" lon="1.83368">
        <ele>161.87</ele>
        <time>2018-07-08T12:33:07Z</time>
      </trkpt>
      <trkpt lat="49.0112" lon="1.83375">
        <ele>162.67</ele>
        <time>2018-07-08T12:33:11Z</time>
      </trkpt>
      <trkpt lat="49.01115" lon="1.83396">
        <ele>162.22</ele>
        <time>2018-07-08T12:33:25Z</time>
      </trkpt>
      <trkpt lat="49.01108" lon="1.83419">
        <ele>162.59</ele>
        <time>2018-07-08T12:33:41Z</time>
      </trkpt>
      <trkpt lat="49.01102" lon="1.83439">
        <ele>162.95</ele>
        <time>2018-07-08T12:33:57Z</time>
      </trkpt>
      <trkpt lat="49.01099" lon="1.83458">
        <ele>161.56</ele>
        <time>2018-07-08T12:34:11Z</time>
      </trkpt>
      <trkpt lat="49.01096" lon="1.83465">
        <ele>162.98</ele>
        <time>2018-07-08T12:34:17Z</time>
      </trkpt>
      <trkpt lat="49.01103" lon="1.83494">
        <ele>164.12</ele>
        <time>2018-07-08T12:34:39Z</time>
      </trkpt>
      <trkpt lat="49.01108" lon="1.83498">
        <ele>164.24</ele>
        <time>2018-07-08T12:34:59Z</time>
      </trkpt>
      <trkpt lat="49.01107" lon="1.835">
        <ele>163.95</ele>
        <time>2018-07-08T12:35:01Z</time>
      </trkpt>
      <trkpt lat="49.01108" lon="1.83506">
        <ele>164</ele>
        <time>2018-07-08T12:35:09Z</time>
      </trkpt>
      <trkpt lat="49.01108" lon="1.83511">
        <ele>163.88</ele>
        <time>2018-07-08T12:35:32Z</time>
      </trkpt>
      <trkpt lat="49.01108" lon="1.83498">
        <ele>163.23</ele>
        <time>2018-07-08T12:35:53Z</time>
      </trkpt>
      <trkpt lat="49.011" lon="1.83495">
        <ele>163.11</ele>
        <time>2018-07-08T12:36:21Z</time>
      </trkpt>
      <trkpt lat="49.01089" lon="1.83521">
        <ele>163.26</ele>
        <time>2018-07-08T12:36:43Z</time>
      </trkpt>
      <trkpt lat="49.01084" lon="1.83531">
        <ele>164.04</ele>
        <time>2018-07-08T12:36:50Z</time>
      </trkpt>
      <trkpt lat="49.01078" lon="1.8356">
        <ele>163.79</ele>
        <time>2018-07-08T12:37:11Z</time>
      </trkpt>
      <trkpt lat="49.01073" lon="1.83583">
        <ele>163.93</ele>
        <time>2018-07-08T12:37:28Z</time>
      </trkpt>
      <trkpt lat="49.01066" lon="1.83618">
        <ele>164.59</ele>
        <time>2018-07-08T12:37:49Z</time>
      </trkpt>
      <trkpt lat="49.01054" lon="1.83656">
        <ele>163.99</ele>
        <time>2018-07-08T12:38:12Z</time>
      </trkpt>
      <trkpt lat="49.01044" lon="1.83699">
        <ele>163.44</ele>
        <time>2018-07-08T12:38:33Z</time>
      </trkpt>
      <trkpt lat="49.01038" lon="1.83732">
        <ele>163.7</ele>
        <time>2018-07-08T12:38:56Z</time>
      </trkpt>
      <trkpt lat="49.01038" lon="1.83734">
        <ele>163.65</ele>
        <time>2018-07-08T12:38:57Z</time>
      </trkpt>
      <trkpt lat="49.01034" lon="1.83753">
        <ele>163.86</ele>
        <time>2018-07-08T12:39:12Z</time>
      </trkpt>
      <trkpt lat="49.01026" lon="1.83778">
        <ele>164.14</ele>
        <time>2018-07-08T12:39:25Z</time>
      </trkpt>
      <trkpt lat="49.01024" lon="1.83788">
        <ele>163.67</ele>
        <time>2018-07-08T12:39:29Z</time>
      </trkpt>
      <trkpt lat="49.01009" lon="1.83826">
        <ele>164.02</ele>
        <time>2018-07-08T12:39:48Z</time>
      </trkpt>
      <trkpt lat="49.01" lon="1.83849">
        <ele>164.63</ele>
        <time>2018-07-08T12:40:04Z</time>
      </trkpt>
      <trkpt lat="49.00995" lon="1.83868">
        <ele>164.47</ele>
        <time>2018-07-08T12:40:20Z</time>
      </trkpt>
      <trkpt lat="49.01002" lon="1.83879">
        <ele>164.99</ele>
        <time>2018-07-08T12:40:33Z</time>
      </trkpt>
      <trkpt lat="49.01004" lon="1.839">
        <ele>165.32</ele>
        <time>2018-07-08T12:40:50Z</time>
      </trkpt>
      <trkpt lat="49.01002" lon="1.83911">
        <ele>165.14</ele>
        <time>2018-07-08T12:41:03Z</time>
      </trkpt>
      <trkpt lat="49.00993" lon="1.83937">
        <ele>165.08</ele>
        <time>2018-07-08T12:41:24Z</time>
      </trkpt>
      <trkpt lat="49.00983" lon="1.83967">
        <ele>165.15</ele>
        <time>2018-07-08T12:41:45Z</time>
      </trkpt>
      <trkpt lat="49.00975" lon="1.84001">
        <ele>164.54</ele>
        <time>2018-07-08T12:42:09Z</time>
      </trkpt>
      <trkpt lat="49.00974" lon="1.84009">
        <ele>165.24</ele>
        <time>2018-07-08T12:42:14Z</time>
      </trkpt>
      <trkpt lat="49.0096" lon="1.84053">
        <ele>165.18</ele>
        <time>2018-07-08T12:42:33Z</time>
      </trkpt>
      <trkpt lat="49.00951" lon="1.84082">
        <ele>164.16</ele>
        <time>2018-07-08T12:42:55Z</time>
      </trkpt>
      <trkpt lat="49.00943" lon="1.84115">
        <ele>163.92</ele>
        <time>2018-07-08T12:43:17Z</time>
      </trkpt>
      <trkpt lat="49.00937" lon="1.84147">
        <ele>163.64</ele>
        <time>2018-07-08T12:43:38Z</time>
      </trkpt>
      <trkpt lat="49.00932" lon="1.84168">
        <ele>163.27</ele>
        <time>2018-07-08T12:43:59Z</time>
      </trkpt>
      <trkpt lat="49.00924" lon="1.84207">
        <ele>163.11</ele>
        <time>2018-07-08T12:44:21Z</time>
      </trkpt>
      <trkpt lat="49.00917" lon="1.84236">
        <ele>162.64</ele>
        <time>2018-07-08T12:44:42Z</time>
      </trkpt>
      <trkpt lat="49.00913" lon="1.84249">
        <ele>162.71</ele>
        <time>2018-07-08T12:44:48Z</time>
      </trkpt>
      <trkpt lat="49.00907" lon="1.84253">
        <ele>163.08</ele>
        <time>2018-07-08T12:45:11Z</time>
      </trkpt>
      <trkpt lat="49.00905" lon="1.84258">
        <ele>163.16</ele>
        <time>2018-07-08T12:45:35Z</time>
      </trkpt>
      <trkpt lat="49.00907" lon="1.84262">
        <ele>163.42</ele>
        <time>2018-07-08T12:45:58Z</time>
      </trkpt>
      <trkpt lat="49.00908" lon="1.84258">
        <ele>162.63</ele>
        <time>2018-07-08T12:46:19Z</time>
      </trkpt>
      <trkpt lat="49.00906" lon="1.84259">
        <ele>163.17</ele>
        <time>2018-07-08T12:46:41Z</time>
      </trkpt>
      <trkpt lat="49.00908" lon="1.84265">
        <ele>163.54</ele>
        <time>2018-07-08T12:47:10Z</time>
      </trkpt>
      <trkpt lat="49.00906" lon="1.84268">
        <ele>163.42</ele>
        <time>2018-07-08T12:47:16Z</time>
      </trkpt>
      <trkpt lat="49.00901" lon="1.84276">
        <ele>163.54</ele>
        <time>2018-07-08T12:47:26Z</time>
      </trkpt>
      <trkpt lat="49.00895" lon="1.84276">
        <ele>163.39</ele>
        <time>2018-07-08T12:47:56Z</time>
      </trkpt>
      <trkpt lat="49.00897" lon="1.84279">
        <ele>163.97</ele>
        <time>2018-07-08T12:48:17Z</time>
      </trkpt>
      <trkpt lat="49.0089" lon="1.84298">
        <ele>164.05</ele>
        <time>2018-07-08T12:48:37Z</time>
      </trkpt>
      <trkpt lat="49.00884" lon="1.84327">
        <ele>164</ele>
        <time>2018-07-08T12:48:56Z</time>
      </trkpt>
      <trkpt lat="49.00877" lon="1.84352">
        <ele>163.62</ele>
        <time>2018-07-08T12:49:12Z</time>
      </trkpt>
      <trkpt lat="49.00879" lon="1.84359">
        <ele>164.68</ele>
        <time>2018-07-08T12:49:30Z</time>
      </trkpt>
      <trkpt lat="49.00878" lon="1.84371">
        <ele>164.46</ele>
        <time>2018-07-08T12:49:51Z</time>
      </trkpt>
      <trkpt lat="49.00874" lon="1.84386">
        <ele>164.39</ele>
        <time>2018-07-08T12:50:13Z</time>
      </trkpt>
      <trkpt lat="49.0087" lon="1.84396">
        <ele>164.43</ele>
        <time>2018-07-08T12:50:19Z</time>
      </trkpt>
      <trkpt lat="49.00865" lon="1.8441">
        <ele>164.74</ele>
        <time>2018-07-08T12:50:29Z</time>
      </trkpt>
      <trkpt lat="49.0086" lon="1.84432">
        <ele>164.9</ele>
        <time>2018-07-08T12:50:44Z</time>
      </trkpt>
      <trkpt lat="49.00857" lon="1.84441">
        <ele>164.84</ele>
        <time>2018-07-08T12:50:50Z</time>
      </trkpt>
      <trkpt lat="49.00848" lon="1.84467">
        <ele>164.98</ele>
        <time>2018-07-08T12:51:05Z</time>
      </trkpt>
      <trkpt lat="49.0084" lon="1.8449">
        <ele>164.91</ele>
        <time>2018-07-08T12:51:20Z</time>
      </trkpt>
      <trkpt lat="49.00834" lon="1.84512">
        <ele>164.53</ele>
        <time>2018-07-08T12:51:34Z</time>
      </trkpt>
      <trkpt lat="49.00823" lon="1.84544">
        <ele>164.7</ele>
        <time>2018-07-08T12:51:54Z</time>
      </trkpt>
      <trkpt lat="49.00815" lon="1.84572">
        <ele>164.21</ele>
        <time>2018-07-08T12:52:14Z</time>
      </trkpt>
      <trkpt lat="49.00812" lon="1.84589">
        <ele>164.4</ele>
        <time>2018-07-08T12:52:32Z</time>
      </trkpt>
      <trkpt lat="49.00812" lon="1.84596">
        <ele>164.37</ele>
        <time>2018-07-08T12:52:43Z</time>
      </trkpt>
      <trkpt lat="49.00806" lon="1.84617">
        <ele>164.93</ele>
        <time>2018-07-08T12:53:00Z</time>
      </trkpt>
      <trkpt lat="49.00808" lon="1.84607">
        <ele>164.92</ele>
        <time>2018-07-08T12:53:19Z</time>
      </trkpt>
      <trkpt lat="49.00814" lon="1.84599">
        <ele>165.4</ele>
        <time>2018-07-08T12:53:45Z</time>
      </trkpt>
      <trkpt lat="49.00804" lon="1.84621">
        <ele>165.47</ele>
        <time>2018-07-08T12:54:07Z</time>
      </trkpt>
      <trkpt lat="49.00795" lon="1.84657">
        <ele>165.38</ele>
        <time>2018-07-08T12:54:29Z</time>
      </trkpt>
      <trkpt lat="49.00789" lon="1.84675">
        <ele>165.83</ele>
        <time>2018-07-08T12:54:38Z</time>
      </trkpt>
      <trkpt lat="49.00788" lon="1.84679">
        <ele>165.83</ele>
        <time>2018-07-08T12:54:40Z</time>
      </trkpt>
      <trkpt lat="49.00782" lon="1.84701">
        <ele>165.16</ele>
        <time>2018-07-08T12:54:53Z</time>
      </trkpt>
      <trkpt lat="49.00775" lon="1.84723">
        <ele>164.87</ele>
        <time>2018-07-08T12:55:09Z</time>
      </trkpt>
      <trkpt lat="49.00768" lon="1.84745">
        <ele>164.66</ele>
        <time>2018-07-08T12:55:24Z</time>
      </trkpt>
      <trkpt lat="49.00757" lon="1.84771">
        <ele>165.12</ele>
        <time>2018-07-08T12:55:39Z</time>
      </trkpt>
      <trkpt lat="49.00753" lon="1.84788">
        <ele>164.58</ele>
        <time>2018-07-08T12:55:56Z</time>
      </trkpt>
      <trkpt lat="49.00747" lon="1.84799">
        <ele>164.57</ele>
        <time>2018-07-08T12:56:05Z</time>
      </trkpt>
      <trkpt lat="49.00742" lon="1.84816">
        <ele>164.72</ele>
        <time>2018-07-08T12:56:18Z</time>
      </trkpt>
      <trkpt lat="49.00732" lon="1.8484">
        <ele>163.95</ele>
        <time>2018-07-08T12:56:35Z</time>
      </trkpt>
      <trkpt lat="49.00724" lon="1.84862">
        <ele>163.73</ele>
        <time>2018-07-08T12:56:49Z</time>
      </trkpt>
      <trkpt lat="49.00716" lon="1.84887">
        <ele>163.82</ele>
        <time>2018-07-08T12:57:06Z</time>
      </trkpt>
      <trkpt lat="49.00705" lon="1.8492">
        <ele>163.09</ele>
        <time>2018-07-08T12:57:26Z</time>
      </trkpt>
      <trkpt lat="49.00695" lon="1.84945">
        <ele>162.25</ele>
        <time>2018-07-08T12:57:44Z</time>
      </trkpt>
      <trkpt lat="49.00688" lon="1.84962">
        <ele>161.6</ele>
        <time>2018-07-08T12:57:55Z</time>
      </trkpt>
      <trkpt lat="49.00678" lon="1.84987">
        <ele>161.65</ele>
        <time>2018-07-08T12:58:11Z</time>
      </trkpt>
      <trkpt lat="49.00665" lon="1.8501">
        <ele>161.18</ele>
        <time>2018-07-08T12:58:28Z</time>
      </trkpt>
      <trkpt lat="49.00656" lon="1.8503">
        <ele>160.72</ele>
        <time>2018-07-08T12:58:42Z</time>
      </trkpt>
      <trkpt lat="49.00646" lon="1.85054">
        <ele>159.93</ele>
        <time>2018-07-08T12:59:00Z</time>
      </trkpt>
      <trkpt lat="49.00632" lon="1.8508">
        <ele>158.16</ele>
        <time>2018-07-08T12:59:18Z</time>
      </trkpt>
      <trkpt lat="49.00622" lon="1.85096">
        <ele>157.33</ele>
        <time>2018-07-08T12:59:31Z</time>
      </trkpt>
      <trkpt lat="49.00608" lon="1.85115">
        <ele>156.74</ele>
        <time>2018-07-08T12:59:46Z</time>
      </trkpt>
      <trkpt lat="49.00591" lon="1.85134">
        <ele>154.57</ele>
        <time>2018-07-08T13:00:05Z</time>
      </trkpt>
      <trkpt lat="49.00574" lon="1.8516">
        <ele>152.69</ele>
        <time>2018-07-08T13:00:26Z</time>
      </trkpt>
      <trkpt lat="49.0056" lon="1.85187">
        <ele>151.7</ele>
        <time>2018-07-08T13:00:45Z</time>
      </trkpt>
      <trkpt lat="49.00547" lon="1.85212">
        <ele>151.65</ele>
        <time>2018-07-08T13:01:04Z</time>
      </trkpt>
      <trkpt lat="49.00537" lon="1.85229">
        <ele>151.15</ele>
        <time>2018-07-08T13:01:19Z</time>
      </trkpt>
      <trkpt lat="49.00519" lon="1.85252">
        <ele>151.17</ele>
        <time>2018-07-08T13:01:37Z</time>
      </trkpt>
      <trkpt lat="49.0051" lon="1.85268">
        <ele>151.33</ele>
        <time>2018-07-08T13:01:50Z</time>
      </trkpt>
      <trkpt lat="49.00508" lon="1.85274">
        <ele>149.89</ele>
        <time>2018-07-08T13:02:11Z</time>
      </trkpt>
      <trkpt lat="49.00501" lon="1.85277">
        <ele>150.37</ele>
        <time>2018-07-08T13:02:33Z</time>
      </trkpt>
      <trkpt lat="49.00498" lon="1.85278">
        <ele>150.55</ele>
        <time>2018-07-08T13:02:53Z</time>
      </trkpt>
      <trkpt lat="49.00497" lon="1.85279">
        <ele>150.65</ele>
        <time>2018-07-08T13:03:02Z</time>
      </trkpt>
      <trkpt lat="49.0049" lon="1.85286">
        <ele>150.01</ele>
        <time>2018-07-08T13:03:22Z</time>
      </trkpt>
      <trkpt lat="49.00484" lon="1.85296">
        <ele>149.19</ele>
        <time>2018-07-08T13:03:41Z</time>
      </trkpt>
      <trkpt lat="49.0047" lon="1.85304">
        <ele>148.39</ele>
        <time>2018-07-08T13:04:00Z</time>
      </trkpt>
      <trkpt lat="49.00463" lon="1.85318">
        <ele>147.11</ele>
        <time>2018-07-08T13:04:17Z</time>
      </trkpt>
      <trkpt lat="49.00456" lon="1.85328">
        <ele>145.94</ele>
        <time>2018-07-08T13:04:34Z</time>
      </trkpt>
      <trkpt lat="49.00446" lon="1.8534">
        <ele>145.73</ele>
        <time>2018-07-08T13:04:49Z</time>
      </trkpt>
      <trkpt lat="49.00433" lon="1.85356">
        <ele>144.83</ele>
        <time>2018-07-08T13:05:06Z</time>
      </trkpt>
      <trkpt lat="49.00428" lon="1.85367">
        <ele>144.17</ele>
        <time>2018-07-08T13:05:15Z</time>
      </trkpt>
      <trkpt lat="49.00424" lon="1.85376">
        <ele>143.26</ele>
        <time>2018-07-08T13:05:22Z</time>
      </trkpt>
      <trkpt lat="49.00422" lon="1.8538">
        <ele>143.01</ele>
        <time>2018-07-08T13:05:35Z</time>
      </trkpt>
      <trkpt lat="49.00418" lon="1.85388">
        <ele>142.53</ele>
        <time>2018-07-08T13:05:43Z</time>
      </trkpt>
      <trkpt lat="49.00409" lon="1.85411">
        <ele>142.22</ele>
        <time>2018-07-08T13:06:00Z</time>
      </trkpt>
      <trkpt lat="49.00402" lon="1.8543">
        <ele>141.89</ele>
        <time>2018-07-08T13:06:15Z</time>
      </trkpt>
      <trkpt lat="49.00394" lon="1.85445">
        <ele>142.09</ele>
        <time>2018-07-08T13:06:26Z</time>
      </trkpt>
      <trkpt lat="49.00382" lon="1.85468">
        <ele>141.19</ele>
        <time>2018-07-08T13:06:43Z</time>
      </trkpt>
      <trkpt lat="49.00372" lon="1.85487">
        <ele>139.95</ele>
        <time>2018-07-08T13:06:57Z</time>
      </trkpt>
      <trkpt lat="49.0036" lon="1.85515">
        <ele>138.34</ele>
        <time>2018-07-08T13:07:15Z</time>
      </trkpt>
      <trkpt lat="49.0035" lon="1.85544">
        <ele>137.16</ele>
        <time>2018-07-08T13:07:32Z</time>
      </trkpt>
      <trkpt lat="49.00336" lon="1.85567">
        <ele>136.17</ele>
        <time>2018-07-08T13:07:50Z</time>
      </trkpt>
      <trkpt lat="49.00322" lon="1.85584">
        <ele>134.67</ele>
        <time>2018-07-08T13:08:07Z</time>
      </trkpt>
      <trkpt lat="49.0031" lon="1.85585">
        <ele>133.92</ele>
        <time>2018-07-08T13:08:23Z</time>
      </trkpt>
      <trkpt lat="49.00297" lon="1.8557">
        <ele>133.89</ele>
        <time>2018-07-08T13:08:45Z</time>
      </trkpt>
      <trkpt lat="49.00291" lon="1.85554">
        <ele>133.4</ele>
        <time>2018-07-08T13:09:06Z</time>
      </trkpt>
      <trkpt lat="49.00287" lon="1.8554">
        <ele>132.79</ele>
        <time>2018-07-08T13:09:24Z</time>
      </trkpt>
      <trkpt lat="49.0028" lon="1.85528">
        <ele>132.49</ele>
        <time>2018-07-08T13:09:39Z</time>
      </trkpt>
      <trkpt lat="49.00277" lon="1.85522">
        <ele>132.2</ele>
        <time>2018-07-08T13:09:44Z</time>
      </trkpt>
      <trkpt lat="49.00262" lon="1.85488">
        <ele>130.32</ele>
        <time>2018-07-08T13:10:02Z</time>
      </trkpt>
      <trkpt lat="49.00257" lon="1.85468">
        <ele>129.16</ele>
        <time>2018-07-08T13:10:19Z</time>
      </trkpt>
      <trkpt lat="49.00246" lon="1.8547">
        <ele>128.7</ele>
        <time>2018-07-08T13:10:42Z</time>
      </trkpt>
      <trkpt lat="49.00245" lon="1.8547">
        <ele>128.7</ele>
        <time>2018-07-08T13:10:43Z</time>
      </trkpt>
      <trkpt lat="49.00236" lon="1.85481">
        <ele>128.58</ele>
        <time>2018-07-08T13:10:56Z</time>
      </trkpt>
      <trkpt lat="49.0023" lon="1.85488">
        <ele>128.26</ele>
        <time>2018-07-08T13:11:09Z</time>
      </trkpt>
      <trkpt lat="49.00229" lon="1.85489">
        <ele>127.95</ele>
        <time>2018-07-08T13:11:10Z</time>
      </trkpt>
      <trkpt lat="49.00225" lon="1.8549">
        <ele>127.92</ele>
        <time>2018-07-08T13:11:13Z</time>
      </trkpt>
      <trkpt lat="49.00219" lon="1.85498">
        <ele>127.56</ele>
        <time>2018-07-08T13:11:21Z</time>
      </trkpt>
      <trkpt lat="49.00216" lon="1.85502">
        <ele>127.7</ele>
        <time>2018-07-08T13:11:25Z</time>
      </trkpt>
      <trkpt lat="49.00213" lon="1.85507">
        <ele>127.74</ele>
        <time>2018-07-08T13:11:29Z</time>
      </trkpt>
      <trkpt lat="49.00209" lon="1.85511">
        <ele>127.76</ele>
        <time>2018-07-08T13:11:33Z</time>
      </trkpt>
      <trkpt lat="49.00191" lon="1.85531">
        <ele>128.74</ele>
        <time>2018-07-08T13:11:55Z</time>
      </trkpt>
      <trkpt lat="49.00182" lon="1.85543">
        <ele>129.98</ele>
        <time>2018-07-08T13:12:09Z</time>
      </trkpt>
      <trkpt lat="49.00175" lon="1.85557">
        <ele>131.05</ele>
        <time>2018-07-08T13:12:23Z</time>
      </trkpt>
      <trkpt lat="49.00169" lon="1.85569">
        <ele>131.56</ele>
        <time>2018-07-08T13:12:34Z</time>
      </trkpt>
      <trkpt lat="49.00157" lon="1.85596">
        <ele>133.26</ele>
        <time>2018-07-08T13:12:54Z</time>
      </trkpt>
      <trkpt lat="49.00144" lon="1.85618">
        <ele>133.48</ele>
        <time>2018-07-08T13:13:10Z</time>
      </trkpt>
      <trkpt lat="49.00134" lon="1.85637">
        <ele>134.29</ele>
        <time>2018-07-08T13:13:23Z</time>
      </trkpt>
      <trkpt lat="49.0012" lon="1.85662">
        <ele>134.63</ele>
        <time>2018-07-08T13:13:40Z</time>
      </trkpt>
      <trkpt lat="49.00113" lon="1.85687">
        <ele>135.82</ele>
        <time>2018-07-08T13:13:55Z</time>
      </trkpt>
      <trkpt lat="49.00105" lon="1.85727">
        <ele>136.31</ele>
        <time>2018-07-08T13:14:19Z</time>
      </trkpt>
      <trkpt lat="49.00104" lon="1.8574">
        <ele>137.2</ele>
        <time>2018-07-08T13:14:30Z</time>
      </trkpt>
      <trkpt lat="49.00105" lon="1.85746">
        <ele>137.59</ele>
        <time>2018-07-08T13:14:34Z</time>
      </trkpt>
      <trkpt lat="49.00106" lon="1.85753">
        <ele>137.47</ele>
        <time>2018-07-08T13:14:38Z</time>
      </trkpt>
      <trkpt lat="49.00109" lon="1.85766">
        <ele>137.7</ele>
        <time>2018-07-08T13:14:46Z</time>
      </trkpt>
      <trkpt lat="49.00114" lon="1.85778">
        <ele>137.94</ele>
        <time>2018-07-08T13:14:54Z</time>
      </trkpt>
      <trkpt lat="49.0012" lon="1.85796">
        <ele>137.9</ele>
        <time>2018-07-08T13:15:07Z</time>
      </trkpt>
      <trkpt lat="49.00124" lon="1.85807">
        <ele>137.19</ele>
        <time>2018-07-08T13:15:15Z</time>
      </trkpt>
      <trkpt lat="49.00131" lon="1.85823">
        <ele>136.07</ele>
        <time>2018-07-08T13:15:28Z</time>
      </trkpt>
      <trkpt lat="49.00133" lon="1.85827">
        <ele>136.61</ele>
        <time>2018-07-08T13:15:31Z</time>
      </trkpt>
      <trkpt lat="49.00135" lon="1.85832">
        <ele>135.84</ele>
        <time>2018-07-08T13:15:34Z</time>
      </trkpt>
      <trkpt lat="49.00136" lon="1.85835">
        <ele>135.71</ele>
        <time>2018-07-08T13:15:36Z</time>
      </trkpt>
      <trkpt lat="49.00143" lon="1.85854">
        <ele>134.99</ele>
        <time>2018-07-08T13:15:48Z</time>
      </trkpt>
      <trkpt lat="49.0015" lon="1.85867">
        <ele>134.9</ele>
        <time>2018-07-08T13:16:01Z</time>
      </trkpt>
      <trkpt lat="49.0015" lon="1.85868">
        <ele>134.91</ele>
        <time>2018-07-08T13:16:02Z</time>
      </trkpt>
      <trkpt lat="49.00152" lon="1.85884">
        <ele>133.72</ele>
        <time>2018-07-08T13:16:19Z</time>
      </trkpt>
      <trkpt lat="49.00148" lon="1.85889">
        <ele>133.77</ele>
        <time>2018-07-08T13:16:25Z</time>
      </trkpt>
      <trkpt lat="49.00142" lon="1.85893">
        <ele>134.57</ele>
        <time>2018-07-08T13:16:34Z</time>
      </trkpt>
      <trkpt lat="49.00137" lon="1.85894">
        <ele>134.31</ele>
        <time>2018-07-08T13:16:39Z</time>
      </trkpt>
      <trkpt lat="49.00122" lon="1.85897">
        <ele>134.38</ele>
        <time>2018-07-08T13:16:53Z</time>
      </trkpt>
      <trkpt lat="49.00112" lon="1.85897">
        <ele>134.27</ele>
        <time>2018-07-08T13:17:01Z</time>
      </trkpt>
      <trkpt lat="49.00098" lon="1.85896">
        <ele>134.97</ele>
        <time>2018-07-08T13:17:14Z</time>
      </trkpt>
      <trkpt lat="49.001" lon="1.85895">
        <ele>134.45</ele>
        <time>2018-07-08T13:17:26Z</time>
      </trkpt>
      <trkpt lat="49.00109" lon="1.85895">
        <ele>135.23</ele>
        <time>2018-07-08T13:17:42Z</time>
      </trkpt>
      <trkpt lat="49.00117" lon="1.85892">
        <ele>135.3</ele>
        <time>2018-07-08T13:17:58Z</time>
      </trkpt>
      <trkpt lat="49.00118" lon="1.85893">
        <ele>135.39</ele>
        <time>2018-07-08T13:18:24Z</time>
      </trkpt>
      <trkpt lat="49.00115" lon="1.85891">
        <ele>134.72</ele>
        <time>2018-07-08T13:18:33Z</time>
      </trkpt>
      <trkpt lat="49.00106" lon="1.85894">
        <ele>135.44</ele>
        <time>2018-07-08T13:18:48Z</time>
      </trkpt>
      <trkpt lat="49.00098" lon="1.85893">
        <ele>135.81</ele>
        <time>2018-07-08T13:19:03Z</time>
      </trkpt>
      <trkpt lat="49.0009" lon="1.85896">
        <ele>136.05</ele>
        <time>2018-07-08T13:19:18Z</time>
      </trkpt>
      <trkpt lat="49.00084" lon="1.85897">
        <ele>136.27</ele>
        <time>2018-07-08T13:19:27Z</time>
      </trkpt>
      <trkpt lat="49.0008" lon="1.85897">
        <ele>137.37</ele>
        <time>2018-07-08T13:19:31Z</time>
      </trkpt>
      <trkpt lat="49.0007" lon="1.85899">
        <ele>137.34</ele>
        <time>2018-07-08T13:19:45Z</time>
      </trkpt>
      <trkpt lat="49.00068" lon="1.85898">
        <ele>137.43</ele>
        <time>2018-07-08T13:19:54Z</time>
      </trkpt>
      <trkpt lat="49.00066" lon="1.85895">
        <ele>137.63</ele>
        <time>2018-07-08T13:19:58Z</time>
      </trkpt>
      <trkpt lat="49.00059" lon="1.85894">
        <ele>137.51</ele>
        <time>2018-07-08T13:20:18Z</time>
      </trkpt>
      <trkpt lat="49.00043" lon="1.85902">
        <ele>139.6</ele>
        <time>2018-07-08T13:20:37Z</time>
      </trkpt>
      <trkpt lat="49.00027" lon="1.85905">
        <ele>140.69</ele>
        <time>2018-07-08T13:20:57Z</time>
      </trkpt>
      <trkpt lat="49.00005" lon="1.8591">
        <ele>140.66</ele>
        <time>2018-07-08T13:21:19Z</time>
      </trkpt>
      <trkpt lat="48.99992" lon="1.85912">
        <ele>139.94</ele>
        <time>2018-07-08T13:21:40Z</time>
      </trkpt>
      <trkpt lat="48.99988" lon="1.85911">
        <ele>139.51</ele>
        <time>2018-07-08T13:21:43Z</time>
      </trkpt>
      <trkpt lat="48.99978" lon="1.85916">
        <ele>139.61</ele>
        <time>2018-07-08T13:21:51Z</time>
      </trkpt>
      <trkpt lat="48.99953" lon="1.85925">
        <ele>138.64</ele>
        <time>2018-07-08T13:22:12Z</time>
      </trkpt>
      <trkpt lat="48.99928" lon="1.85932">
        <ele>137.23</ele>
        <time>2018-07-08T13:22:33Z</time>
      </trkpt>
      <trkpt lat="48.99912" lon="1.85938">
        <ele>135.9</ele>
        <time>2018-07-08T13:22:50Z</time>
      </trkpt>
      <trkpt lat="48.9991" lon="1.85939">
        <ele>136.07</ele>
        <time>2018-07-08T13:22:51Z</time>
      </trkpt>
      <trkpt lat="48.99901" lon="1.85941">
        <ele>135.02</ele>
        <time>2018-07-08T13:22:59Z</time>
      </trkpt>
      <trkpt lat="48.99874" lon="1.85945">
        <ele>134.27</ele>
        <time>2018-07-08T13:23:18Z</time>
      </trkpt>
      <trkpt lat="48.99847" lon="1.8595">
        <ele>132.34</ele>
        <time>2018-07-08T13:23:40Z</time>
      </trkpt>
      <trkpt lat="48.99823" lon="1.85955">
        <ele>130.55</ele>
        <time>2018-07-08T13:24:01Z</time>
      </trkpt>
      <trkpt lat="48.9982" lon="1.85957">
        <ele>130.68</ele>
        <time>2018-07-08T13:24:04Z</time>
      </trkpt>
      <trkpt lat="48.99804" lon="1.85958">
        <ele>129.88</ele>
        <time>2018-07-08T13:24:16Z</time>
      </trkpt>
      <trkpt lat="48.99794" lon="1.8596">
        <ele>128.25</ele>
        <time>2018-07-08T13:24:24Z</time>
      </trkpt>
      <trkpt lat="48.99778" lon="1.85967">
        <ele>127.34</ele>
        <time>2018-07-08T13:24:39Z</time>
      </trkpt>
      <trkpt lat="48.99775" lon="1.8597">
        <ele>127.13</ele>
        <time>2018-07-08T13:24:42Z</time>
      </trkpt>
      <trkpt lat="48.99765" lon="1.85977">
        <ele>125.99</ele>
        <time>2018-07-08T13:24:52Z</time>
      </trkpt>
      <trkpt lat="48.99762" lon="1.85978">
        <ele>125.78</ele>
        <time>2018-07-08T13:24:55Z</time>
      </trkpt>
      <trkpt lat="48.99751" lon="1.85983">
        <ele>125.06</ele>
        <time>2018-07-08T13:25:13Z</time>
      </trkpt>
      <trkpt lat="48.99746" lon="1.85983">
        <ele>124.54</ele>
        <time>2018-07-08T13:25:34Z</time>
      </trkpt>
      <trkpt lat="48.99742" lon="1.85985">
        <ele>123.86</ele>
        <time>2018-07-08T13:25:59Z</time>
      </trkpt>
      <trkpt lat="48.9973" lon="1.85991">
        <ele>122.9</ele>
        <time>2018-07-08T13:26:19Z</time>
      </trkpt>
      <trkpt lat="48.99727" lon="1.8599">
        <ele>123.28</ele>
        <time>2018-07-08T13:26:21Z</time>
      </trkpt>
      <trkpt lat="48.9972" lon="1.8599">
        <ele>123.02</ele>
        <time>2018-07-08T13:26:37Z</time>
      </trkpt>
      <trkpt lat="48.99721" lon="1.8599">
        <ele>122.83</ele>
        <time>2018-07-08T13:26:38Z</time>
      </trkpt>
      <trkpt lat="48.99714" lon="1.85994">
        <ele>121.88</ele>
        <time>2018-07-08T13:26:51Z</time>
      </trkpt>
      <trkpt lat="48.99712" lon="1.85994">
        <ele>121.97</ele>
        <time>2018-07-08T13:26:53Z</time>
      </trkpt>
      <trkpt lat="48.997" lon="1.85994">
        <ele>120.71</ele>
        <time>2018-07-08T13:27:08Z</time>
      </trkpt>
      <trkpt lat="48.99692" lon="1.85997">
        <ele>119.77</ele>
        <time>2018-07-08T13:27:22Z</time>
      </trkpt>
      <trkpt lat="48.99678" lon="1.86002">
        <ele>118.26</ele>
        <time>2018-07-08T13:27:36Z</time>
      </trkpt>
      <trkpt lat="48.99673" lon="1.86004">
        <ele>117.88</ele>
        <time>2018-07-08T13:27:40Z</time>
      </trkpt>
      <trkpt lat="48.9967" lon="1.86004">
        <ele>117.6</ele>
        <time>2018-07-08T13:27:42Z</time>
      </trkpt>
      <trkpt lat="48.99661" lon="1.86009">
        <ele>115.87</ele>
        <time>2018-07-08T13:27:57Z</time>
      </trkpt>
      <trkpt lat="48.99662" lon="1.86019">
        <ele>116.3</ele>
        <time>2018-07-08T13:28:12Z</time>
      </trkpt>
      <trkpt lat="48.99657" lon="1.86016">
        <ele>115.75</ele>
        <time>2018-07-08T13:28:32Z</time>
      </trkpt>
      <trkpt lat="48.99651" lon="1.8602">
        <ele>114.76</ele>
        <time>2018-07-08T13:28:39Z</time>
      </trkpt>
      <trkpt lat="48.99638" lon="1.86025">
        <ele>113.74</ele>
        <time>2018-07-08T13:28:50Z</time>
      </trkpt>
      <trkpt lat="48.99634" lon="1.86028">
        <ele>113.28</ele>
        <time>2018-07-08T13:28:54Z</time>
      </trkpt>
      <trkpt lat="48.99626" lon="1.86031">
        <ele>113.43</ele>
        <time>2018-07-08T13:29:00Z</time>
      </trkpt>
      <trkpt lat="48.99606" lon="1.86043">
        <ele>112.13</ele>
        <time>2018-07-08T13:29:18Z</time>
      </trkpt>
      <trkpt lat="48.99605" lon="1.86043">
        <ele>110.69</ele>
        <time>2018-07-08T13:29:20Z</time>
      </trkpt>
      <trkpt lat="48.99593" lon="1.86047">
        <ele>109.04</ele>
        <time>2018-07-08T13:29:34Z</time>
      </trkpt>
      <trkpt lat="48.9958" lon="1.86049">
        <ele>107.62</ele>
        <time>2018-07-08T13:29:47Z</time>
      </trkpt>
      <trkpt lat="48.9956" lon="1.86047">
        <ele>104.77</ele>
        <time>2018-07-08T13:30:04Z</time>
      </trkpt>
      <trkpt lat="48.99542" lon="1.86045">
        <ele>101.73</ele>
        <time>2018-07-08T13:30:21Z</time>
      </trkpt>
      <trkpt lat="48.99535" lon="1.86048">
        <ele>99.91</ele>
        <time>2018-07-08T13:30:29Z</time>
      </trkpt>
      <trkpt lat="48.99524" lon="1.86051">
        <ele>96.82</ele>
        <time>2018-07-08T13:30:44Z</time>
      </trkpt>
      <trkpt lat="48.99514" lon="1.86043">
        <ele>93.8</ele>
        <time>2018-07-08T13:30:59Z</time>
      </trkpt>
      <trkpt lat="48.99511" lon="1.86035">
        <ele>91.91</ele>
        <time>2018-07-08T13:31:13Z</time>
      </trkpt>
      <trkpt lat="48.99509" lon="1.86028">
        <ele>92.34</ele>
        <time>2018-07-08T13:31:42Z</time>
      </trkpt>
      <trkpt lat="48.99509" lon="1.86026">
        <ele>92.89</ele>
        <time>2018-07-08T13:31:50Z</time>
      </trkpt>
      <trkpt lat="48.995" lon="1.86016">
        <ele>91.16</ele>
        <time>2018-07-08T13:32:09Z</time>
      </trkpt>
      <trkpt lat="48.99487" lon="1.8601">
        <ele>88.01</ele>
        <time>2018-07-08T13:32:27Z</time>
      </trkpt>
      <trkpt lat="48.9948" lon="1.86008">
        <ele>86.16</ele>
        <time>2018-07-08T13:32:43Z</time>
      </trkpt>
      <trkpt lat="48.9948" lon="1.86007">
        <ele>85.63</ele>
        <time>2018-07-08T13:32:44Z</time>
      </trkpt>
      <trkpt lat="48.99465" lon="1.85999">
        <ele>83.7</ele>
        <time>2018-07-08T13:32:58Z</time>
      </trkpt>
      <trkpt lat="48.99452" lon="1.85992">
        <ele>80.6</ele>
        <time>2018-07-08T13:33:13Z</time>
      </trkpt>
      <trkpt lat="48.99438" lon="1.8599">
        <ele>77.05</ele>
        <time>2018-07-08T13:33:25Z</time>
      </trkpt>
      <trkpt lat="48.99429" lon="1.85988">
        <ele>75.85</ele>
        <time>2018-07-08T13:33:33Z</time>
      </trkpt>
      <trkpt lat="48.99415" lon="1.8599">
        <ele>73.78</ele>
        <time>2018-07-08T13:33:46Z</time>
      </trkpt>
      <trkpt lat="48.99406" lon="1.85989">
        <ele>73.24</ele>
        <time>2018-07-08T13:33:55Z</time>
      </trkpt>
      <trkpt lat="48.99398" lon="1.8599">
        <ele>69.67</ele>
        <time>2018-07-08T13:34:02Z</time>
      </trkpt>
      <trkpt lat="48.99397" lon="1.8599">
        <ele>69.7</ele>
        <time>2018-07-08T13:34:03Z</time>
      </trkpt>
      <trkpt lat="48.99393" lon="1.85993">
        <ele>71.11</ele>
        <time>2018-07-08T13:34:08Z</time>
      </trkpt>
      <trkpt lat="48.99392" lon="1.85992">
        <ele>71.27</ele>
        <time>2018-07-08T13:34:14Z</time>
      </trkpt>
      <trkpt lat="48.99387" lon="1.85993">
        <ele>71.3</ele>
        <time>2018-07-08T13:34:19Z</time>
      </trkpt>
      <trkpt lat="48.99385" lon="1.85994">
        <ele>71.32</ele>
        <time>2018-07-08T13:34:21Z</time>
      </trkpt>
      <trkpt lat="48.99381" lon="1.85998">
        <ele>69.32</ele>
        <time>2018-07-08T13:34:36Z</time>
      </trkpt>
      <trkpt lat="48.99375" lon="1.85994">
        <ele>68.08</ele>
        <time>2018-07-08T13:34:54Z</time>
      </trkpt>
      <trkpt lat="48.99364" lon="1.85996">
        <ele>66.02</ele>
        <time>2018-07-08T13:35:13Z</time>
      </trkpt>
      <trkpt lat="48.99348" lon="1.85996">
        <ele>63.01</ele>
        <time>2018-07-08T13:35:30Z</time>
      </trkpt>
      <trkpt lat="48.99337" lon="1.85996">
        <ele>59.76</ele>
        <time>2018-07-08T13:35:50Z</time>
      </trkpt>
      <trkpt lat="48.99327" lon="1.85998">
        <ele>56.67</ele>
        <time>2018-07-08T13:36:02Z</time>
      </trkpt>
      <trkpt lat="48.9931" lon="1.85997">
        <ele>53.52</ele>
        <time>2018-07-08T13:36:20Z</time>
      </trkpt>
      <trkpt lat="48.99298" lon="1.85992">
        <ele>50.42</ele>
        <time>2018-07-08T13:36:33Z</time>
      </trkpt>
      <trkpt lat="48.99295" lon="1.85991">
        <ele>50.52</ele>
        <time>2018-07-08T13:36:38Z</time>
      </trkpt>
      <trkpt lat="48.99291" lon="1.85991">
        <ele>50.38</ele>
        <time>2018-07-08T13:36:42Z</time>
      </trkpt>
      <trkpt lat="48.99283" lon="1.85987">
        <ele>46.92</ele>
        <time>2018-07-08T13:36:53Z</time>
      </trkpt>
      <trkpt lat="48.99269" lon="1.85996">
        <ele>43.09</ele>
        <time>2018-07-08T13:37:13Z</time>
      </trkpt>
      <trkpt lat="48.99262" lon="1.85996">
        <ele>41.31</ele>
        <time>2018-07-08T13:37:27Z</time>
      </trkpt>
      <trkpt lat="48.99261" lon="1.86002">
        <ele>41.09</ele>
        <time>2018-07-08T13:37:49Z</time>
      </trkpt>
      <trkpt lat="48.99248" lon="1.85997">
        <ele>37.82</ele>
        <time>2018-07-08T13:38:07Z</time>
      </trkpt>
      <trkpt lat="48.99244" lon="1.85998">
        <ele>37</ele>
        <time>2018-07-08T13:38:11Z</time>
      </trkpt>
      <trkpt lat="48.99232" lon="1.86002">
        <ele>34.35</ele>
        <time>2018-07-08T13:38:23Z</time>
      </trkpt>
      <trkpt lat="48.99218" lon="1.86007">
        <ele>32.38</ele>
        <time>2018-07-08T13:38:39Z</time>
      </trkpt>
      <trkpt lat="48.99216" lon="1.86018">
        <ele>32.27</ele>
        <time>2018-07-08T13:38:57Z</time>
      </trkpt>
      <trkpt lat="48.99208" lon="1.86023">
        <ele>31.89</ele>
        <time>2018-07-08T13:39:15Z</time>
      </trkpt>
      <trkpt lat="48.99202" lon="1.86036">
        <ele>31.47</ele>
        <time>2018-07-08T13:39:36Z</time>
      </trkpt>
      <trkpt lat="48.99207" lon="1.8605">
        <ele>31.87</ele>
        <time>2018-07-08T13:39:52Z</time>
      </trkpt>
      <trkpt lat="48.9921" lon="1.86066">
        <ele>31.16</ele>
        <time>2018-07-08T13:40:05Z</time>
      </trkpt>
      <trkpt lat="48.99211" lon="1.86071">
        <ele>31.62</ele>
        <time>2018-07-08T13:40:08Z</time>
      </trkpt>
      <trkpt lat="48.99209" lon="1.86077">
        <ele>31.58</ele>
        <time>2018-07-08T13:40:26Z</time>
      </trkpt>
      <trkpt lat="48.99199" lon="1.86081">
        <ele>30.93</ele>
        <time>2018-07-08T13:40:45Z</time>
      </trkpt>
      <trkpt lat="48.99192" lon="1.86085">
        <ele>30.49</ele>
        <time>2018-07-08T13:40:57Z</time>
      </trkpt>
      <trkpt lat="48.99185" lon="1.86088">
        <ele>29.88</ele>
        <time>2018-07-08T13:41:07Z</time>
      </trkpt>
      <trkpt lat="48.99173" lon="1.86097">
        <ele>28.63</ele>
        <time>2018-07-08T13:41:22Z</time>
      </trkpt>
      <trkpt lat="48.99172" lon="1.86099">
        <ele>28.71</ele>
        <time>2018-07-08T13:41:42Z</time>
      </trkpt>
      <trkpt lat="48.9917" lon="1.86094">
        <ele>28.65</ele>
        <time>2018-07-08T13:42:00Z</time>
      </trkpt>
      <trkpt lat="48.99169" lon="1.86081">
        <ele>29.23</ele>
        <time>2018-07-08T13:42:24Z</time>
      </trkpt>
      <trkpt lat="48.99166" lon="1.86075">
        <ele>29.61</ele>
        <time>2018-07-08T13:42:32Z</time>
      </trkpt>
      <trkpt lat="48.99154" lon="1.86045">
        <ele>29.62</ele>
        <time>2018-07-08T13:42:51Z</time>
      </trkpt>
      <trkpt lat="48.99146" lon="1.86027">
        <ele>29.43</ele>
        <time>2018-07-08T13:43:08Z</time>
      </trkpt>
      <trkpt lat="48.99141" lon="1.86012">
        <ele>28.74</ele>
        <time>2018-07-08T13:43:21Z</time>
      </trkpt>
      <trkpt lat="48.99138" lon="1.85992">
        <ele>29</ele>
        <time>2018-07-08T13:43:43Z</time>
      </trkpt>
      <trkpt lat="48.99136" lon="1.85975">
        <ele>28.14</ele>
        <time>2018-07-08T13:44:02Z</time>
      </trkpt>
      <trkpt lat="48.99131" lon="1.85951">
        <ele>26.2</ele>
        <time>2018-07-08T13:44:21Z</time>
      </trkpt>
      <trkpt lat="48.99125" lon="1.85931">
        <ele>26.32</ele>
        <time>2018-07-08T13:44:36Z</time>
      </trkpt>
      <trkpt lat="48.99124" lon="1.85927">
        <ele>26.1</ele>
        <time>2018-07-08T13:44:38Z</time>
      </trkpt>
      <trkpt lat="48.99113" lon="1.85895">
        <ele>26.37</ele>
        <time>2018-07-08T13:44:59Z</time>
      </trkpt>
      <trkpt lat="48.99103" lon="1.85865">
        <ele>26.64</ele>
        <time>2018-07-08T13:45:22Z</time>
      </trkpt>
      <trkpt lat="48.99098" lon="1.85816">
        <ele>26.07</ele>
        <time>2018-07-08T13:45:44Z</time>
      </trkpt>
      <trkpt lat="48.99095" lon="1.858">
        <ele>26.18</ele>
        <time>2018-07-08T13:46:02Z</time>
      </trkpt>
      <trkpt lat="48.9909" lon="1.85787">
        <ele>25.8</ele>
        <time>2018-07-08T13:46:19Z</time>
      </trkpt>
      <trkpt lat="48.99088" lon="1.85754">
        <ele>25.35</ele>
        <time>2018-07-08T13:46:41Z</time>
      </trkpt>
      <trkpt lat="48.99085" lon="1.85726">
        <ele>25.61</ele>
        <time>2018-07-08T13:46:55Z</time>
      </trkpt>
      <trkpt lat="48.99079" lon="1.85695">
        <ele>24.87</ele>
        <time>2018-07-08T13:47:16Z</time>
      </trkpt>
      <trkpt lat="48.99072" lon="1.85664">
        <ele>24.85</ele>
        <time>2018-07-08T13:47:35Z</time>
      </trkpt>
      <trkpt lat="48.9907" lon="1.85661">
        <ele>23.94</ele>
        <time>2018-07-08T13:47:40Z</time>
      </trkpt>
      <trkpt lat="48.99072" lon="1.85656">
        <ele>24.52</ele>
        <time>2018-07-08T13:47:57Z</time>
      </trkpt>
      <trkpt lat="48.9907" lon="1.85636">
        <ele>24.62</ele>
        <time>2018-07-08T13:48:16Z</time>
      </trkpt>
      <trkpt lat="48.99068" lon="1.85627">
        <ele>24.21</ele>
        <time>2018-07-08T13:48:20Z</time>
      </trkpt>
      <trkpt lat="48.99065" lon="1.85612">
        <ele>24.22</ele>
        <time>2018-07-08T13:48:26Z</time>
      </trkpt>
      <trkpt lat="48.99062" lon="1.85598">
        <ele>24.47</ele>
        <time>2018-07-08T13:48:32Z</time>
      </trkpt>
      <trkpt lat="48.99056" lon="1.85566">
        <ele>23.77</ele>
        <time>2018-07-08T13:48:51Z</time>
      </trkpt>
      <trkpt lat="48.99051" lon="1.85536">
        <ele>23.91</ele>
        <time>2018-07-08T13:49:10Z</time>
      </trkpt>
      <trkpt lat="48.99045" lon="1.85503">
        <ele>23.72</ele>
        <time>2018-07-08T13:49:29Z</time>
      </trkpt>
      <trkpt lat="48.99039" lon="1.8547">
        <ele>23.5</ele>
        <time>2018-07-08T13:49:47Z</time>
      </trkpt>
      <trkpt lat="48.99039" lon="1.85469">
        <ele>23.13</ele>
        <time>2018-07-08T13:49:48Z</time>
      </trkpt>
      <trkpt lat="48.99036" lon="1.85448">
        <ele>23.13</ele>
        <time>2018-07-08T13:50:06Z</time>
      </trkpt>
      <trkpt lat="48.99034" lon="1.85434">
        <ele>22.57</ele>
        <time>2018-07-08T13:50:22Z</time>
      </trkpt>
      <trkpt lat="48.99031" lon="1.85414">
        <ele>22.46</ele>
        <time>2018-07-08T13:50:38Z</time>
      </trkpt>
      <trkpt lat="48.9903" lon="1.85392">
        <ele>23.06</ele>
        <time>2018-07-08T13:51:00Z</time>
      </trkpt>
      <trkpt lat="48.99026" lon="1.85365">
        <ele>22.56</ele>
        <time>2018-07-08T13:51:16Z</time>
      </trkpt>
      <trkpt lat="48.99023" lon="1.85343">
        <ele>22.67</ele>
        <time>2018-07-08T13:51:34Z</time>
      </trkpt>
      <trkpt lat="48.99013" lon="1.8532">
        <ele>22.13</ele>
        <time>2018-07-08T13:51:51Z</time>
      </trkpt>
      <trkpt lat="48.99012" lon="1.85292">
        <ele>21.88</ele>
        <time>2018-07-08T13:52:12Z</time>
      </trkpt>
      <trkpt lat="48.99009" lon="1.85267">
        <ele>21.45</ele>
        <time>2018-07-08T13:52:28Z</time>
      </trkpt>
      <trkpt lat="48.99009" lon="1.85259">
        <ele>21.1</ele>
        <time>2018-07-08T13:52:33Z</time>
      </trkpt>
      <trkpt lat="48.99007" lon="1.85228">
        <ele>21.07</ele>
        <time>2018-07-08T13:52:50Z</time>
      </trkpt>
      <trkpt lat="48.99002" lon="1.85203">
        <ele>20.87</ele>
        <time>2018-07-08T13:53:07Z</time>
      </trkpt>
      <trkpt lat="48.99002" lon="1.85183">
        <ele>20.64</ele>
        <time>2018-07-08T13:53:20Z</time>
      </trkpt>
      <trkpt lat="48.98995" lon="1.85159">
        <ele>20.64</ele>
        <time>2018-07-08T13:53:38Z</time>
      </trkpt>
      <trkpt lat="48.98991" lon="1.85126">
        <ele>20.27</ele>
        <time>2018-07-08T13:53:56Z</time>
      </trkpt>
      <trkpt lat="48.98986" lon="1.851">
        <ele>20.04</ele>
        <time>2018-07-08T13:54:19Z</time>
      </trkpt>
      <trkpt lat="48.98983" lon="1.85076">
        <ele>20.25</ele>
        <time>2018-07-08T13:54:35Z</time>
      </trkpt>
      <trkpt lat="48.98972" lon="1.85035">
        <ele>19.01</ele>
        <time>2018-07-08T13:54:55Z</time>
      </trkpt>
      <trkpt lat="48.98964" lon="1.85001">
        <ele>18.72</ele>
        <time>2018-07-08T13:55:17Z</time>
      </trkpt>
      <trkpt lat="48.98958" lon="1.84984">
        <ele>18.31</ele>
        <time>2018-07-08T13:55:37Z</time>
      </trkpt>
      <trkpt lat="48.98953" lon="1.8496">
        <ele>18.31</ele>
        <time>2018-07-08T13:55:55Z</time>
      </trkpt>
      <trkpt lat="48.98947" lon="1.84937">
        <ele>18.51</ele>
        <time>2018-07-08T13:56:12Z</time>
      </trkpt>
      <trkpt lat="48.98941" lon="1.84905">
        <ele>18.48</ele>
        <time>2018-07-08T13:56:30Z</time>
      </trkpt>
      <trkpt lat="48.98936" lon="1.84877">
        <ele>17.75</ele>
        <time>2018-07-08T13:56:49Z</time>
      </trkpt>
      <trkpt lat="48.98928" lon="1.8484">
        <ele>16.9</ele>
        <time>2018-07-08T13:57:08Z</time>
      </trkpt>
      <trkpt lat="48.98927" lon="1.84826">
        <ele>17.29</ele>
        <time>2018-07-08T13:57:24Z</time>
      </trkpt>
      <trkpt lat="48.98923" lon="1.84807">
        <ele>16.83</ele>
        <time>2018-07-08T13:57:44Z</time>
      </trkpt>
      <trkpt lat="48.98923" lon="1.84802">
        <ele>16.31</ele>
        <time>2018-07-08T13:58:03Z</time>
      </trkpt>
      <trkpt lat="48.98923" lon="1.84803">
        <ele>16.35</ele>
        <time>2018-07-08T13:58:33Z</time>
      </trkpt>
      <trkpt lat="48.98928" lon="1.84805">
        <ele>16.85</ele>
        <time>2018-07-08T13:58:51Z</time>
      </trkpt>
      <trkpt lat="48.9893" lon="1.84808">
        <ele>17.03</ele>
        <time>2018-07-08T13:59:07Z</time>
      </trkpt>
      <trkpt lat="48.98932" lon="1.84809">
        <ele>17.09</ele>
        <time>2018-07-08T13:59:26Z</time>
      </trkpt>
      <trkpt lat="48.9894" lon="1.84803">
        <ele>17.59</ele>
        <time>2018-07-08T13:59:46Z</time>
      </trkpt>
      <trkpt lat="48.98951" lon="1.848">
        <ele>19.41</ele>
        <time>2018-07-08T14:00:05Z</time>
      </trkpt>
      <trkpt lat="48.98963" lon="1.84795">
        <ele>20.65</ele>
        <time>2018-07-08T14:00:24Z</time>
      </trkpt>
      <trkpt lat="48.98975" lon="1.84792">
        <ele>22.07</ele>
        <time>2018-07-08T14:00:37Z</time>
      </trkpt>
      <trkpt lat="48.98979" lon="1.84788">
        <ele>21.52</ele>
        <time>2018-07-08T14:00:57Z</time>
      </trkpt>
      <trkpt lat="48.98987" lon="1.8479">
        <ele>21.66</ele>
        <time>2018-07-08T14:01:22Z</time>
      </trkpt>
      <trkpt lat="48.9899" lon="1.84785">
        <ele>22.07</ele>
        <time>2018-07-08T14:01:43Z</time>
      </trkpt>
      <trkpt lat="48.99003" lon="1.84778">
        <ele>21.62</ele>
        <time>2018-07-08T14:02:00Z</time>
      </trkpt>
      <trkpt lat="48.99016" lon="1.84774">
        <ele>21.66</ele>
        <time>2018-07-08T14:02:18Z</time>
      </trkpt>
      <trkpt lat="48.9903" lon="1.84762">
        <ele>22.09</ele>
        <time>2018-07-08T14:02:43Z</time>
      </trkpt>
      <trkpt lat="48.99053" lon="1.84761">
        <ele>24.32</ele>
        <time>2018-07-08T14:03:07Z</time>
      </trkpt>
      <trkpt lat="48.99057" lon="1.84761">
        <ele>24.68</ele>
        <time>2018-07-08T14:03:11Z</time>
      </trkpt>
      <trkpt lat="48.99082" lon="1.84756">
        <ele>26.71</ele>
        <time>2018-07-08T14:03:32Z</time>
      </trkpt>
      <trkpt lat="48.99108" lon="1.84751">
        <ele>28.23</ele>
        <time>2018-07-08T14:03:56Z</time>
      </trkpt>
      <trkpt lat="48.99123" lon="1.84753">
        <ele>29.64</ele>
        <time>2018-07-08T14:04:10Z</time>
      </trkpt>
      <trkpt lat="48.99146" lon="1.84747">
        <ele>30.78</ele>
        <time>2018-07-08T14:04:31Z</time>
      </trkpt>
      <trkpt lat="48.99168" lon="1.8474">
        <ele>32.44</ele>
        <time>2018-07-08T14:04:49Z</time>
      </trkpt>
      <trkpt lat="48.9918" lon="1.84738">
        <ele>33.65</ele>
        <time>2018-07-08T14:05:02Z</time>
      </trkpt>
      <trkpt lat="48.99194" lon="1.84734">
        <ele>34.91</ele>
        <time>2018-07-08T14:05:17Z</time>
      </trkpt>
      <trkpt lat="48.99209" lon="1.84729">
        <ele>36.17</ele>
        <time>2018-07-08T14:05:31Z</time>
      </trkpt>
      <trkpt lat="48.99218" lon="1.84722">
        <ele>36.6</ele>
        <time>2018-07-08T14:05:45Z</time>
      </trkpt>
      <trkpt lat="48.99223" lon="1.84719">
        <ele>36.84</ele>
        <time>2018-07-08T14:05:49Z</time>
      </trkpt>
      <trkpt lat="48.99225" lon="1.84715">
        <ele>36.81</ele>
        <time>2018-07-08T14:05:51Z</time>
      </trkpt>
      <trkpt lat="48.99229" lon="1.8471">
        <ele>37.21</ele>
        <time>2018-07-08T14:05:55Z</time>
      </trkpt>
      <trkpt lat="48.99237" lon="1.847">
        <ele>37.55</ele>
        <time>2018-07-08T14:06:04Z</time>
      </trkpt>
      <trkpt lat="48.99248" lon="1.84676">
        <ele>38.44</ele>
        <time>2018-07-08T14:06:24Z</time>
      </trkpt>
    </trkseg>
  </trk>
</gpx>